<?xml version="1.0" encoding="UTF-8" standalone="no" ?>
<gpx xmlns="http://www.topografix.com/GPX/1/1" xmlns:xsi="http://www.w3.org/2001/XMLSchema-instance" xsi:schemaLocation="http://www.topografix.com/GPX/1/1 http://www.topografix.com/GPX/1/1/gpx.xsd" version="1.1" creator="VisuGPX - https://www.visugpx.com">
  <metadata>
    <name>ultra trail de l?absurde</name>
  </metadata>
  <trk>
    <name><![CDATA[ultra trail de l?absurde_1]]></name>
    <trkseg>
      <trkpt lat="47.56163" lon="1.21394">
        <ele>77</ele>
        <time>2021-04-17T08:49:19Z</time>
      </trkpt>
      <trkpt lat="47.56158" lon="1.21388">
        <ele>76</ele>
        <time>2021-04-17T08:49:23Z</time>
      </trkpt>
      <trkpt lat="47.56154" lon="1.21383">
        <ele>75</ele>
        <time>2021-04-17T08:49:27Z</time>
      </trkpt>
      <trkpt lat="47.5615" lon="1.21379">
        <ele>75</ele>
        <time>2021-04-17T08:49:31Z</time>
      </trkpt>
      <trkpt lat="47.56145" lon="1.21373">
        <ele>76</ele>
        <time>2021-04-17T08:49:36Z</time>
      </trkpt>
      <trkpt lat="47.56142" lon="1.21367">
        <ele>77</ele>
        <time>2021-04-17T08:49:40Z</time>
      </trkpt>
      <trkpt lat="47.56139" lon="1.21361">
        <ele>77</ele>
        <time>2021-04-17T08:49:43Z</time>
      </trkpt>
      <trkpt lat="47.56136" lon="1.21352">
        <ele>77</ele>
        <time>2021-04-17T08:49:46Z</time>
      </trkpt>
      <trkpt lat="47.56132" lon="1.21343">
        <ele>77</ele>
        <time>2021-04-17T08:49:49Z</time>
      </trkpt>
      <trkpt lat="47.5613" lon="1.21336">
        <ele>77</ele>
        <time>2021-04-17T08:49:54Z</time>
      </trkpt>
      <trkpt lat="47.56132" lon="1.21323">
        <ele>77</ele>
        <time>2021-04-17T08:49:59Z</time>
      </trkpt>
      <trkpt lat="47.56128" lon="1.21311">
        <ele>80</ele>
        <time>2021-04-17T08:50:03Z</time>
      </trkpt>
      <trkpt lat="47.56124" lon="1.213">
        <ele>80</ele>
        <time>2021-04-17T08:50:07Z</time>
      </trkpt>
      <trkpt lat="47.5612" lon="1.21286">
        <ele>79</ele>
        <time>2021-04-17T08:50:11Z</time>
      </trkpt>
      <trkpt lat="47.56117" lon="1.21273">
        <ele>79</ele>
        <time>2021-04-17T08:50:15Z</time>
      </trkpt>
      <trkpt lat="47.56118" lon="1.21258">
        <ele>79</ele>
        <time>2021-04-17T08:50:19Z</time>
      </trkpt>
      <trkpt lat="47.56119" lon="1.21243">
        <ele>79</ele>
        <time>2021-04-17T08:50:23Z</time>
      </trkpt>
      <trkpt lat="47.56117" lon="1.21227">
        <ele>80</ele>
        <time>2021-04-17T08:50:27Z</time>
      </trkpt>
      <trkpt lat="47.56112" lon="1.21214">
        <ele>79</ele>
        <time>2021-04-17T08:50:30Z</time>
      </trkpt>
      <trkpt lat="47.56108" lon="1.212">
        <ele>81</ele>
        <time>2021-04-17T08:50:34Z</time>
      </trkpt>
      <trkpt lat="47.56099" lon="1.21189">
        <ele>81</ele>
        <time>2021-04-17T08:50:38Z</time>
      </trkpt>
      <trkpt lat="47.56092" lon="1.21179">
        <ele>79</ele>
        <time>2021-04-17T08:50:41Z</time>
      </trkpt>
      <trkpt lat="47.56085" lon="1.21171">
        <ele>79</ele>
        <time>2021-04-17T08:50:44Z</time>
      </trkpt>
      <trkpt lat="47.56077" lon="1.21162">
        <ele>79</ele>
        <time>2021-04-17T08:50:47Z</time>
      </trkpt>
      <trkpt lat="47.56072" lon="1.21155">
        <ele>78</ele>
        <time>2021-04-17T08:50:49Z</time>
      </trkpt>
      <trkpt lat="47.56067" lon="1.21148">
        <ele>79</ele>
        <time>2021-04-17T08:50:51Z</time>
      </trkpt>
      <trkpt lat="47.56061" lon="1.21142">
        <ele>79</ele>
        <time>2021-04-17T08:50:53Z</time>
      </trkpt>
      <trkpt lat="47.56056" lon="1.21136">
        <ele>79</ele>
        <time>2021-04-17T08:50:55Z</time>
      </trkpt>
      <trkpt lat="47.56052" lon="1.21129">
        <ele>78</ele>
        <time>2021-04-17T08:50:57Z</time>
      </trkpt>
      <trkpt lat="47.56044" lon="1.21121">
        <ele>79</ele>
        <time>2021-04-17T08:51:00Z</time>
      </trkpt>
      <trkpt lat="47.5604" lon="1.21114">
        <ele>79</ele>
        <time>2021-04-17T08:51:02Z</time>
      </trkpt>
      <trkpt lat="47.56033" lon="1.21104">
        <ele>79</ele>
        <time>2021-04-17T08:51:05Z</time>
      </trkpt>
      <trkpt lat="47.56027" lon="1.21094">
        <ele>79</ele>
        <time>2021-04-17T08:51:08Z</time>
      </trkpt>
      <trkpt lat="47.56022" lon="1.21082">
        <ele>79</ele>
        <time>2021-04-17T08:51:11Z</time>
      </trkpt>
      <trkpt lat="47.56016" lon="1.21069">
        <ele>78</ele>
        <time>2021-04-17T08:51:15Z</time>
      </trkpt>
      <trkpt lat="47.56007" lon="1.21058">
        <ele>79</ele>
        <time>2021-04-17T08:51:19Z</time>
      </trkpt>
      <trkpt lat="47.55999" lon="1.21045">
        <ele>80</ele>
        <time>2021-04-17T08:51:23Z</time>
      </trkpt>
      <trkpt lat="47.55991" lon="1.21036">
        <ele>81</ele>
        <time>2021-04-17T08:51:26Z</time>
      </trkpt>
      <trkpt lat="47.55983" lon="1.21025">
        <ele>81</ele>
        <time>2021-04-17T08:51:29Z</time>
      </trkpt>
      <trkpt lat="47.55975" lon="1.21015">
        <ele>80</ele>
        <time>2021-04-17T08:51:32Z</time>
      </trkpt>
      <trkpt lat="47.55967" lon="1.21007">
        <ele>80</ele>
        <time>2021-04-17T08:51:35Z</time>
      </trkpt>
      <trkpt lat="47.55959" lon="1.21001">
        <ele>80</ele>
        <time>2021-04-17T08:51:38Z</time>
      </trkpt>
      <trkpt lat="47.55952" lon="1.2099">
        <ele>79</ele>
        <time>2021-04-17T08:51:41Z</time>
      </trkpt>
      <trkpt lat="47.55944" lon="1.20978">
        <ele>79</ele>
        <time>2021-04-17T08:51:44Z</time>
      </trkpt>
      <trkpt lat="47.55938" lon="1.20967">
        <ele>79</ele>
        <time>2021-04-17T08:51:47Z</time>
      </trkpt>
      <trkpt lat="47.55932" lon="1.20953">
        <ele>79</ele>
        <time>2021-04-17T08:51:50Z</time>
      </trkpt>
      <trkpt lat="47.55926" lon="1.20941">
        <ele>78</ele>
        <time>2021-04-17T08:51:53Z</time>
      </trkpt>
      <trkpt lat="47.55919" lon="1.20929">
        <ele>78</ele>
        <time>2021-04-17T08:51:56Z</time>
      </trkpt>
      <trkpt lat="47.55913" lon="1.20919">
        <ele>78</ele>
        <time>2021-04-17T08:51:59Z</time>
      </trkpt>
      <trkpt lat="47.55906" lon="1.2091">
        <ele>78</ele>
        <time>2021-04-17T08:52:02Z</time>
      </trkpt>
      <trkpt lat="47.55897" lon="1.20899">
        <ele>78</ele>
        <time>2021-04-17T08:52:06Z</time>
      </trkpt>
      <trkpt lat="47.55888" lon="1.20888">
        <ele>79</ele>
        <time>2021-04-17T08:52:10Z</time>
      </trkpt>
      <trkpt lat="47.55879" lon="1.20878">
        <ele>80</ele>
        <time>2021-04-17T08:52:14Z</time>
      </trkpt>
      <trkpt lat="47.55872" lon="1.20866">
        <ele>81</ele>
        <time>2021-04-17T08:52:18Z</time>
      </trkpt>
      <trkpt lat="47.55862" lon="1.20855">
        <ele>82</ele>
        <time>2021-04-17T08:52:23Z</time>
      </trkpt>
      <trkpt lat="47.55853" lon="1.20844">
        <ele>82</ele>
        <time>2021-04-17T08:52:27Z</time>
      </trkpt>
      <trkpt lat="47.55844" lon="1.20834">
        <ele>82</ele>
        <time>2021-04-17T08:52:31Z</time>
      </trkpt>
      <trkpt lat="47.55835" lon="1.20821">
        <ele>83</ele>
        <time>2021-04-17T08:52:35Z</time>
      </trkpt>
      <trkpt lat="47.55829" lon="1.20811">
        <ele>83</ele>
        <time>2021-04-17T08:52:38Z</time>
      </trkpt>
      <trkpt lat="47.55822" lon="1.20801">
        <ele>83</ele>
        <time>2021-04-17T08:52:41Z</time>
      </trkpt>
      <trkpt lat="47.55815" lon="1.20792">
        <ele>83</ele>
        <time>2021-04-17T08:52:44Z</time>
      </trkpt>
      <trkpt lat="47.55808" lon="1.20783">
        <ele>84</ele>
        <time>2021-04-17T08:52:47Z</time>
      </trkpt>
      <trkpt lat="47.55801" lon="1.20774">
        <ele>85</ele>
        <time>2021-04-17T08:52:50Z</time>
      </trkpt>
      <trkpt lat="47.55793" lon="1.20761">
        <ele>85</ele>
        <time>2021-04-17T08:52:54Z</time>
      </trkpt>
      <trkpt lat="47.55785" lon="1.2075">
        <ele>86</ele>
        <time>2021-04-17T08:52:58Z</time>
      </trkpt>
      <trkpt lat="47.55777" lon="1.20739">
        <ele>87</ele>
        <time>2021-04-17T08:53:02Z</time>
      </trkpt>
      <trkpt lat="47.55769" lon="1.20728">
        <ele>89</ele>
        <time>2021-04-17T08:53:06Z</time>
      </trkpt>
      <trkpt lat="47.55761" lon="1.20717">
        <ele>89</ele>
        <time>2021-04-17T08:53:10Z</time>
      </trkpt>
      <trkpt lat="47.55753" lon="1.20705">
        <ele>90</ele>
        <time>2021-04-17T08:53:14Z</time>
      </trkpt>
      <trkpt lat="47.55746" lon="1.20696">
        <ele>91</ele>
        <time>2021-04-17T08:53:17Z</time>
      </trkpt>
      <trkpt lat="47.55738" lon="1.20684">
        <ele>92</ele>
        <time>2021-04-17T08:53:21Z</time>
      </trkpt>
      <trkpt lat="47.55728" lon="1.20673">
        <ele>93</ele>
        <time>2021-04-17T08:53:25Z</time>
      </trkpt>
      <trkpt lat="47.55719" lon="1.20663">
        <ele>94</ele>
        <time>2021-04-17T08:53:29Z</time>
      </trkpt>
      <trkpt lat="47.55708" lon="1.20655">
        <ele>95</ele>
        <time>2021-04-17T08:53:33Z</time>
      </trkpt>
      <trkpt lat="47.55697" lon="1.20649">
        <ele>96</ele>
        <time>2021-04-17T08:53:37Z</time>
      </trkpt>
      <trkpt lat="47.55685" lon="1.20644">
        <ele>96</ele>
        <time>2021-04-17T08:53:41Z</time>
      </trkpt>
      <trkpt lat="47.55676" lon="1.20645">
        <ele>97</ele>
        <time>2021-04-17T08:53:44Z</time>
      </trkpt>
      <trkpt lat="47.55667" lon="1.20646">
        <ele>97</ele>
        <time>2021-04-17T08:53:47Z</time>
      </trkpt>
      <trkpt lat="47.55655" lon="1.20648">
        <ele>97</ele>
        <time>2021-04-17T08:53:51Z</time>
      </trkpt>
      <trkpt lat="47.55646" lon="1.20649">
        <ele>98</ele>
        <time>2021-04-17T08:53:54Z</time>
      </trkpt>
      <trkpt lat="47.55637" lon="1.2065">
        <ele>98</ele>
        <time>2021-04-17T08:53:57Z</time>
      </trkpt>
      <trkpt lat="47.55628" lon="1.2065">
        <ele>98</ele>
        <time>2021-04-17T08:54:00Z</time>
      </trkpt>
      <trkpt lat="47.55616" lon="1.20648">
        <ele>99</ele>
        <time>2021-04-17T08:54:04Z</time>
      </trkpt>
      <trkpt lat="47.55607" lon="1.20646">
        <ele>99</ele>
        <time>2021-04-17T08:54:07Z</time>
      </trkpt>
      <trkpt lat="47.55594" lon="1.20643">
        <ele>100</ele>
        <time>2021-04-17T08:54:11Z</time>
      </trkpt>
      <trkpt lat="47.55583" lon="1.20641">
        <ele>100</ele>
        <time>2021-04-17T08:54:15Z</time>
      </trkpt>
      <trkpt lat="47.55571" lon="1.2064">
        <ele>100</ele>
        <time>2021-04-17T08:54:19Z</time>
      </trkpt>
      <trkpt lat="47.55565" lon="1.20653">
        <ele>100</ele>
        <time>2021-04-17T08:54:24Z</time>
      </trkpt>
      <trkpt lat="47.55571" lon="1.20666">
        <ele>100</ele>
        <time>2021-04-17T08:54:27Z</time>
      </trkpt>
      <trkpt lat="47.55578" lon="1.20681">
        <ele>100</ele>
        <time>2021-04-17T08:54:31Z</time>
      </trkpt>
      <trkpt lat="47.55583" lon="1.20693">
        <ele>100</ele>
        <time>2021-04-17T08:54:34Z</time>
      </trkpt>
      <trkpt lat="47.55588" lon="1.20705">
        <ele>100</ele>
        <time>2021-04-17T08:54:37Z</time>
      </trkpt>
      <trkpt lat="47.55591" lon="1.20719">
        <ele>100</ele>
        <time>2021-04-17T08:54:40Z</time>
      </trkpt>
      <trkpt lat="47.55594" lon="1.20737">
        <ele>101</ele>
        <time>2021-04-17T08:54:44Z</time>
      </trkpt>
      <trkpt lat="47.55596" lon="1.20751">
        <ele>101</ele>
        <time>2021-04-17T08:54:47Z</time>
      </trkpt>
      <trkpt lat="47.55596" lon="1.20767">
        <ele>103</ele>
        <time>2021-04-17T08:54:51Z</time>
      </trkpt>
      <trkpt lat="47.55597" lon="1.2078">
        <ele>103</ele>
        <time>2021-04-17T08:54:54Z</time>
      </trkpt>
      <trkpt lat="47.556" lon="1.20798">
        <ele>103</ele>
        <time>2021-04-17T08:54:58Z</time>
      </trkpt>
      <trkpt lat="47.55601" lon="1.20807">
        <ele>103</ele>
        <time>2021-04-17T08:55:00Z</time>
      </trkpt>
      <trkpt lat="47.55601" lon="1.20816">
        <ele>103</ele>
        <time>2021-04-17T08:55:02Z</time>
      </trkpt>
      <trkpt lat="47.556" lon="1.2083">
        <ele>103</ele>
        <time>2021-04-17T08:55:05Z</time>
      </trkpt>
      <trkpt lat="47.55598" lon="1.20844">
        <ele>103</ele>
        <time>2021-04-17T08:55:08Z</time>
      </trkpt>
      <trkpt lat="47.55596" lon="1.20854">
        <ele>103</ele>
        <time>2021-04-17T08:55:10Z</time>
      </trkpt>
      <trkpt lat="47.55594" lon="1.20867">
        <ele>103</ele>
        <time>2021-04-17T08:55:13Z</time>
      </trkpt>
      <trkpt lat="47.55592" lon="1.2088">
        <ele>103</ele>
        <time>2021-04-17T08:55:16Z</time>
      </trkpt>
      <trkpt lat="47.5559" lon="1.20894">
        <ele>103</ele>
        <time>2021-04-17T08:55:19Z</time>
      </trkpt>
      <trkpt lat="47.5559" lon="1.20908">
        <ele>103</ele>
        <time>2021-04-17T08:55:22Z</time>
      </trkpt>
      <trkpt lat="47.55591" lon="1.20922">
        <ele>102</ele>
        <time>2021-04-17T08:55:25Z</time>
      </trkpt>
      <trkpt lat="47.55592" lon="1.20936">
        <ele>102</ele>
        <time>2021-04-17T08:55:28Z</time>
      </trkpt>
      <trkpt lat="47.55597" lon="1.20948">
        <ele>100</ele>
        <time>2021-04-17T08:55:31Z</time>
      </trkpt>
      <trkpt lat="47.55603" lon="1.20958">
        <ele>99</ele>
        <time>2021-04-17T08:55:34Z</time>
      </trkpt>
      <trkpt lat="47.55609" lon="1.20968">
        <ele>98</ele>
        <time>2021-04-17T08:55:37Z</time>
      </trkpt>
      <trkpt lat="47.55614" lon="1.2098">
        <ele>97</ele>
        <time>2021-04-17T08:55:40Z</time>
      </trkpt>
      <trkpt lat="47.5562" lon="1.20991">
        <ele>95</ele>
        <time>2021-04-17T08:55:43Z</time>
      </trkpt>
      <trkpt lat="47.55626" lon="1.21001">
        <ele>93</ele>
        <time>2021-04-17T08:55:46Z</time>
      </trkpt>
      <trkpt lat="47.55632" lon="1.21012">
        <ele>92</ele>
        <time>2021-04-17T08:55:49Z</time>
      </trkpt>
      <trkpt lat="47.55638" lon="1.21023">
        <ele>91</ele>
        <time>2021-04-17T08:55:52Z</time>
      </trkpt>
      <trkpt lat="47.55643" lon="1.21034">
        <ele>90</ele>
        <time>2021-04-17T08:55:55Z</time>
      </trkpt>
      <trkpt lat="47.5565" lon="1.21049">
        <ele>89</ele>
        <time>2021-04-17T08:55:59Z</time>
      </trkpt>
      <trkpt lat="47.55659" lon="1.21063">
        <ele>88</ele>
        <time>2021-04-17T08:56:03Z</time>
      </trkpt>
      <trkpt lat="47.55662" lon="1.21071">
        <ele>88</ele>
        <time>2021-04-17T08:56:05Z</time>
      </trkpt>
      <trkpt lat="47.55668" lon="1.21081">
        <ele>87</ele>
        <time>2021-04-17T08:56:08Z</time>
      </trkpt>
      <trkpt lat="47.55675" lon="1.21092">
        <ele>87</ele>
        <time>2021-04-17T08:56:11Z</time>
      </trkpt>
      <trkpt lat="47.5568" lon="1.21102">
        <ele>87</ele>
        <time>2021-04-17T08:56:14Z</time>
      </trkpt>
      <trkpt lat="47.55686" lon="1.21113">
        <ele>86</ele>
        <time>2021-04-17T08:56:17Z</time>
      </trkpt>
      <trkpt lat="47.55691" lon="1.21124">
        <ele>85</ele>
        <time>2021-04-17T08:56:20Z</time>
      </trkpt>
      <trkpt lat="47.55696" lon="1.21136">
        <ele>84</ele>
        <time>2021-04-17T08:56:23Z</time>
      </trkpt>
      <trkpt lat="47.55702" lon="1.21147">
        <ele>83</ele>
        <time>2021-04-17T08:56:26Z</time>
      </trkpt>
      <trkpt lat="47.55706" lon="1.21155">
        <ele>82</ele>
        <time>2021-04-17T08:56:28Z</time>
      </trkpt>
      <trkpt lat="47.55712" lon="1.21165">
        <ele>81</ele>
        <time>2021-04-17T08:56:31Z</time>
      </trkpt>
      <trkpt lat="47.55718" lon="1.21175">
        <ele>81</ele>
        <time>2021-04-17T08:56:34Z</time>
      </trkpt>
      <trkpt lat="47.55724" lon="1.21186">
        <ele>81</ele>
        <time>2021-04-17T08:56:37Z</time>
      </trkpt>
      <trkpt lat="47.55731" lon="1.21197">
        <ele>80</ele>
        <time>2021-04-17T08:56:40Z</time>
      </trkpt>
      <trkpt lat="47.55738" lon="1.21208">
        <ele>80</ele>
        <time>2021-04-17T08:56:43Z</time>
      </trkpt>
      <trkpt lat="47.55745" lon="1.21217">
        <ele>80</ele>
        <time>2021-04-17T08:56:46Z</time>
      </trkpt>
      <trkpt lat="47.55751" lon="1.21227">
        <ele>80</ele>
        <time>2021-04-17T08:56:49Z</time>
      </trkpt>
      <trkpt lat="47.55748" lon="1.21238">
        <ele>79</ele>
        <time>2021-04-17T08:56:52Z</time>
      </trkpt>
      <trkpt lat="47.5574" lon="1.21248">
        <ele>78</ele>
        <time>2021-04-17T08:56:55Z</time>
      </trkpt>
      <trkpt lat="47.55733" lon="1.21258">
        <ele>78</ele>
        <time>2021-04-17T08:56:58Z</time>
      </trkpt>
      <trkpt lat="47.55725" lon="1.21267">
        <ele>78</ele>
        <time>2021-04-17T08:57:01Z</time>
      </trkpt>
      <trkpt lat="47.55714" lon="1.21275">
        <ele>79</ele>
        <time>2021-04-17T08:57:05Z</time>
      </trkpt>
      <trkpt lat="47.55704" lon="1.21279">
        <ele>80</ele>
        <time>2021-04-17T08:57:10Z</time>
      </trkpt>
      <trkpt lat="47.55693" lon="1.21285">
        <ele>81</ele>
        <time>2021-04-17T08:57:15Z</time>
      </trkpt>
      <trkpt lat="47.55685" lon="1.21297">
        <ele>82</ele>
        <time>2021-04-17T08:57:19Z</time>
      </trkpt>
      <trkpt lat="47.55678" lon="1.21312">
        <ele>83</ele>
        <time>2021-04-17T08:57:23Z</time>
      </trkpt>
      <trkpt lat="47.55673" lon="1.21327">
        <ele>84</ele>
        <time>2021-04-17T08:57:27Z</time>
      </trkpt>
      <trkpt lat="47.55665" lon="1.21339">
        <ele>84</ele>
        <time>2021-04-17T08:57:31Z</time>
      </trkpt>
      <trkpt lat="47.55655" lon="1.21346">
        <ele>85</ele>
        <time>2021-04-17T08:57:35Z</time>
      </trkpt>
      <trkpt lat="47.55645" lon="1.21347">
        <ele>85</ele>
        <time>2021-04-17T08:57:39Z</time>
      </trkpt>
      <trkpt lat="47.55633" lon="1.21342">
        <ele>86</ele>
        <time>2021-04-17T08:57:43Z</time>
      </trkpt>
      <trkpt lat="47.55623" lon="1.21336">
        <ele>86</ele>
        <time>2021-04-17T08:57:46Z</time>
      </trkpt>
      <trkpt lat="47.55613" lon="1.21329">
        <ele>88</ele>
        <time>2021-04-17T08:57:49Z</time>
      </trkpt>
      <trkpt lat="47.55602" lon="1.21321">
        <ele>90</ele>
        <time>2021-04-17T08:57:52Z</time>
      </trkpt>
      <trkpt lat="47.55593" lon="1.21315">
        <ele>91</ele>
        <time>2021-04-17T08:57:55Z</time>
      </trkpt>
      <trkpt lat="47.55582" lon="1.21305">
        <ele>94</ele>
        <time>2021-04-17T08:58:00Z</time>
      </trkpt>
      <trkpt lat="47.55574" lon="1.21297">
        <ele>96</ele>
        <time>2021-04-17T08:58:04Z</time>
      </trkpt>
      <trkpt lat="47.55564" lon="1.21287">
        <ele>98</ele>
        <time>2021-04-17T08:58:10Z</time>
      </trkpt>
      <trkpt lat="47.55554" lon="1.21278">
        <ele>98</ele>
        <time>2021-04-17T08:58:15Z</time>
      </trkpt>
      <trkpt lat="47.55543" lon="1.21273">
        <ele>97</ele>
        <time>2021-04-17T08:58:19Z</time>
      </trkpt>
      <trkpt lat="47.55534" lon="1.21268">
        <ele>97</ele>
        <time>2021-04-17T08:58:24Z</time>
      </trkpt>
      <trkpt lat="47.55524" lon="1.21263">
        <ele>99</ele>
        <time>2021-04-17T08:58:30Z</time>
      </trkpt>
      <trkpt lat="47.55515" lon="1.21258">
        <ele>100</ele>
        <time>2021-04-17T08:58:35Z</time>
      </trkpt>
      <trkpt lat="47.55504" lon="1.21254">
        <ele>101</ele>
        <time>2021-04-17T08:58:39Z</time>
      </trkpt>
      <trkpt lat="47.55494" lon="1.2125">
        <ele>102</ele>
        <time>2021-04-17T08:58:43Z</time>
      </trkpt>
      <trkpt lat="47.55484" lon="1.21245">
        <ele>104</ele>
        <time>2021-04-17T08:58:47Z</time>
      </trkpt>
      <trkpt lat="47.55472" lon="1.2124">
        <ele>104</ele>
        <time>2021-04-17T08:58:51Z</time>
      </trkpt>
      <trkpt lat="47.55463" lon="1.21235">
        <ele>105</ele>
        <time>2021-04-17T08:58:56Z</time>
      </trkpt>
      <trkpt lat="47.55453" lon="1.2123">
        <ele>107</ele>
        <time>2021-04-17T08:59:01Z</time>
      </trkpt>
      <trkpt lat="47.55441" lon="1.21228">
        <ele>109</ele>
        <time>2021-04-17T08:59:06Z</time>
      </trkpt>
      <trkpt lat="47.55429" lon="1.21222">
        <ele>110</ele>
        <time>2021-04-17T08:59:11Z</time>
      </trkpt>
      <trkpt lat="47.55419" lon="1.21212">
        <ele>112</ele>
        <time>2021-04-17T08:59:15Z</time>
      </trkpt>
      <trkpt lat="47.5541" lon="1.21203">
        <ele>113</ele>
        <time>2021-04-17T08:59:19Z</time>
      </trkpt>
      <trkpt lat="47.55399" lon="1.21194">
        <ele>114</ele>
        <time>2021-04-17T08:59:23Z</time>
      </trkpt>
      <trkpt lat="47.55391" lon="1.21186">
        <ele>114</ele>
        <time>2021-04-17T08:59:27Z</time>
      </trkpt>
      <trkpt lat="47.55381" lon="1.21179">
        <ele>114</ele>
        <time>2021-04-17T08:59:31Z</time>
      </trkpt>
      <trkpt lat="47.55371" lon="1.21172">
        <ele>115</ele>
        <time>2021-04-17T08:59:35Z</time>
      </trkpt>
      <trkpt lat="47.55362" lon="1.21165">
        <ele>115</ele>
        <time>2021-04-17T08:59:39Z</time>
      </trkpt>
      <trkpt lat="47.55353" lon="1.21156">
        <ele>114</ele>
        <time>2021-04-17T08:59:43Z</time>
      </trkpt>
      <trkpt lat="47.55345" lon="1.21144">
        <ele>115</ele>
        <time>2021-04-17T08:59:47Z</time>
      </trkpt>
      <trkpt lat="47.55338" lon="1.21134">
        <ele>117</ele>
        <time>2021-04-17T08:59:50Z</time>
      </trkpt>
      <trkpt lat="47.55329" lon="1.21121">
        <ele>119</ele>
        <time>2021-04-17T08:59:54Z</time>
      </trkpt>
      <trkpt lat="47.55319" lon="1.21107">
        <ele>119</ele>
        <time>2021-04-17T08:59:58Z</time>
      </trkpt>
      <trkpt lat="47.55312" lon="1.21097">
        <ele>119</ele>
        <time>2021-04-17T09:00:01Z</time>
      </trkpt>
      <trkpt lat="47.553" lon="1.21087">
        <ele>119</ele>
        <time>2021-04-17T09:00:05Z</time>
      </trkpt>
      <trkpt lat="47.5529" lon="1.21078">
        <ele>118</ele>
        <time>2021-04-17T09:00:09Z</time>
      </trkpt>
      <trkpt lat="47.55279" lon="1.21075">
        <ele>118</ele>
        <time>2021-04-17T09:00:13Z</time>
      </trkpt>
      <trkpt lat="47.55265" lon="1.21076">
        <ele>118</ele>
        <time>2021-04-17T09:00:17Z</time>
      </trkpt>
      <trkpt lat="47.55254" lon="1.21077">
        <ele>117</ele>
        <time>2021-04-17T09:00:20Z</time>
      </trkpt>
      <trkpt lat="47.55245" lon="1.21076">
        <ele>117</ele>
        <time>2021-04-17T09:00:23Z</time>
      </trkpt>
      <trkpt lat="47.5524" lon="1.21062">
        <ele>114</ele>
        <time>2021-04-17T09:00:26Z</time>
      </trkpt>
      <trkpt lat="47.55241" lon="1.21045">
        <ele>112</ele>
        <time>2021-04-17T09:00:29Z</time>
      </trkpt>
      <trkpt lat="47.55242" lon="1.21029">
        <ele>111</ele>
        <time>2021-04-17T09:00:32Z</time>
      </trkpt>
      <trkpt lat="47.55242" lon="1.21014">
        <ele>111</ele>
        <time>2021-04-17T09:00:35Z</time>
      </trkpt>
      <trkpt lat="47.55243" lon="1.20998">
        <ele>111</ele>
        <time>2021-04-17T09:00:38Z</time>
      </trkpt>
      <trkpt lat="47.55244" lon="1.20983">
        <ele>111</ele>
        <time>2021-04-17T09:00:41Z</time>
      </trkpt>
      <trkpt lat="47.55245" lon="1.20968">
        <ele>111</ele>
        <time>2021-04-17T09:00:44Z</time>
      </trkpt>
      <trkpt lat="47.55247" lon="1.20954">
        <ele>111</ele>
        <time>2021-04-17T09:00:47Z</time>
      </trkpt>
      <trkpt lat="47.55249" lon="1.20939">
        <ele>110</ele>
        <time>2021-04-17T09:00:50Z</time>
      </trkpt>
      <trkpt lat="47.55251" lon="1.20929">
        <ele>110</ele>
        <time>2021-04-17T09:00:52Z</time>
      </trkpt>
      <trkpt lat="47.55252" lon="1.2092">
        <ele>110</ele>
        <time>2021-04-17T09:00:54Z</time>
      </trkpt>
      <trkpt lat="47.55254" lon="1.2091">
        <ele>111</ele>
        <time>2021-04-17T09:00:56Z</time>
      </trkpt>
      <trkpt lat="47.55255" lon="1.209">
        <ele>111</ele>
        <time>2021-04-17T09:00:58Z</time>
      </trkpt>
      <trkpt lat="47.55256" lon="1.20891">
        <ele>111</ele>
        <time>2021-04-17T09:01:00Z</time>
      </trkpt>
      <trkpt lat="47.55259" lon="1.20876">
        <ele>111</ele>
        <time>2021-04-17T09:01:03Z</time>
      </trkpt>
      <trkpt lat="47.55261" lon="1.20861">
        <ele>110</ele>
        <time>2021-04-17T09:01:06Z</time>
      </trkpt>
      <trkpt lat="47.55263" lon="1.20847">
        <ele>111</ele>
        <time>2021-04-17T09:01:09Z</time>
      </trkpt>
      <trkpt lat="47.55265" lon="1.20832">
        <ele>111</ele>
        <time>2021-04-17T09:01:12Z</time>
      </trkpt>
      <trkpt lat="47.55267" lon="1.20817">
        <ele>111</ele>
        <time>2021-04-17T09:01:15Z</time>
      </trkpt>
      <trkpt lat="47.55268" lon="1.20801">
        <ele>112</ele>
        <time>2021-04-17T09:01:18Z</time>
      </trkpt>
      <trkpt lat="47.5527" lon="1.20787">
        <ele>113</ele>
        <time>2021-04-17T09:01:21Z</time>
      </trkpt>
      <trkpt lat="47.55272" lon="1.20773">
        <ele>113</ele>
        <time>2021-04-17T09:01:24Z</time>
      </trkpt>
      <trkpt lat="47.55273" lon="1.2076">
        <ele>113</ele>
        <time>2021-04-17T09:01:27Z</time>
      </trkpt>
      <trkpt lat="47.55276" lon="1.20746">
        <ele>113</ele>
        <time>2021-04-17T09:01:30Z</time>
      </trkpt>
      <trkpt lat="47.55278" lon="1.20732">
        <ele>113</ele>
        <time>2021-04-17T09:01:33Z</time>
      </trkpt>
      <trkpt lat="47.55281" lon="1.20719">
        <ele>113</ele>
        <time>2021-04-17T09:01:36Z</time>
      </trkpt>
      <trkpt lat="47.55284" lon="1.20705">
        <ele>113</ele>
        <time>2021-04-17T09:01:39Z</time>
      </trkpt>
      <trkpt lat="47.55289" lon="1.20691">
        <ele>113</ele>
        <time>2021-04-17T09:01:42Z</time>
      </trkpt>
      <trkpt lat="47.55294" lon="1.20678">
        <ele>113</ele>
        <time>2021-04-17T09:01:45Z</time>
      </trkpt>
      <trkpt lat="47.55298" lon="1.20665">
        <ele>113</ele>
        <time>2021-04-17T09:01:48Z</time>
      </trkpt>
      <trkpt lat="47.55301" lon="1.20652">
        <ele>113</ele>
        <time>2021-04-17T09:01:51Z</time>
      </trkpt>
      <trkpt lat="47.55304" lon="1.20639">
        <ele>113</ele>
        <time>2021-04-17T09:01:54Z</time>
      </trkpt>
      <trkpt lat="47.55308" lon="1.20627">
        <ele>113</ele>
        <time>2021-04-17T09:01:57Z</time>
      </trkpt>
      <trkpt lat="47.55313" lon="1.20616">
        <ele>113</ele>
        <time>2021-04-17T09:02:00Z</time>
      </trkpt>
      <trkpt lat="47.5532" lon="1.20604">
        <ele>114</ele>
        <time>2021-04-17T09:02:03Z</time>
      </trkpt>
      <trkpt lat="47.55326" lon="1.20594">
        <ele>114</ele>
        <time>2021-04-17T09:02:06Z</time>
      </trkpt>
      <trkpt lat="47.55332" lon="1.20582">
        <ele>114</ele>
        <time>2021-04-17T09:02:10Z</time>
      </trkpt>
      <trkpt lat="47.55339" lon="1.20568">
        <ele>113</ele>
        <time>2021-04-17T09:02:14Z</time>
      </trkpt>
      <trkpt lat="47.55345" lon="1.20556">
        <ele>113</ele>
        <time>2021-04-17T09:02:17Z</time>
      </trkpt>
      <trkpt lat="47.55351" lon="1.20544">
        <ele>111</ele>
        <time>2021-04-17T09:02:20Z</time>
      </trkpt>
      <trkpt lat="47.55358" lon="1.20532">
        <ele>110</ele>
        <time>2021-04-17T09:02:23Z</time>
      </trkpt>
      <trkpt lat="47.55365" lon="1.2052">
        <ele>110</ele>
        <time>2021-04-17T09:02:26Z</time>
      </trkpt>
      <trkpt lat="47.55372" lon="1.20507">
        <ele>109</ele>
        <time>2021-04-17T09:02:29Z</time>
      </trkpt>
      <trkpt lat="47.55378" lon="1.20495">
        <ele>108</ele>
        <time>2021-04-17T09:02:32Z</time>
      </trkpt>
      <trkpt lat="47.55383" lon="1.20487">
        <ele>107</ele>
        <time>2021-04-17T09:02:34Z</time>
      </trkpt>
      <trkpt lat="47.5539" lon="1.20476">
        <ele>107</ele>
        <time>2021-04-17T09:02:37Z</time>
      </trkpt>
      <trkpt lat="47.55395" lon="1.20468">
        <ele>106</ele>
        <time>2021-04-17T09:02:39Z</time>
      </trkpt>
      <trkpt lat="47.55399" lon="1.20461">
        <ele>105</ele>
        <time>2021-04-17T09:02:41Z</time>
      </trkpt>
      <trkpt lat="47.55404" lon="1.20453">
        <ele>105</ele>
        <time>2021-04-17T09:02:43Z</time>
      </trkpt>
      <trkpt lat="47.55409" lon="1.20446">
        <ele>104</ele>
        <time>2021-04-17T09:02:45Z</time>
      </trkpt>
      <trkpt lat="47.55414" lon="1.20438">
        <ele>104</ele>
        <time>2021-04-17T09:02:47Z</time>
      </trkpt>
      <trkpt lat="47.55421" lon="1.20426">
        <ele>103</ele>
        <time>2021-04-17T09:02:50Z</time>
      </trkpt>
      <trkpt lat="47.55428" lon="1.20415">
        <ele>103</ele>
        <time>2021-04-17T09:02:53Z</time>
      </trkpt>
      <trkpt lat="47.55437" lon="1.20407">
        <ele>103</ele>
        <time>2021-04-17T09:02:56Z</time>
      </trkpt>
      <trkpt lat="47.55446" lon="1.20402">
        <ele>102</ele>
        <time>2021-04-17T09:02:59Z</time>
      </trkpt>
      <trkpt lat="47.55452" lon="1.20398">
        <ele>102</ele>
        <time>2021-04-17T09:03:01Z</time>
      </trkpt>
      <trkpt lat="47.55458" lon="1.20389">
        <ele>101</ele>
        <time>2021-04-17T09:03:04Z</time>
      </trkpt>
      <trkpt lat="47.55463" lon="1.20377">
        <ele>100</ele>
        <time>2021-04-17T09:03:07Z</time>
      </trkpt>
      <trkpt lat="47.55468" lon="1.20365">
        <ele>99</ele>
        <time>2021-04-17T09:03:10Z</time>
      </trkpt>
      <trkpt lat="47.55474" lon="1.20353">
        <ele>99</ele>
        <time>2021-04-17T09:03:13Z</time>
      </trkpt>
      <trkpt lat="47.5548" lon="1.20341">
        <ele>99</ele>
        <time>2021-04-17T09:03:16Z</time>
      </trkpt>
      <trkpt lat="47.55485" lon="1.20329">
        <ele>99</ele>
        <time>2021-04-17T09:03:19Z</time>
      </trkpt>
      <trkpt lat="47.55491" lon="1.20318">
        <ele>98</ele>
        <time>2021-04-17T09:03:22Z</time>
      </trkpt>
      <trkpt lat="47.55497" lon="1.20306">
        <ele>97</ele>
        <time>2021-04-17T09:03:25Z</time>
      </trkpt>
      <trkpt lat="47.55503" lon="1.20294">
        <ele>97</ele>
        <time>2021-04-17T09:03:28Z</time>
      </trkpt>
      <trkpt lat="47.55509" lon="1.20284">
        <ele>96</ele>
        <time>2021-04-17T09:03:31Z</time>
      </trkpt>
      <trkpt lat="47.55516" lon="1.20273">
        <ele>96</ele>
        <time>2021-04-17T09:03:34Z</time>
      </trkpt>
      <trkpt lat="47.55522" lon="1.20263">
        <ele>96</ele>
        <time>2021-04-17T09:03:37Z</time>
      </trkpt>
      <trkpt lat="47.55529" lon="1.20253">
        <ele>96</ele>
        <time>2021-04-17T09:03:40Z</time>
      </trkpt>
      <trkpt lat="47.55536" lon="1.20243">
        <ele>96</ele>
        <time>2021-04-17T09:03:43Z</time>
      </trkpt>
      <trkpt lat="47.55543" lon="1.20233">
        <ele>96</ele>
        <time>2021-04-17T09:03:46Z</time>
      </trkpt>
      <trkpt lat="47.55549" lon="1.20223">
        <ele>96</ele>
        <time>2021-04-17T09:03:49Z</time>
      </trkpt>
      <trkpt lat="47.55554" lon="1.20216">
        <ele>96</ele>
        <time>2021-04-17T09:03:51Z</time>
      </trkpt>
      <trkpt lat="47.5556" lon="1.20206">
        <ele>96</ele>
        <time>2021-04-17T09:03:54Z</time>
      </trkpt>
      <trkpt lat="47.55567" lon="1.20196">
        <ele>96</ele>
        <time>2021-04-17T09:03:57Z</time>
      </trkpt>
      <trkpt lat="47.55571" lon="1.20189">
        <ele>96</ele>
        <time>2021-04-17T09:03:59Z</time>
      </trkpt>
      <trkpt lat="47.55576" lon="1.20181">
        <ele>96</ele>
        <time>2021-04-17T09:04:01Z</time>
      </trkpt>
      <trkpt lat="47.5558" lon="1.20174">
        <ele>96</ele>
        <time>2021-04-17T09:04:03Z</time>
      </trkpt>
      <trkpt lat="47.55585" lon="1.20167">
        <ele>96</ele>
        <time>2021-04-17T09:04:05Z</time>
      </trkpt>
      <trkpt lat="47.5559" lon="1.2016">
        <ele>96</ele>
        <time>2021-04-17T09:04:07Z</time>
      </trkpt>
      <trkpt lat="47.55595" lon="1.20153">
        <ele>96</ele>
        <time>2021-04-17T09:04:09Z</time>
      </trkpt>
      <trkpt lat="47.556" lon="1.20146">
        <ele>95</ele>
        <time>2021-04-17T09:04:11Z</time>
      </trkpt>
      <trkpt lat="47.55605" lon="1.20139">
        <ele>95</ele>
        <time>2021-04-17T09:04:13Z</time>
      </trkpt>
      <trkpt lat="47.55609" lon="1.20132">
        <ele>95</ele>
        <time>2021-04-17T09:04:15Z</time>
      </trkpt>
      <trkpt lat="47.55614" lon="1.20125">
        <ele>94</ele>
        <time>2021-04-17T09:04:17Z</time>
      </trkpt>
      <trkpt lat="47.55621" lon="1.20114">
        <ele>94</ele>
        <time>2021-04-17T09:04:20Z</time>
      </trkpt>
      <trkpt lat="47.55625" lon="1.20107">
        <ele>94</ele>
        <time>2021-04-17T09:04:22Z</time>
      </trkpt>
      <trkpt lat="47.5563" lon="1.201">
        <ele>94</ele>
        <time>2021-04-17T09:04:24Z</time>
      </trkpt>
      <trkpt lat="47.55634" lon="1.20094">
        <ele>94</ele>
        <time>2021-04-17T09:04:26Z</time>
      </trkpt>
      <trkpt lat="47.55639" lon="1.20087">
        <ele>94</ele>
        <time>2021-04-17T09:04:28Z</time>
      </trkpt>
      <trkpt lat="47.55644" lon="1.20081">
        <ele>94</ele>
        <time>2021-04-17T09:04:30Z</time>
      </trkpt>
      <trkpt lat="47.5565" lon="1.20075">
        <ele>93</ele>
        <time>2021-04-17T09:04:32Z</time>
      </trkpt>
      <trkpt lat="47.55655" lon="1.20069">
        <ele>94</ele>
        <time>2021-04-17T09:04:34Z</time>
      </trkpt>
      <trkpt lat="47.55664" lon="1.20062">
        <ele>93</ele>
        <time>2021-04-17T09:04:37Z</time>
      </trkpt>
      <trkpt lat="47.55672" lon="1.20054">
        <ele>93</ele>
        <time>2021-04-17T09:04:40Z</time>
      </trkpt>
      <trkpt lat="47.5568" lon="1.20046">
        <ele>94</ele>
        <time>2021-04-17T09:04:43Z</time>
      </trkpt>
      <trkpt lat="47.55688" lon="1.20039">
        <ele>94</ele>
        <time>2021-04-17T09:04:46Z</time>
      </trkpt>
      <trkpt lat="47.55696" lon="1.20032">
        <ele>94</ele>
        <time>2021-04-17T09:04:49Z</time>
      </trkpt>
      <trkpt lat="47.55701" lon="1.20027">
        <ele>94</ele>
        <time>2021-04-17T09:04:51Z</time>
      </trkpt>
      <trkpt lat="47.55709" lon="1.2002">
        <ele>95</ele>
        <time>2021-04-17T09:04:54Z</time>
      </trkpt>
      <trkpt lat="47.55716" lon="1.20012">
        <ele>95</ele>
        <time>2021-04-17T09:04:57Z</time>
      </trkpt>
      <trkpt lat="47.55723" lon="1.20004">
        <ele>95</ele>
        <time>2021-04-17T09:05:00Z</time>
      </trkpt>
      <trkpt lat="47.55731" lon="1.19996">
        <ele>95</ele>
        <time>2021-04-17T09:05:03Z</time>
      </trkpt>
      <trkpt lat="47.55737" lon="1.19989">
        <ele>96</ele>
        <time>2021-04-17T09:05:06Z</time>
      </trkpt>
      <trkpt lat="47.55744" lon="1.19982">
        <ele>96</ele>
        <time>2021-04-17T09:05:09Z</time>
      </trkpt>
      <trkpt lat="47.55749" lon="1.19977">
        <ele>96</ele>
        <time>2021-04-17T09:05:11Z</time>
      </trkpt>
      <trkpt lat="47.55757" lon="1.19971">
        <ele>96</ele>
        <time>2021-04-17T09:05:14Z</time>
      </trkpt>
      <trkpt lat="47.55763" lon="1.19964">
        <ele>97</ele>
        <time>2021-04-17T09:05:17Z</time>
      </trkpt>
      <trkpt lat="47.55771" lon="1.19959">
        <ele>97</ele>
        <time>2021-04-17T09:05:20Z</time>
      </trkpt>
      <trkpt lat="47.5578" lon="1.19961">
        <ele>98</ele>
        <time>2021-04-17T09:05:24Z</time>
      </trkpt>
      <trkpt lat="47.55775" lon="1.19976">
        <ele>98</ele>
        <time>2021-04-17T09:05:28Z</time>
      </trkpt>
      <trkpt lat="47.5577" lon="1.19991">
        <ele>98</ele>
        <time>2021-04-17T09:05:31Z</time>
      </trkpt>
      <trkpt lat="47.55767" lon="1.20006">
        <ele>98</ele>
        <time>2021-04-17T09:05:34Z</time>
      </trkpt>
      <trkpt lat="47.55763" lon="1.2002">
        <ele>98</ele>
        <time>2021-04-17T09:05:37Z</time>
      </trkpt>
      <trkpt lat="47.55759" lon="1.20034">
        <ele>98</ele>
        <time>2021-04-17T09:05:40Z</time>
      </trkpt>
      <trkpt lat="47.55756" lon="1.20048">
        <ele>97</ele>
        <time>2021-04-17T09:05:43Z</time>
      </trkpt>
      <trkpt lat="47.55754" lon="1.20063">
        <ele>97</ele>
        <time>2021-04-17T09:05:46Z</time>
      </trkpt>
      <trkpt lat="47.55753" lon="1.20079">
        <ele>97</ele>
        <time>2021-04-17T09:05:49Z</time>
      </trkpt>
      <trkpt lat="47.55752" lon="1.20094">
        <ele>96</ele>
        <time>2021-04-17T09:05:52Z</time>
      </trkpt>
      <trkpt lat="47.55753" lon="1.2011">
        <ele>96</ele>
        <time>2021-04-17T09:05:55Z</time>
      </trkpt>
      <trkpt lat="47.55753" lon="1.2012">
        <ele>96</ele>
        <time>2021-04-17T09:05:57Z</time>
      </trkpt>
      <trkpt lat="47.55755" lon="1.20136">
        <ele>95</ele>
        <time>2021-04-17T09:06:00Z</time>
      </trkpt>
      <trkpt lat="47.55756" lon="1.20152">
        <ele>95</ele>
        <time>2021-04-17T09:06:03Z</time>
      </trkpt>
      <trkpt lat="47.55758" lon="1.20166">
        <ele>94</ele>
        <time>2021-04-17T09:06:06Z</time>
      </trkpt>
      <trkpt lat="47.5576" lon="1.20181">
        <ele>94</ele>
        <time>2021-04-17T09:06:09Z</time>
      </trkpt>
      <trkpt lat="47.55763" lon="1.20195">
        <ele>94</ele>
        <time>2021-04-17T09:06:12Z</time>
      </trkpt>
      <trkpt lat="47.55766" lon="1.2021">
        <ele>93</ele>
        <time>2021-04-17T09:06:15Z</time>
      </trkpt>
      <trkpt lat="47.55768" lon="1.2022">
        <ele>93</ele>
        <time>2021-04-17T09:06:17Z</time>
      </trkpt>
      <trkpt lat="47.55771" lon="1.20229">
        <ele>93</ele>
        <time>2021-04-17T09:06:19Z</time>
      </trkpt>
      <trkpt lat="47.55774" lon="1.20244">
        <ele>92</ele>
        <time>2021-04-17T09:06:22Z</time>
      </trkpt>
      <trkpt lat="47.55777" lon="1.20253">
        <ele>92</ele>
        <time>2021-04-17T09:06:24Z</time>
      </trkpt>
      <trkpt lat="47.5578" lon="1.20262">
        <ele>91</ele>
        <time>2021-04-17T09:06:26Z</time>
      </trkpt>
      <trkpt lat="47.55784" lon="1.20271">
        <ele>90</ele>
        <time>2021-04-17T09:06:28Z</time>
      </trkpt>
      <trkpt lat="47.55787" lon="1.20279">
        <ele>90</ele>
        <time>2021-04-17T09:06:30Z</time>
      </trkpt>
      <trkpt lat="47.55791" lon="1.20288">
        <ele>89</ele>
        <time>2021-04-17T09:06:32Z</time>
      </trkpt>
      <trkpt lat="47.55795" lon="1.20296">
        <ele>89</ele>
        <time>2021-04-17T09:06:34Z</time>
      </trkpt>
      <trkpt lat="47.55799" lon="1.20304">
        <ele>88</ele>
        <time>2021-04-17T09:06:36Z</time>
      </trkpt>
      <trkpt lat="47.55803" lon="1.20311">
        <ele>88</ele>
        <time>2021-04-17T09:06:38Z</time>
      </trkpt>
      <trkpt lat="47.55808" lon="1.20319">
        <ele>87</ele>
        <time>2021-04-17T09:06:40Z</time>
      </trkpt>
      <trkpt lat="47.55812" lon="1.20326">
        <ele>87</ele>
        <time>2021-04-17T09:06:42Z</time>
      </trkpt>
      <trkpt lat="47.55816" lon="1.20333">
        <ele>86</ele>
        <time>2021-04-17T09:06:44Z</time>
      </trkpt>
      <trkpt lat="47.55821" lon="1.20341">
        <ele>86</ele>
        <time>2021-04-17T09:06:46Z</time>
      </trkpt>
      <trkpt lat="47.55826" lon="1.20348">
        <ele>86</ele>
        <time>2021-04-17T09:06:48Z</time>
      </trkpt>
      <trkpt lat="47.55834" lon="1.20358">
        <ele>85</ele>
        <time>2021-04-17T09:06:51Z</time>
      </trkpt>
      <trkpt lat="47.55841" lon="1.20369">
        <ele>85</ele>
        <time>2021-04-17T09:06:54Z</time>
      </trkpt>
      <trkpt lat="47.55848" lon="1.20381">
        <ele>84</ele>
        <time>2021-04-17T09:06:57Z</time>
      </trkpt>
      <trkpt lat="47.55853" lon="1.20392">
        <ele>85</ele>
        <time>2021-04-17T09:07:00Z</time>
      </trkpt>
      <trkpt lat="47.55858" lon="1.20404">
        <ele>85</ele>
        <time>2021-04-17T09:07:03Z</time>
      </trkpt>
      <trkpt lat="47.55859" lon="1.20386">
        <ele>82</ele>
        <time>2021-04-17T09:07:13Z</time>
      </trkpt>
      <trkpt lat="47.55857" lon="1.20375">
        <ele>82</ele>
        <time>2021-04-17T09:07:15Z</time>
      </trkpt>
      <trkpt lat="47.55854" lon="1.20365">
        <ele>82</ele>
        <time>2021-04-17T09:07:17Z</time>
      </trkpt>
      <trkpt lat="47.55851" lon="1.20356">
        <ele>82</ele>
        <time>2021-04-17T09:07:19Z</time>
      </trkpt>
      <trkpt lat="47.55846" lon="1.20342">
        <ele>82</ele>
        <time>2021-04-17T09:07:22Z</time>
      </trkpt>
      <trkpt lat="47.5584" lon="1.20325">
        <ele>82</ele>
        <time>2021-04-17T09:07:26Z</time>
      </trkpt>
      <trkpt lat="47.55834" lon="1.2031">
        <ele>82</ele>
        <time>2021-04-17T09:07:30Z</time>
      </trkpt>
      <trkpt lat="47.55827" lon="1.20296">
        <ele>82</ele>
        <time>2021-04-17T09:07:34Z</time>
      </trkpt>
      <trkpt lat="47.55822" lon="1.20284">
        <ele>83</ele>
        <time>2021-04-17T09:07:38Z</time>
      </trkpt>
      <trkpt lat="47.55817" lon="1.20271">
        <ele>84</ele>
        <time>2021-04-17T09:07:42Z</time>
      </trkpt>
      <trkpt lat="47.55814" lon="1.20257">
        <ele>84</ele>
        <time>2021-04-17T09:07:46Z</time>
      </trkpt>
      <trkpt lat="47.55813" lon="1.20249">
        <ele>85</ele>
        <time>2021-04-17T09:07:48Z</time>
      </trkpt>
      <trkpt lat="47.5581" lon="1.20239">
        <ele>86</ele>
        <time>2021-04-17T09:07:51Z</time>
      </trkpt>
      <trkpt lat="47.55807" lon="1.20228">
        <ele>87</ele>
        <time>2021-04-17T09:07:54Z</time>
      </trkpt>
      <trkpt lat="47.55803" lon="1.20218">
        <ele>88</ele>
        <time>2021-04-17T09:07:57Z</time>
      </trkpt>
      <trkpt lat="47.558" lon="1.20207">
        <ele>88</ele>
        <time>2021-04-17T09:08:00Z</time>
      </trkpt>
      <trkpt lat="47.55798" lon="1.20195">
        <ele>89</ele>
        <time>2021-04-17T09:08:03Z</time>
      </trkpt>
      <trkpt lat="47.55799" lon="1.20183">
        <ele>90</ele>
        <time>2021-04-17T09:08:06Z</time>
      </trkpt>
      <trkpt lat="47.55802" lon="1.20171">
        <ele>90</ele>
        <time>2021-04-17T09:08:09Z</time>
      </trkpt>
      <trkpt lat="47.55805" lon="1.20163">
        <ele>90</ele>
        <time>2021-04-17T09:08:11Z</time>
      </trkpt>
      <trkpt lat="47.55809" lon="1.20153">
        <ele>91</ele>
        <time>2021-04-17T09:08:14Z</time>
      </trkpt>
      <trkpt lat="47.55813" lon="1.20143">
        <ele>91</ele>
        <time>2021-04-17T09:08:17Z</time>
      </trkpt>
      <trkpt lat="47.55817" lon="1.20134">
        <ele>92</ele>
        <time>2021-04-17T09:08:20Z</time>
      </trkpt>
      <trkpt lat="47.5582" lon="1.20126">
        <ele>92</ele>
        <time>2021-04-17T09:08:23Z</time>
      </trkpt>
      <trkpt lat="47.55823" lon="1.20113">
        <ele>93</ele>
        <time>2021-04-17T09:08:27Z</time>
      </trkpt>
      <trkpt lat="47.55822" lon="1.20101">
        <ele>93</ele>
        <time>2021-04-17T09:08:30Z</time>
      </trkpt>
      <trkpt lat="47.55822" lon="1.20085">
        <ele>93</ele>
        <time>2021-04-17T09:08:34Z</time>
      </trkpt>
      <trkpt lat="47.55822" lon="1.20073">
        <ele>93</ele>
        <time>2021-04-17T09:08:37Z</time>
      </trkpt>
      <trkpt lat="47.55822" lon="1.20058">
        <ele>94</ele>
        <time>2021-04-17T09:08:41Z</time>
      </trkpt>
      <trkpt lat="47.55823" lon="1.20042">
        <ele>95</ele>
        <time>2021-04-17T09:08:45Z</time>
      </trkpt>
      <trkpt lat="47.55823" lon="1.20029">
        <ele>97</ele>
        <time>2021-04-17T09:08:48Z</time>
      </trkpt>
      <trkpt lat="47.55824" lon="1.20016">
        <ele>97</ele>
        <time>2021-04-17T09:08:51Z</time>
      </trkpt>
      <trkpt lat="47.55826" lon="1.20002">
        <ele>98</ele>
        <time>2021-04-17T09:08:54Z</time>
      </trkpt>
      <trkpt lat="47.55827" lon="1.19988">
        <ele>99</ele>
        <time>2021-04-17T09:08:57Z</time>
      </trkpt>
      <trkpt lat="47.55829" lon="1.1997">
        <ele>100</ele>
        <time>2021-04-17T09:09:01Z</time>
      </trkpt>
      <trkpt lat="47.5583" lon="1.19956">
        <ele>101</ele>
        <time>2021-04-17T09:09:04Z</time>
      </trkpt>
      <trkpt lat="47.5583" lon="1.19943">
        <ele>101</ele>
        <time>2021-04-17T09:09:07Z</time>
      </trkpt>
      <trkpt lat="47.5583" lon="1.19929">
        <ele>102</ele>
        <time>2021-04-17T09:09:10Z</time>
      </trkpt>
      <trkpt lat="47.55837" lon="1.19918">
        <ele>102</ele>
        <time>2021-04-17T09:09:14Z</time>
      </trkpt>
      <trkpt lat="47.55848" lon="1.19916">
        <ele>102</ele>
        <time>2021-04-17T09:09:17Z</time>
      </trkpt>
      <trkpt lat="47.55858" lon="1.19914">
        <ele>103</ele>
        <time>2021-04-17T09:09:20Z</time>
      </trkpt>
      <trkpt lat="47.55867" lon="1.19912">
        <ele>104</ele>
        <time>2021-04-17T09:09:23Z</time>
      </trkpt>
      <trkpt lat="47.55876" lon="1.19912">
        <ele>105</ele>
        <time>2021-04-17T09:09:26Z</time>
      </trkpt>
      <trkpt lat="47.55885" lon="1.19911">
        <ele>106</ele>
        <time>2021-04-17T09:09:29Z</time>
      </trkpt>
      <trkpt lat="47.55894" lon="1.19912">
        <ele>106</ele>
        <time>2021-04-17T09:09:32Z</time>
      </trkpt>
      <trkpt lat="47.55903" lon="1.19912">
        <ele>106</ele>
        <time>2021-04-17T09:09:35Z</time>
      </trkpt>
      <trkpt lat="47.55909" lon="1.19911">
        <ele>106</ele>
        <time>2021-04-17T09:09:37Z</time>
      </trkpt>
      <trkpt lat="47.55918" lon="1.1991">
        <ele>106</ele>
        <time>2021-04-17T09:09:40Z</time>
      </trkpt>
      <trkpt lat="47.55928" lon="1.19907">
        <ele>106</ele>
        <time>2021-04-17T09:09:43Z</time>
      </trkpt>
      <trkpt lat="47.55937" lon="1.19903">
        <ele>107</ele>
        <time>2021-04-17T09:09:46Z</time>
      </trkpt>
      <trkpt lat="47.55947" lon="1.19899">
        <ele>106</ele>
        <time>2021-04-17T09:09:49Z</time>
      </trkpt>
      <trkpt lat="47.55953" lon="1.19897">
        <ele>107</ele>
        <time>2021-04-17T09:09:51Z</time>
      </trkpt>
      <trkpt lat="47.5596" lon="1.19894">
        <ele>107</ele>
        <time>2021-04-17T09:09:53Z</time>
      </trkpt>
      <trkpt lat="47.55966" lon="1.19891">
        <ele>107</ele>
        <time>2021-04-17T09:09:55Z</time>
      </trkpt>
      <trkpt lat="47.55975" lon="1.19887">
        <ele>107</ele>
        <time>2021-04-17T09:09:58Z</time>
      </trkpt>
      <trkpt lat="47.55985" lon="1.19883">
        <ele>107</ele>
        <time>2021-04-17T09:10:01Z</time>
      </trkpt>
      <trkpt lat="47.55993" lon="1.19879">
        <ele>107</ele>
        <time>2021-04-17T09:10:04Z</time>
      </trkpt>
      <trkpt lat="47.56002" lon="1.19876">
        <ele>107</ele>
        <time>2021-04-17T09:10:07Z</time>
      </trkpt>
      <trkpt lat="47.56009" lon="1.19874">
        <ele>107</ele>
        <time>2021-04-17T09:10:09Z</time>
      </trkpt>
      <trkpt lat="47.56015" lon="1.19871">
        <ele>106</ele>
        <time>2021-04-17T09:10:11Z</time>
      </trkpt>
      <trkpt lat="47.56022" lon="1.19868">
        <ele>106</ele>
        <time>2021-04-17T09:10:13Z</time>
      </trkpt>
      <trkpt lat="47.56028" lon="1.19865">
        <ele>107</ele>
        <time>2021-04-17T09:10:15Z</time>
      </trkpt>
      <trkpt lat="47.56034" lon="1.19861">
        <ele>106</ele>
        <time>2021-04-17T09:10:17Z</time>
      </trkpt>
      <trkpt lat="47.56043" lon="1.19855">
        <ele>106</ele>
        <time>2021-04-17T09:10:20Z</time>
      </trkpt>
      <trkpt lat="47.56049" lon="1.19851">
        <ele>106</ele>
        <time>2021-04-17T09:10:22Z</time>
      </trkpt>
      <trkpt lat="47.56055" lon="1.19847">
        <ele>107</ele>
        <time>2021-04-17T09:10:24Z</time>
      </trkpt>
      <trkpt lat="47.56061" lon="1.19843">
        <ele>107</ele>
        <time>2021-04-17T09:10:26Z</time>
      </trkpt>
      <trkpt lat="47.56067" lon="1.19838">
        <ele>107</ele>
        <time>2021-04-17T09:10:28Z</time>
      </trkpt>
      <trkpt lat="47.56073" lon="1.19834">
        <ele>107</ele>
        <time>2021-04-17T09:10:30Z</time>
      </trkpt>
      <trkpt lat="47.56081" lon="1.19826">
        <ele>106</ele>
        <time>2021-04-17T09:10:33Z</time>
      </trkpt>
      <trkpt lat="47.56089" lon="1.19819">
        <ele>106</ele>
        <time>2021-04-17T09:10:36Z</time>
      </trkpt>
      <trkpt lat="47.56098" lon="1.19811">
        <ele>106</ele>
        <time>2021-04-17T09:10:39Z</time>
      </trkpt>
      <trkpt lat="47.56104" lon="1.19806">
        <ele>106</ele>
        <time>2021-04-17T09:10:41Z</time>
      </trkpt>
      <trkpt lat="47.56109" lon="1.19801">
        <ele>105</ele>
        <time>2021-04-17T09:10:43Z</time>
      </trkpt>
      <trkpt lat="47.56115" lon="1.19795">
        <ele>105</ele>
        <time>2021-04-17T09:10:45Z</time>
      </trkpt>
      <trkpt lat="47.56121" lon="1.1979">
        <ele>105</ele>
        <time>2021-04-17T09:10:47Z</time>
      </trkpt>
      <trkpt lat="47.56126" lon="1.19785">
        <ele>105</ele>
        <time>2021-04-17T09:10:49Z</time>
      </trkpt>
      <trkpt lat="47.56132" lon="1.1978">
        <ele>104</ele>
        <time>2021-04-17T09:10:51Z</time>
      </trkpt>
      <trkpt lat="47.56137" lon="1.19774">
        <ele>104</ele>
        <time>2021-04-17T09:10:53Z</time>
      </trkpt>
      <trkpt lat="47.56143" lon="1.19768">
        <ele>104</ele>
        <time>2021-04-17T09:10:55Z</time>
      </trkpt>
      <trkpt lat="47.56148" lon="1.19763">
        <ele>103</ele>
        <time>2021-04-17T09:10:57Z</time>
      </trkpt>
      <trkpt lat="47.56154" lon="1.19757">
        <ele>103</ele>
        <time>2021-04-17T09:10:59Z</time>
      </trkpt>
      <trkpt lat="47.56159" lon="1.19751">
        <ele>103</ele>
        <time>2021-04-17T09:11:01Z</time>
      </trkpt>
      <trkpt lat="47.56165" lon="1.19745">
        <ele>102</ele>
        <time>2021-04-17T09:11:03Z</time>
      </trkpt>
      <trkpt lat="47.56171" lon="1.1974">
        <ele>102</ele>
        <time>2021-04-17T09:11:05Z</time>
      </trkpt>
      <trkpt lat="47.56176" lon="1.19734">
        <ele>101</ele>
        <time>2021-04-17T09:11:07Z</time>
      </trkpt>
      <trkpt lat="47.56182" lon="1.19729">
        <ele>101</ele>
        <time>2021-04-17T09:11:09Z</time>
      </trkpt>
      <trkpt lat="47.56188" lon="1.19727">
        <ele>101</ele>
        <time>2021-04-17T09:11:11Z</time>
      </trkpt>
      <trkpt lat="47.56198" lon="1.19734">
        <ele>101</ele>
        <time>2021-04-17T09:11:14Z</time>
      </trkpt>
      <trkpt lat="47.56204" lon="1.19747">
        <ele>101</ele>
        <time>2021-04-17T09:11:18Z</time>
      </trkpt>
      <trkpt lat="47.56206" lon="1.19762">
        <ele>101</ele>
        <time>2021-04-17T09:11:22Z</time>
      </trkpt>
      <trkpt lat="47.56204" lon="1.19781">
        <ele>101</ele>
        <time>2021-04-17T09:11:26Z</time>
      </trkpt>
      <trkpt lat="47.56203" lon="1.19796">
        <ele>101</ele>
        <time>2021-04-17T09:11:29Z</time>
      </trkpt>
      <trkpt lat="47.56202" lon="1.19815">
        <ele>100</ele>
        <time>2021-04-17T09:11:33Z</time>
      </trkpt>
      <trkpt lat="47.56203" lon="1.19831">
        <ele>100</ele>
        <time>2021-04-17T09:11:36Z</time>
      </trkpt>
      <trkpt lat="47.56202" lon="1.19849">
        <ele>99</ele>
        <time>2021-04-17T09:11:39Z</time>
      </trkpt>
      <trkpt lat="47.56201" lon="1.19866">
        <ele>100</ele>
        <time>2021-04-17T09:11:42Z</time>
      </trkpt>
      <trkpt lat="47.56199" lon="1.19877">
        <ele>101</ele>
        <time>2021-04-17T09:11:44Z</time>
      </trkpt>
      <trkpt lat="47.56198" lon="1.19887">
        <ele>100</ele>
        <time>2021-04-17T09:11:46Z</time>
      </trkpt>
      <trkpt lat="47.56197" lon="1.19902">
        <ele>100</ele>
        <time>2021-04-17T09:11:49Z</time>
      </trkpt>
      <trkpt lat="47.56197" lon="1.19917">
        <ele>100</ele>
        <time>2021-04-17T09:11:52Z</time>
      </trkpt>
      <trkpt lat="47.56196" lon="1.19926">
        <ele>99</ele>
        <time>2021-04-17T09:11:54Z</time>
      </trkpt>
      <trkpt lat="47.56196" lon="1.19936">
        <ele>99</ele>
        <time>2021-04-17T09:11:56Z</time>
      </trkpt>
      <trkpt lat="47.56195" lon="1.19946">
        <ele>99</ele>
        <time>2021-04-17T09:11:58Z</time>
      </trkpt>
      <trkpt lat="47.56195" lon="1.19956">
        <ele>99</ele>
        <time>2021-04-17T09:12:00Z</time>
      </trkpt>
      <trkpt lat="47.56195" lon="1.19966">
        <ele>99</ele>
        <time>2021-04-17T09:12:02Z</time>
      </trkpt>
      <trkpt lat="47.56196" lon="1.1998">
        <ele>99</ele>
        <time>2021-04-17T09:12:05Z</time>
      </trkpt>
      <trkpt lat="47.56196" lon="1.19994">
        <ele>99</ele>
        <time>2021-04-17T09:12:08Z</time>
      </trkpt>
      <trkpt lat="47.56196" lon="1.20004">
        <ele>99</ele>
        <time>2021-04-17T09:12:10Z</time>
      </trkpt>
      <trkpt lat="47.56194" lon="1.20018">
        <ele>98</ele>
        <time>2021-04-17T09:12:13Z</time>
      </trkpt>
      <trkpt lat="47.56193" lon="1.20033">
        <ele>98</ele>
        <time>2021-04-17T09:12:16Z</time>
      </trkpt>
      <trkpt lat="47.56191" lon="1.20048">
        <ele>98</ele>
        <time>2021-04-17T09:12:19Z</time>
      </trkpt>
      <trkpt lat="47.56189" lon="1.20059">
        <ele>98</ele>
        <time>2021-04-17T09:12:21Z</time>
      </trkpt>
      <trkpt lat="47.56186" lon="1.20073">
        <ele>98</ele>
        <time>2021-04-17T09:12:24Z</time>
      </trkpt>
      <trkpt lat="47.56183" lon="1.20086">
        <ele>98</ele>
        <time>2021-04-17T09:12:27Z</time>
      </trkpt>
      <trkpt lat="47.5618" lon="1.201">
        <ele>99</ele>
        <time>2021-04-17T09:12:30Z</time>
      </trkpt>
      <trkpt lat="47.56178" lon="1.20113">
        <ele>101</ele>
        <time>2021-04-17T09:12:33Z</time>
      </trkpt>
      <trkpt lat="47.56176" lon="1.20127">
        <ele>101</ele>
        <time>2021-04-17T09:12:37Z</time>
      </trkpt>
      <trkpt lat="47.56186" lon="1.2012">
        <ele>100</ele>
        <time>2021-04-17T09:12:43Z</time>
      </trkpt>
      <trkpt lat="47.56197" lon="1.20112">
        <ele>101</ele>
        <time>2021-04-17T09:12:47Z</time>
      </trkpt>
      <trkpt lat="47.56206" lon="1.20105">
        <ele>101</ele>
        <time>2021-04-17T09:12:50Z</time>
      </trkpt>
      <trkpt lat="47.56212" lon="1.20103">
        <ele>100</ele>
        <time>2021-04-17T09:12:52Z</time>
      </trkpt>
      <trkpt lat="47.56219" lon="1.20103">
        <ele>100</ele>
        <time>2021-04-17T09:12:54Z</time>
      </trkpt>
      <trkpt lat="47.56225" lon="1.201">
        <ele>100</ele>
        <time>2021-04-17T09:12:56Z</time>
      </trkpt>
      <trkpt lat="47.56235" lon="1.20097">
        <ele>100</ele>
        <time>2021-04-17T09:12:59Z</time>
      </trkpt>
      <trkpt lat="47.56244" lon="1.20093">
        <ele>100</ele>
        <time>2021-04-17T09:13:02Z</time>
      </trkpt>
      <trkpt lat="47.56254" lon="1.20089">
        <ele>101</ele>
        <time>2021-04-17T09:13:05Z</time>
      </trkpt>
      <trkpt lat="47.56264" lon="1.20087">
        <ele>101</ele>
        <time>2021-04-17T09:13:08Z</time>
      </trkpt>
      <trkpt lat="47.56277" lon="1.20086">
        <ele>101</ele>
        <time>2021-04-17T09:13:12Z</time>
      </trkpt>
      <trkpt lat="47.56288" lon="1.20083">
        <ele>102</ele>
        <time>2021-04-17T09:13:17Z</time>
      </trkpt>
      <trkpt lat="47.56299" lon="1.20082">
        <ele>102</ele>
        <time>2021-04-17T09:13:21Z</time>
      </trkpt>
      <trkpt lat="47.56311" lon="1.20079">
        <ele>103</ele>
        <time>2021-04-17T09:13:25Z</time>
      </trkpt>
      <trkpt lat="47.56322" lon="1.20073">
        <ele>104</ele>
        <time>2021-04-17T09:13:29Z</time>
      </trkpt>
      <trkpt lat="47.56333" lon="1.20067">
        <ele>105</ele>
        <time>2021-04-17T09:13:33Z</time>
      </trkpt>
      <trkpt lat="47.56342" lon="1.20058">
        <ele>106</ele>
        <time>2021-04-17T09:13:37Z</time>
      </trkpt>
      <trkpt lat="47.56348" lon="1.20052">
        <ele>107</ele>
        <time>2021-04-17T09:13:40Z</time>
      </trkpt>
      <trkpt lat="47.56358" lon="1.20043">
        <ele>108</ele>
        <time>2021-04-17T09:13:44Z</time>
      </trkpt>
      <trkpt lat="47.56368" lon="1.20035">
        <ele>109</ele>
        <time>2021-04-17T09:13:48Z</time>
      </trkpt>
      <trkpt lat="47.56378" lon="1.20031">
        <ele>110</ele>
        <time>2021-04-17T09:13:52Z</time>
      </trkpt>
      <trkpt lat="47.56388" lon="1.20025">
        <ele>110</ele>
        <time>2021-04-17T09:13:57Z</time>
      </trkpt>
      <trkpt lat="47.56398" lon="1.20016">
        <ele>112</ele>
        <time>2021-04-17T09:14:02Z</time>
      </trkpt>
      <trkpt lat="47.56408" lon="1.20008">
        <ele>112</ele>
        <time>2021-04-17T09:14:06Z</time>
      </trkpt>
      <trkpt lat="47.56417" lon="1.20003">
        <ele>113</ele>
        <time>2021-04-17T09:14:10Z</time>
      </trkpt>
      <trkpt lat="47.56428" lon="1.2">
        <ele>114</ele>
        <time>2021-04-17T09:14:15Z</time>
      </trkpt>
      <trkpt lat="47.56438" lon="1.2">
        <ele>115</ele>
        <time>2021-04-17T09:14:20Z</time>
      </trkpt>
      <trkpt lat="47.56448" lon="1.20006">
        <ele>115</ele>
        <time>2021-04-17T09:14:25Z</time>
      </trkpt>
      <trkpt lat="47.56457" lon="1.20016">
        <ele>117</ele>
        <time>2021-04-17T09:14:31Z</time>
      </trkpt>
      <trkpt lat="47.56467" lon="1.20024">
        <ele>119</ele>
        <time>2021-04-17T09:14:36Z</time>
      </trkpt>
      <trkpt lat="47.56477" lon="1.20032">
        <ele>121</ele>
        <time>2021-04-17T09:14:41Z</time>
      </trkpt>
      <trkpt lat="47.56487" lon="1.2004">
        <ele>122</ele>
        <time>2021-04-17T09:14:46Z</time>
      </trkpt>
      <trkpt lat="47.56498" lon="1.20045">
        <ele>122</ele>
        <time>2021-04-17T09:14:50Z</time>
      </trkpt>
      <trkpt lat="47.56509" lon="1.20053">
        <ele>123</ele>
        <time>2021-04-17T09:14:55Z</time>
      </trkpt>
      <trkpt lat="47.56519" lon="1.20064">
        <ele>123</ele>
        <time>2021-04-17T09:14:59Z</time>
      </trkpt>
      <trkpt lat="47.56529" lon="1.20077">
        <ele>123</ele>
        <time>2021-04-17T09:15:03Z</time>
      </trkpt>
      <trkpt lat="47.56535" lon="1.20089">
        <ele>123</ele>
        <time>2021-04-17T09:15:07Z</time>
      </trkpt>
      <trkpt lat="47.56539" lon="1.20103">
        <ele>124</ele>
        <time>2021-04-17T09:15:11Z</time>
      </trkpt>
      <trkpt lat="47.5654" lon="1.2012">
        <ele>125</ele>
        <time>2021-04-17T09:15:15Z</time>
      </trkpt>
      <trkpt lat="47.5654" lon="1.20137">
        <ele>124</ele>
        <time>2021-04-17T09:15:19Z</time>
      </trkpt>
      <trkpt lat="47.5654" lon="1.20153">
        <ele>124</ele>
        <time>2021-04-17T09:15:23Z</time>
      </trkpt>
      <trkpt lat="47.56538" lon="1.20172">
        <ele>123</ele>
        <time>2021-04-17T09:15:27Z</time>
      </trkpt>
      <trkpt lat="47.56539" lon="1.20189">
        <ele>123</ele>
        <time>2021-04-17T09:15:31Z</time>
      </trkpt>
      <trkpt lat="47.56541" lon="1.20203">
        <ele>123</ele>
        <time>2021-04-17T09:15:34Z</time>
      </trkpt>
      <trkpt lat="47.56545" lon="1.2022">
        <ele>123</ele>
        <time>2021-04-17T09:15:38Z</time>
      </trkpt>
      <trkpt lat="47.56551" lon="1.20235">
        <ele>124</ele>
        <time>2021-04-17T09:15:42Z</time>
      </trkpt>
      <trkpt lat="47.56546" lon="1.20251">
        <ele>122</ele>
        <time>2021-04-17T09:15:46Z</time>
      </trkpt>
      <trkpt lat="47.56539" lon="1.20266">
        <ele>120</ele>
        <time>2021-04-17T09:15:49Z</time>
      </trkpt>
      <trkpt lat="47.56534" lon="1.2028">
        <ele>120</ele>
        <time>2021-04-17T09:15:52Z</time>
      </trkpt>
      <trkpt lat="47.5653" lon="1.20296">
        <ele>119</ele>
        <time>2021-04-17T09:15:55Z</time>
      </trkpt>
      <trkpt lat="47.56526" lon="1.20312">
        <ele>119</ele>
        <time>2021-04-17T09:15:59Z</time>
      </trkpt>
      <trkpt lat="47.56522" lon="1.20329">
        <ele>118</ele>
        <time>2021-04-17T09:16:03Z</time>
      </trkpt>
      <trkpt lat="47.5652" lon="1.20348">
        <ele>119</ele>
        <time>2021-04-17T09:16:07Z</time>
      </trkpt>
      <trkpt lat="47.56518" lon="1.20365">
        <ele>119</ele>
        <time>2021-04-17T09:16:10Z</time>
      </trkpt>
      <trkpt lat="47.56513" lon="1.20382">
        <ele>120</ele>
        <time>2021-04-17T09:16:14Z</time>
      </trkpt>
      <trkpt lat="47.56508" lon="1.20395">
        <ele>121</ele>
        <time>2021-04-17T09:16:18Z</time>
      </trkpt>
      <trkpt lat="47.56501" lon="1.20407">
        <ele>121</ele>
        <time>2021-04-17T09:16:23Z</time>
      </trkpt>
      <trkpt lat="47.56498" lon="1.20422">
        <ele>121</ele>
        <time>2021-04-17T09:16:26Z</time>
      </trkpt>
      <trkpt lat="47.56499" lon="1.20438">
        <ele>120</ele>
        <time>2021-04-17T09:16:30Z</time>
      </trkpt>
      <trkpt lat="47.56504" lon="1.20453">
        <ele>118</ele>
        <time>2021-04-17T09:16:34Z</time>
      </trkpt>
      <trkpt lat="47.56511" lon="1.20467">
        <ele>115</ele>
        <time>2021-04-17T09:16:38Z</time>
      </trkpt>
      <trkpt lat="47.56518" lon="1.20477">
        <ele>113</ele>
        <time>2021-04-17T09:16:41Z</time>
      </trkpt>
      <trkpt lat="47.56528" lon="1.20486">
        <ele>112</ele>
        <time>2021-04-17T09:16:44Z</time>
      </trkpt>
      <trkpt lat="47.56538" lon="1.20495">
        <ele>111</ele>
        <time>2021-04-17T09:16:47Z</time>
      </trkpt>
      <trkpt lat="47.56547" lon="1.20506">
        <ele>110</ele>
        <time>2021-04-17T09:16:50Z</time>
      </trkpt>
      <trkpt lat="47.56556" lon="1.20514">
        <ele>109</ele>
        <time>2021-04-17T09:16:53Z</time>
      </trkpt>
      <trkpt lat="47.56565" lon="1.20523">
        <ele>108</ele>
        <time>2021-04-17T09:16:56Z</time>
      </trkpt>
      <trkpt lat="47.56575" lon="1.20535">
        <ele>106</ele>
        <time>2021-04-17T09:17:00Z</time>
      </trkpt>
      <trkpt lat="47.56583" lon="1.20544">
        <ele>105</ele>
        <time>2021-04-17T09:17:03Z</time>
      </trkpt>
      <trkpt lat="47.56591" lon="1.20557">
        <ele>102</ele>
        <time>2021-04-17T09:17:07Z</time>
      </trkpt>
      <trkpt lat="47.566" lon="1.2057">
        <ele>102</ele>
        <time>2021-04-17T09:17:11Z</time>
      </trkpt>
      <trkpt lat="47.56608" lon="1.20581">
        <ele>101</ele>
        <time>2021-04-17T09:17:14Z</time>
      </trkpt>
      <trkpt lat="47.56614" lon="1.20597">
        <ele>97</ele>
        <time>2021-04-17T09:17:17Z</time>
      </trkpt>
      <trkpt lat="47.56619" lon="1.2061">
        <ele>95</ele>
        <time>2021-04-17T09:17:21Z</time>
      </trkpt>
      <trkpt lat="47.56614" lon="1.20626">
        <ele>95</ele>
        <time>2021-04-17T09:17:25Z</time>
      </trkpt>
      <trkpt lat="47.56611" lon="1.20643">
        <ele>93</ele>
        <time>2021-04-17T09:17:29Z</time>
      </trkpt>
      <trkpt lat="47.56617" lon="1.20656">
        <ele>92</ele>
        <time>2021-04-17T09:17:33Z</time>
      </trkpt>
      <trkpt lat="47.56624" lon="1.20664">
        <ele>90</ele>
        <time>2021-04-17T09:17:36Z</time>
      </trkpt>
      <trkpt lat="47.56632" lon="1.20673">
        <ele>88</ele>
        <time>2021-04-17T09:17:39Z</time>
      </trkpt>
      <trkpt lat="47.56639" lon="1.20681">
        <ele>87</ele>
        <time>2021-04-17T09:17:42Z</time>
      </trkpt>
      <trkpt lat="47.5665" lon="1.20688">
        <ele>86</ele>
        <time>2021-04-17T09:17:45Z</time>
      </trkpt>
      <trkpt lat="47.56661" lon="1.20693">
        <ele>85</ele>
        <time>2021-04-17T09:17:50Z</time>
      </trkpt>
      <trkpt lat="47.56673" lon="1.20687">
        <ele>83</ele>
        <time>2021-04-17T09:17:54Z</time>
      </trkpt>
      <trkpt lat="47.56685" lon="1.20681">
        <ele>83</ele>
        <time>2021-04-17T09:17:58Z</time>
      </trkpt>
      <trkpt lat="47.56696" lon="1.20678">
        <ele>83</ele>
        <time>2021-04-17T09:18:02Z</time>
      </trkpt>
      <trkpt lat="47.56706" lon="1.20673">
        <ele>83</ele>
        <time>2021-04-17T09:18:06Z</time>
      </trkpt>
      <trkpt lat="47.56716" lon="1.20668">
        <ele>83</ele>
        <time>2021-04-17T09:18:10Z</time>
      </trkpt>
      <trkpt lat="47.56727" lon="1.20662">
        <ele>84</ele>
        <time>2021-04-17T09:18:15Z</time>
      </trkpt>
      <trkpt lat="47.56737" lon="1.20659">
        <ele>84</ele>
        <time>2021-04-17T09:18:21Z</time>
      </trkpt>
      <trkpt lat="47.56748" lon="1.2066">
        <ele>84</ele>
        <time>2021-04-17T09:18:26Z</time>
      </trkpt>
      <trkpt lat="47.56759" lon="1.20664">
        <ele>85</ele>
        <time>2021-04-17T09:18:31Z</time>
      </trkpt>
      <trkpt lat="47.5677" lon="1.20668">
        <ele>85</ele>
        <time>2021-04-17T09:18:35Z</time>
      </trkpt>
      <trkpt lat="47.56781" lon="1.20672">
        <ele>86</ele>
        <time>2021-04-17T09:18:40Z</time>
      </trkpt>
      <trkpt lat="47.56793" lon="1.20674">
        <ele>89</ele>
        <time>2021-04-17T09:18:44Z</time>
      </trkpt>
      <trkpt lat="47.56804" lon="1.20678">
        <ele>88</ele>
        <time>2021-04-17T09:18:47Z</time>
      </trkpt>
      <trkpt lat="47.56817" lon="1.20679">
        <ele>86</ele>
        <time>2021-04-17T09:18:51Z</time>
      </trkpt>
      <trkpt lat="47.56829" lon="1.20681">
        <ele>85</ele>
        <time>2021-04-17T09:18:55Z</time>
      </trkpt>
      <trkpt lat="47.56841" lon="1.20685">
        <ele>86</ele>
        <time>2021-04-17T09:18:58Z</time>
      </trkpt>
      <trkpt lat="47.56854" lon="1.20687">
        <ele>86</ele>
        <time>2021-04-17T09:19:02Z</time>
      </trkpt>
      <trkpt lat="47.56866" lon="1.20692">
        <ele>87</ele>
        <time>2021-04-17T09:19:05Z</time>
      </trkpt>
      <trkpt lat="47.56877" lon="1.20697">
        <ele>87</ele>
        <time>2021-04-17T09:19:08Z</time>
      </trkpt>
      <trkpt lat="47.56888" lon="1.20701">
        <ele>88</ele>
        <time>2021-04-17T09:19:11Z</time>
      </trkpt>
      <trkpt lat="47.56897" lon="1.20706">
        <ele>89</ele>
        <time>2021-04-17T09:19:14Z</time>
      </trkpt>
      <trkpt lat="47.56907" lon="1.20712">
        <ele>90</ele>
        <time>2021-04-17T09:19:17Z</time>
      </trkpt>
      <trkpt lat="47.56916" lon="1.20718">
        <ele>90</ele>
        <time>2021-04-17T09:19:20Z</time>
      </trkpt>
      <trkpt lat="47.56925" lon="1.20725">
        <ele>90</ele>
        <time>2021-04-17T09:19:23Z</time>
      </trkpt>
      <trkpt lat="47.56936" lon="1.20732">
        <ele>91</ele>
        <time>2021-04-17T09:19:27Z</time>
      </trkpt>
      <trkpt lat="47.56947" lon="1.20741">
        <ele>91</ele>
        <time>2021-04-17T09:19:31Z</time>
      </trkpt>
      <trkpt lat="47.56957" lon="1.20751">
        <ele>92</ele>
        <time>2021-04-17T09:19:35Z</time>
      </trkpt>
      <trkpt lat="47.56966" lon="1.20761">
        <ele>92</ele>
        <time>2021-04-17T09:19:39Z</time>
      </trkpt>
      <trkpt lat="47.56975" lon="1.20768">
        <ele>93</ele>
        <time>2021-04-17T09:19:42Z</time>
      </trkpt>
      <trkpt lat="47.56985" lon="1.20779">
        <ele>93</ele>
        <time>2021-04-17T09:19:46Z</time>
      </trkpt>
      <trkpt lat="47.56996" lon="1.20788">
        <ele>93</ele>
        <time>2021-04-17T09:19:50Z</time>
      </trkpt>
      <trkpt lat="47.57006" lon="1.20798">
        <ele>93</ele>
        <time>2021-04-17T09:19:54Z</time>
      </trkpt>
      <trkpt lat="47.57015" lon="1.20808">
        <ele>94</ele>
        <time>2021-04-17T09:19:59Z</time>
      </trkpt>
      <trkpt lat="47.57024" lon="1.20814">
        <ele>94</ele>
        <time>2021-04-17T09:20:05Z</time>
      </trkpt>
      <trkpt lat="47.57034" lon="1.20821">
        <ele>96</ele>
        <time>2021-04-17T09:20:10Z</time>
      </trkpt>
      <trkpt lat="47.57046" lon="1.20827">
        <ele>94</ele>
        <time>2021-04-17T09:20:14Z</time>
      </trkpt>
      <trkpt lat="47.57058" lon="1.20832">
        <ele>93</ele>
        <time>2021-04-17T09:20:17Z</time>
      </trkpt>
      <trkpt lat="47.5707" lon="1.20836">
        <ele>92</ele>
        <time>2021-04-17T09:20:20Z</time>
      </trkpt>
      <trkpt lat="47.57081" lon="1.20838">
        <ele>92</ele>
        <time>2021-04-17T09:20:23Z</time>
      </trkpt>
      <trkpt lat="47.57092" lon="1.20841">
        <ele>92</ele>
        <time>2021-04-17T09:20:26Z</time>
      </trkpt>
      <trkpt lat="47.57103" lon="1.20843">
        <ele>93</ele>
        <time>2021-04-17T09:20:29Z</time>
      </trkpt>
      <trkpt lat="47.57116" lon="1.20845">
        <ele>93</ele>
        <time>2021-04-17T09:20:32Z</time>
      </trkpt>
      <trkpt lat="47.57127" lon="1.20847">
        <ele>93</ele>
        <time>2021-04-17T09:20:35Z</time>
      </trkpt>
      <trkpt lat="47.5714" lon="1.20849">
        <ele>94</ele>
        <time>2021-04-17T09:20:38Z</time>
      </trkpt>
      <trkpt lat="47.57154" lon="1.20851">
        <ele>95</ele>
        <time>2021-04-17T09:20:41Z</time>
      </trkpt>
      <trkpt lat="47.57165" lon="1.20854">
        <ele>96</ele>
        <time>2021-04-17T09:20:44Z</time>
      </trkpt>
      <trkpt lat="47.57175" lon="1.20859">
        <ele>96</ele>
        <time>2021-04-17T09:20:47Z</time>
      </trkpt>
      <trkpt lat="47.57185" lon="1.20865">
        <ele>96</ele>
        <time>2021-04-17T09:20:50Z</time>
      </trkpt>
      <trkpt lat="47.57194" lon="1.20871">
        <ele>96</ele>
        <time>2021-04-17T09:20:53Z</time>
      </trkpt>
      <trkpt lat="47.57204" lon="1.20876">
        <ele>96</ele>
        <time>2021-04-17T09:20:57Z</time>
      </trkpt>
      <trkpt lat="47.5721" lon="1.20867">
        <ele>97</ele>
        <time>2021-04-17T09:21:05Z</time>
      </trkpt>
      <trkpt lat="47.57213" lon="1.20853">
        <ele>97</ele>
        <time>2021-04-17T09:21:10Z</time>
      </trkpt>
      <trkpt lat="47.57213" lon="1.20836">
        <ele>98</ele>
        <time>2021-04-17T09:21:15Z</time>
      </trkpt>
      <trkpt lat="47.57211" lon="1.20821">
        <ele>99</ele>
        <time>2021-04-17T09:21:18Z</time>
      </trkpt>
      <trkpt lat="47.57207" lon="1.20804">
        <ele>100</ele>
        <time>2021-04-17T09:21:22Z</time>
      </trkpt>
      <trkpt lat="47.57202" lon="1.2079">
        <ele>101</ele>
        <time>2021-04-17T09:21:26Z</time>
      </trkpt>
      <trkpt lat="47.5719" lon="1.20779">
        <ele>102</ele>
        <time>2021-04-17T09:21:31Z</time>
      </trkpt>
      <trkpt lat="47.57184" lon="1.20766">
        <ele>103</ele>
        <time>2021-04-17T09:21:34Z</time>
      </trkpt>
      <trkpt lat="47.57185" lon="1.20749">
        <ele>104</ele>
        <time>2021-04-17T09:21:39Z</time>
      </trkpt>
      <trkpt lat="47.57191" lon="1.20734">
        <ele>102</ele>
        <time>2021-04-17T09:21:45Z</time>
      </trkpt>
      <trkpt lat="47.57198" lon="1.20721">
        <ele>102</ele>
        <time>2021-04-17T09:21:49Z</time>
      </trkpt>
      <trkpt lat="47.572" lon="1.20705">
        <ele>101</ele>
        <time>2021-04-17T09:21:54Z</time>
      </trkpt>
      <trkpt lat="47.57207" lon="1.20693">
        <ele>101</ele>
        <time>2021-04-17T09:21:58Z</time>
      </trkpt>
      <trkpt lat="47.57215" lon="1.20683">
        <ele>101</ele>
        <time>2021-04-17T09:22:01Z</time>
      </trkpt>
      <trkpt lat="47.57223" lon="1.20673">
        <ele>101</ele>
        <time>2021-04-17T09:22:04Z</time>
      </trkpt>
      <trkpt lat="47.57231" lon="1.20659">
        <ele>100</ele>
        <time>2021-04-17T09:22:08Z</time>
      </trkpt>
      <trkpt lat="47.57237" lon="1.20647">
        <ele>101</ele>
        <time>2021-04-17T09:22:12Z</time>
      </trkpt>
      <trkpt lat="47.57245" lon="1.20637">
        <ele>102</ele>
        <time>2021-04-17T09:22:15Z</time>
      </trkpt>
      <trkpt lat="47.57253" lon="1.20623">
        <ele>104</ele>
        <time>2021-04-17T09:22:19Z</time>
      </trkpt>
      <trkpt lat="47.57259" lon="1.20607">
        <ele>106</ele>
        <time>2021-04-17T09:22:23Z</time>
      </trkpt>
      <trkpt lat="47.57265" lon="1.20592">
        <ele>108</ele>
        <time>2021-04-17T09:22:27Z</time>
      </trkpt>
      <trkpt lat="47.57273" lon="1.20579">
        <ele>109</ele>
        <time>2021-04-17T09:22:32Z</time>
      </trkpt>
      <trkpt lat="47.57281" lon="1.20568">
        <ele>111</ele>
        <time>2021-04-17T09:22:37Z</time>
      </trkpt>
      <trkpt lat="47.57289" lon="1.20559">
        <ele>113</ele>
        <time>2021-04-17T09:22:41Z</time>
      </trkpt>
      <trkpt lat="47.57297" lon="1.2055">
        <ele>115</ele>
        <time>2021-04-17T09:22:45Z</time>
      </trkpt>
      <trkpt lat="47.57306" lon="1.2054">
        <ele>116</ele>
        <time>2021-04-17T09:22:49Z</time>
      </trkpt>
      <trkpt lat="47.57314" lon="1.20529">
        <ele>117</ele>
        <time>2021-04-17T09:22:52Z</time>
      </trkpt>
      <trkpt lat="47.57322" lon="1.2052">
        <ele>117</ele>
        <time>2021-04-17T09:22:55Z</time>
      </trkpt>
      <trkpt lat="47.57332" lon="1.20508">
        <ele>118</ele>
        <time>2021-04-17T09:22:59Z</time>
      </trkpt>
      <trkpt lat="47.5734" lon="1.20497">
        <ele>118</ele>
        <time>2021-04-17T09:23:02Z</time>
      </trkpt>
      <trkpt lat="47.57348" lon="1.20486">
        <ele>118</ele>
        <time>2021-04-17T09:23:06Z</time>
      </trkpt>
      <trkpt lat="47.57354" lon="1.20471">
        <ele>118</ele>
        <time>2021-04-17T09:23:11Z</time>
      </trkpt>
      <trkpt lat="47.57359" lon="1.20458">
        <ele>119</ele>
        <time>2021-04-17T09:23:15Z</time>
      </trkpt>
      <trkpt lat="47.57364" lon="1.20441">
        <ele>118</ele>
        <time>2021-04-17T09:23:19Z</time>
      </trkpt>
      <trkpt lat="47.57369" lon="1.20427">
        <ele>119</ele>
        <time>2021-04-17T09:23:23Z</time>
      </trkpt>
      <trkpt lat="47.57378" lon="1.20413">
        <ele>118</ele>
        <time>2021-04-17T09:23:27Z</time>
      </trkpt>
      <trkpt lat="47.57387" lon="1.20407">
        <ele>117</ele>
        <time>2021-04-17T09:23:30Z</time>
      </trkpt>
      <trkpt lat="47.57397" lon="1.20401">
        <ele>117</ele>
        <time>2021-04-17T09:23:33Z</time>
      </trkpt>
      <trkpt lat="47.57407" lon="1.20397">
        <ele>117</ele>
        <time>2021-04-17T09:23:36Z</time>
      </trkpt>
      <trkpt lat="47.57416" lon="1.20393">
        <ele>118</ele>
        <time>2021-04-17T09:23:39Z</time>
      </trkpt>
      <trkpt lat="47.57424" lon="1.20389">
        <ele>118</ele>
        <time>2021-04-17T09:23:42Z</time>
      </trkpt>
      <trkpt lat="47.57433" lon="1.20385">
        <ele>118</ele>
        <time>2021-04-17T09:23:45Z</time>
      </trkpt>
      <trkpt lat="47.57442" lon="1.20381">
        <ele>118</ele>
        <time>2021-04-17T09:23:48Z</time>
      </trkpt>
      <trkpt lat="47.57451" lon="1.20377">
        <ele>118</ele>
        <time>2021-04-17T09:23:51Z</time>
      </trkpt>
      <trkpt lat="47.57459" lon="1.20373">
        <ele>118</ele>
        <time>2021-04-17T09:23:54Z</time>
      </trkpt>
      <trkpt lat="47.57468" lon="1.20369">
        <ele>119</ele>
        <time>2021-04-17T09:23:57Z</time>
      </trkpt>
      <trkpt lat="47.57477" lon="1.20366">
        <ele>119</ele>
        <time>2021-04-17T09:24:00Z</time>
      </trkpt>
      <trkpt lat="47.57486" lon="1.20363">
        <ele>119</ele>
        <time>2021-04-17T09:24:03Z</time>
      </trkpt>
      <trkpt lat="47.57494" lon="1.2036">
        <ele>119</ele>
        <time>2021-04-17T09:24:06Z</time>
      </trkpt>
      <trkpt lat="47.57502" lon="1.20356">
        <ele>120</ele>
        <time>2021-04-17T09:24:09Z</time>
      </trkpt>
      <trkpt lat="47.57512" lon="1.20358">
        <ele>119</ele>
        <time>2021-04-17T09:24:13Z</time>
      </trkpt>
      <trkpt lat="47.57517" lon="1.2037">
        <ele>119</ele>
        <time>2021-04-17T09:24:16Z</time>
      </trkpt>
      <trkpt lat="47.5752" lon="1.20384">
        <ele>119</ele>
        <time>2021-04-17T09:24:19Z</time>
      </trkpt>
      <trkpt lat="47.57523" lon="1.20399">
        <ele>120</ele>
        <time>2021-04-17T09:24:22Z</time>
      </trkpt>
      <trkpt lat="47.57525" lon="1.20414">
        <ele>120</ele>
        <time>2021-04-17T09:24:25Z</time>
      </trkpt>
      <trkpt lat="47.57528" lon="1.20429">
        <ele>120</ele>
        <time>2021-04-17T09:24:28Z</time>
      </trkpt>
      <trkpt lat="47.5753" lon="1.20444">
        <ele>120</ele>
        <time>2021-04-17T09:24:31Z</time>
      </trkpt>
      <trkpt lat="47.57532" lon="1.20458">
        <ele>120</ele>
        <time>2021-04-17T09:24:34Z</time>
      </trkpt>
      <trkpt lat="47.57533" lon="1.20474">
        <ele>120</ele>
        <time>2021-04-17T09:24:37Z</time>
      </trkpt>
      <trkpt lat="47.57535" lon="1.20489">
        <ele>120</ele>
        <time>2021-04-17T09:24:40Z</time>
      </trkpt>
      <trkpt lat="47.57535" lon="1.20504">
        <ele>120</ele>
        <time>2021-04-17T09:24:43Z</time>
      </trkpt>
      <trkpt lat="47.57535" lon="1.20524">
        <ele>120</ele>
        <time>2021-04-17T09:24:47Z</time>
      </trkpt>
      <trkpt lat="47.57535" lon="1.20539">
        <ele>120</ele>
        <time>2021-04-17T09:24:50Z</time>
      </trkpt>
      <trkpt lat="47.57534" lon="1.20554">
        <ele>119</ele>
        <time>2021-04-17T09:24:53Z</time>
      </trkpt>
      <trkpt lat="47.57533" lon="1.2057">
        <ele>119</ele>
        <time>2021-04-17T09:24:56Z</time>
      </trkpt>
      <trkpt lat="47.57533" lon="1.20585">
        <ele>119</ele>
        <time>2021-04-17T09:24:59Z</time>
      </trkpt>
      <trkpt lat="47.57533" lon="1.20601">
        <ele>118</ele>
        <time>2021-04-17T09:25:02Z</time>
      </trkpt>
      <trkpt lat="47.57532" lon="1.20617">
        <ele>118</ele>
        <time>2021-04-17T09:25:05Z</time>
      </trkpt>
      <trkpt lat="47.57532" lon="1.20632">
        <ele>118</ele>
        <time>2021-04-17T09:25:08Z</time>
      </trkpt>
      <trkpt lat="47.57532" lon="1.20647">
        <ele>117</ele>
        <time>2021-04-17T09:25:11Z</time>
      </trkpt>
      <trkpt lat="47.57533" lon="1.20662">
        <ele>117</ele>
        <time>2021-04-17T09:25:14Z</time>
      </trkpt>
      <trkpt lat="47.57534" lon="1.20681">
        <ele>116</ele>
        <time>2021-04-17T09:25:18Z</time>
      </trkpt>
      <trkpt lat="47.57536" lon="1.20696">
        <ele>116</ele>
        <time>2021-04-17T09:25:21Z</time>
      </trkpt>
      <trkpt lat="47.57538" lon="1.2071">
        <ele>115</ele>
        <time>2021-04-17T09:25:24Z</time>
      </trkpt>
      <trkpt lat="47.57541" lon="1.20725">
        <ele>114</ele>
        <time>2021-04-17T09:25:27Z</time>
      </trkpt>
      <trkpt lat="47.57543" lon="1.20739">
        <ele>114</ele>
        <time>2021-04-17T09:25:30Z</time>
      </trkpt>
      <trkpt lat="47.57546" lon="1.20754">
        <ele>113</ele>
        <time>2021-04-17T09:25:33Z</time>
      </trkpt>
      <trkpt lat="47.57549" lon="1.20768">
        <ele>112</ele>
        <time>2021-04-17T09:25:36Z</time>
      </trkpt>
      <trkpt lat="47.57553" lon="1.20782">
        <ele>111</ele>
        <time>2021-04-17T09:25:39Z</time>
      </trkpt>
      <trkpt lat="47.57556" lon="1.20796">
        <ele>111</ele>
        <time>2021-04-17T09:25:42Z</time>
      </trkpt>
      <trkpt lat="47.5756" lon="1.20811">
        <ele>111</ele>
        <time>2021-04-17T09:25:45Z</time>
      </trkpt>
      <trkpt lat="47.57563" lon="1.20825">
        <ele>110</ele>
        <time>2021-04-17T09:25:48Z</time>
      </trkpt>
      <trkpt lat="47.57567" lon="1.20839">
        <ele>110</ele>
        <time>2021-04-17T09:25:51Z</time>
      </trkpt>
      <trkpt lat="47.57572" lon="1.20852">
        <ele>109</ele>
        <time>2021-04-17T09:25:54Z</time>
      </trkpt>
      <trkpt lat="47.57576" lon="1.2087">
        <ele>108</ele>
        <time>2021-04-17T09:25:58Z</time>
      </trkpt>
      <trkpt lat="47.57579" lon="1.20885">
        <ele>107</ele>
        <time>2021-04-17T09:26:01Z</time>
      </trkpt>
      <trkpt lat="47.57582" lon="1.20899">
        <ele>106</ele>
        <time>2021-04-17T09:26:04Z</time>
      </trkpt>
      <trkpt lat="47.57585" lon="1.20913">
        <ele>105</ele>
        <time>2021-04-17T09:26:07Z</time>
      </trkpt>
      <trkpt lat="47.57588" lon="1.20927">
        <ele>104</ele>
        <time>2021-04-17T09:26:10Z</time>
      </trkpt>
      <trkpt lat="47.57591" lon="1.20942">
        <ele>103</ele>
        <time>2021-04-17T09:26:14Z</time>
      </trkpt>
      <trkpt lat="47.57602" lon="1.20932">
        <ele>102</ele>
        <time>2021-04-17T09:26:21Z</time>
      </trkpt>
      <trkpt lat="47.57609" lon="1.20922">
        <ele>101</ele>
        <time>2021-04-17T09:26:24Z</time>
      </trkpt>
      <trkpt lat="47.57618" lon="1.20908">
        <ele>100</ele>
        <time>2021-04-17T09:26:28Z</time>
      </trkpt>
      <trkpt lat="47.57626" lon="1.20896">
        <ele>100</ele>
        <time>2021-04-17T09:26:32Z</time>
      </trkpt>
      <trkpt lat="47.57635" lon="1.20886">
        <ele>101</ele>
        <time>2021-04-17T09:26:36Z</time>
      </trkpt>
      <trkpt lat="47.57646" lon="1.20889">
        <ele>101</ele>
        <time>2021-04-17T09:26:41Z</time>
      </trkpt>
      <trkpt lat="47.57651" lon="1.20903">
        <ele>101</ele>
        <time>2021-04-17T09:26:44Z</time>
      </trkpt>
      <trkpt lat="47.57655" lon="1.20918">
        <ele>101</ele>
        <time>2021-04-17T09:26:47Z</time>
      </trkpt>
      <trkpt lat="47.57659" lon="1.20933">
        <ele>101</ele>
        <time>2021-04-17T09:26:50Z</time>
      </trkpt>
      <trkpt lat="47.57663" lon="1.20947">
        <ele>101</ele>
        <time>2021-04-17T09:26:53Z</time>
      </trkpt>
      <trkpt lat="47.57668" lon="1.20961">
        <ele>101</ele>
        <time>2021-04-17T09:26:56Z</time>
      </trkpt>
      <trkpt lat="47.57671" lon="1.20974">
        <ele>101</ele>
        <time>2021-04-17T09:26:59Z</time>
      </trkpt>
      <trkpt lat="47.57676" lon="1.20992">
        <ele>100</ele>
        <time>2021-04-17T09:27:03Z</time>
      </trkpt>
      <trkpt lat="47.57675" lon="1.2101">
        <ele>99</ele>
        <time>2021-04-17T09:27:07Z</time>
      </trkpt>
      <trkpt lat="47.57663" lon="1.21018">
        <ele>98</ele>
        <time>2021-04-17T09:27:10Z</time>
      </trkpt>
      <trkpt lat="47.57653" lon="1.21027">
        <ele>98</ele>
        <time>2021-04-17T09:27:13Z</time>
      </trkpt>
      <trkpt lat="47.57647" lon="1.21041">
        <ele>97</ele>
        <time>2021-04-17T09:27:17Z</time>
      </trkpt>
      <trkpt lat="47.57651" lon="1.21058">
        <ele>96</ele>
        <time>2021-04-17T09:27:21Z</time>
      </trkpt>
      <trkpt lat="47.57657" lon="1.21071">
        <ele>95</ele>
        <time>2021-04-17T09:27:24Z</time>
      </trkpt>
      <trkpt lat="47.57663" lon="1.21083">
        <ele>95</ele>
        <time>2021-04-17T09:27:27Z</time>
      </trkpt>
      <trkpt lat="47.57669" lon="1.21096">
        <ele>95</ele>
        <time>2021-04-17T09:27:30Z</time>
      </trkpt>
      <trkpt lat="47.57675" lon="1.21108">
        <ele>94</ele>
        <time>2021-04-17T09:27:33Z</time>
      </trkpt>
      <trkpt lat="47.5768" lon="1.2112">
        <ele>94</ele>
        <time>2021-04-17T09:27:36Z</time>
      </trkpt>
      <trkpt lat="47.57686" lon="1.21134">
        <ele>94</ele>
        <time>2021-04-17T09:27:39Z</time>
      </trkpt>
      <trkpt lat="47.57692" lon="1.21147">
        <ele>94</ele>
        <time>2021-04-17T09:27:42Z</time>
      </trkpt>
      <trkpt lat="47.57698" lon="1.21158">
        <ele>94</ele>
        <time>2021-04-17T09:27:45Z</time>
      </trkpt>
      <trkpt lat="47.57703" lon="1.2117">
        <ele>93</ele>
        <time>2021-04-17T09:27:48Z</time>
      </trkpt>
      <trkpt lat="47.57709" lon="1.21183">
        <ele>93</ele>
        <time>2021-04-17T09:27:51Z</time>
      </trkpt>
      <trkpt lat="47.57716" lon="1.21197">
        <ele>93</ele>
        <time>2021-04-17T09:27:55Z</time>
      </trkpt>
      <trkpt lat="47.57722" lon="1.21209">
        <ele>93</ele>
        <time>2021-04-17T09:27:58Z</time>
      </trkpt>
      <trkpt lat="47.57729" lon="1.21223">
        <ele>93</ele>
        <time>2021-04-17T09:28:02Z</time>
      </trkpt>
      <trkpt lat="47.57735" lon="1.2124">
        <ele>94</ele>
        <time>2021-04-17T09:28:07Z</time>
      </trkpt>
      <trkpt lat="47.5774" lon="1.21256">
        <ele>94</ele>
        <time>2021-04-17T09:28:11Z</time>
      </trkpt>
      <trkpt lat="47.57744" lon="1.21271">
        <ele>94</ele>
        <time>2021-04-17T09:28:15Z</time>
      </trkpt>
      <trkpt lat="47.57743" lon="1.21287">
        <ele>92</ele>
        <time>2021-04-17T09:28:18Z</time>
      </trkpt>
      <trkpt lat="47.57741" lon="1.21306">
        <ele>90</ele>
        <time>2021-04-17T09:28:21Z</time>
      </trkpt>
      <trkpt lat="47.5774" lon="1.21324">
        <ele>88</ele>
        <time>2021-04-17T09:28:24Z</time>
      </trkpt>
      <trkpt lat="47.57737" lon="1.21343">
        <ele>88</ele>
        <time>2021-04-17T09:28:27Z</time>
      </trkpt>
      <trkpt lat="47.57734" lon="1.21359">
        <ele>86</ele>
        <time>2021-04-17T09:28:30Z</time>
      </trkpt>
      <trkpt lat="47.57731" lon="1.21375">
        <ele>85</ele>
        <time>2021-04-17T09:28:33Z</time>
      </trkpt>
      <trkpt lat="47.57728" lon="1.21391">
        <ele>85</ele>
        <time>2021-04-17T09:28:36Z</time>
      </trkpt>
      <trkpt lat="47.57728" lon="1.21406">
        <ele>84</ele>
        <time>2021-04-17T09:28:39Z</time>
      </trkpt>
      <trkpt lat="47.57728" lon="1.21422">
        <ele>84</ele>
        <time>2021-04-17T09:28:42Z</time>
      </trkpt>
      <trkpt lat="47.57729" lon="1.2144">
        <ele>83</ele>
        <time>2021-04-17T09:28:46Z</time>
      </trkpt>
      <trkpt lat="47.57732" lon="1.21459">
        <ele>82</ele>
        <time>2021-04-17T09:28:50Z</time>
      </trkpt>
      <trkpt lat="47.57739" lon="1.21472">
        <ele>81</ele>
        <time>2021-04-17T09:28:53Z</time>
      </trkpt>
      <trkpt lat="47.57748" lon="1.21486">
        <ele>82</ele>
        <time>2021-04-17T09:28:57Z</time>
      </trkpt>
      <trkpt lat="47.57757" lon="1.21498">
        <ele>81</ele>
        <time>2021-04-17T09:29:01Z</time>
      </trkpt>
      <trkpt lat="47.57766" lon="1.21509">
        <ele>82</ele>
        <time>2021-04-17T09:29:05Z</time>
      </trkpt>
      <trkpt lat="47.57776" lon="1.21519">
        <ele>82</ele>
        <time>2021-04-17T09:29:09Z</time>
      </trkpt>
      <trkpt lat="47.57785" lon="1.21529">
        <ele>83</ele>
        <time>2021-04-17T09:29:13Z</time>
      </trkpt>
      <trkpt lat="47.57796" lon="1.21538">
        <ele>84</ele>
        <time>2021-04-17T09:29:17Z</time>
      </trkpt>
      <trkpt lat="47.57806" lon="1.21545">
        <ele>84</ele>
        <time>2021-04-17T09:29:21Z</time>
      </trkpt>
      <trkpt lat="47.57817" lon="1.21552">
        <ele>84</ele>
        <time>2021-04-17T09:29:25Z</time>
      </trkpt>
      <trkpt lat="47.57826" lon="1.21561">
        <ele>84</ele>
        <time>2021-04-17T09:29:28Z</time>
      </trkpt>
      <trkpt lat="47.57831" lon="1.21577">
        <ele>84</ele>
        <time>2021-04-17T09:29:32Z</time>
      </trkpt>
      <trkpt lat="47.57838" lon="1.2159">
        <ele>85</ele>
        <time>2021-04-17T09:29:36Z</time>
      </trkpt>
      <trkpt lat="47.57845" lon="1.21602">
        <ele>85</ele>
        <time>2021-04-17T09:29:40Z</time>
      </trkpt>
      <trkpt lat="47.57851" lon="1.21616">
        <ele>85</ele>
        <time>2021-04-17T09:29:45Z</time>
      </trkpt>
      <trkpt lat="47.57859" lon="1.21627">
        <ele>86</ele>
        <time>2021-04-17T09:29:50Z</time>
      </trkpt>
      <trkpt lat="47.57868" lon="1.21638">
        <ele>87</ele>
        <time>2021-04-17T09:29:55Z</time>
      </trkpt>
      <trkpt lat="47.57873" lon="1.21651">
        <ele>88</ele>
        <time>2021-04-17T09:30:00Z</time>
      </trkpt>
      <trkpt lat="47.57882" lon="1.21662">
        <ele>90</ele>
        <time>2021-04-17T09:30:05Z</time>
      </trkpt>
      <trkpt lat="47.57892" lon="1.21672">
        <ele>92</ele>
        <time>2021-04-17T09:30:10Z</time>
      </trkpt>
      <trkpt lat="47.579" lon="1.21683">
        <ele>94</ele>
        <time>2021-04-17T09:30:15Z</time>
      </trkpt>
      <trkpt lat="47.57908" lon="1.21696">
        <ele>96</ele>
        <time>2021-04-17T09:30:20Z</time>
      </trkpt>
      <trkpt lat="47.57915" lon="1.2171">
        <ele>99</ele>
        <time>2021-04-17T09:30:25Z</time>
      </trkpt>
      <trkpt lat="47.57921" lon="1.21723">
        <ele>100</ele>
        <time>2021-04-17T09:30:30Z</time>
      </trkpt>
      <trkpt lat="47.57927" lon="1.21737">
        <ele>102</ele>
        <time>2021-04-17T09:30:35Z</time>
      </trkpt>
      <trkpt lat="47.57936" lon="1.21747">
        <ele>103</ele>
        <time>2021-04-17T09:30:41Z</time>
      </trkpt>
      <trkpt lat="47.57945" lon="1.21756">
        <ele>105</ele>
        <time>2021-04-17T09:30:46Z</time>
      </trkpt>
      <trkpt lat="47.57953" lon="1.21763">
        <ele>107</ele>
        <time>2021-04-17T09:30:51Z</time>
      </trkpt>
      <trkpt lat="47.5796" lon="1.21768">
        <ele>108</ele>
        <time>2021-04-17T09:30:56Z</time>
      </trkpt>
      <trkpt lat="47.57966" lon="1.21775">
        <ele>109</ele>
        <time>2021-04-17T09:31:01Z</time>
      </trkpt>
      <trkpt lat="47.57972" lon="1.21783">
        <ele>110</ele>
        <time>2021-04-17T09:31:07Z</time>
      </trkpt>
      <trkpt lat="47.57977" lon="1.21791">
        <ele>111</ele>
        <time>2021-04-17T09:31:13Z</time>
      </trkpt>
      <trkpt lat="47.5798" lon="1.21802">
        <ele>112</ele>
        <time>2021-04-17T09:31:19Z</time>
      </trkpt>
      <trkpt lat="47.57985" lon="1.21813">
        <ele>114</ele>
        <time>2021-04-17T09:31:25Z</time>
      </trkpt>
      <trkpt lat="47.57991" lon="1.21821">
        <ele>116</ele>
        <time>2021-04-17T09:31:31Z</time>
      </trkpt>
      <trkpt lat="47.57987" lon="1.21805">
        <ele>116</ele>
        <time>2021-04-17T09:31:41Z</time>
      </trkpt>
      <trkpt lat="47.57979" lon="1.21793">
        <ele>116</ele>
        <time>2021-04-17T09:31:45Z</time>
      </trkpt>
      <trkpt lat="47.5797" lon="1.21782">
        <ele>115</ele>
        <time>2021-04-17T09:31:49Z</time>
      </trkpt>
      <trkpt lat="47.5796" lon="1.21772">
        <ele>114</ele>
        <time>2021-04-17T09:31:53Z</time>
      </trkpt>
      <trkpt lat="47.5795" lon="1.21764">
        <ele>113</ele>
        <time>2021-04-17T09:31:57Z</time>
      </trkpt>
      <trkpt lat="47.5794" lon="1.21757">
        <ele>112</ele>
        <time>2021-04-17T09:32:01Z</time>
      </trkpt>
      <trkpt lat="47.57929" lon="1.2175">
        <ele>112</ele>
        <time>2021-04-17T09:32:06Z</time>
      </trkpt>
      <trkpt lat="47.57922" lon="1.21738">
        <ele>110</ele>
        <time>2021-04-17T09:32:09Z</time>
      </trkpt>
      <trkpt lat="47.57916" lon="1.21726">
        <ele>109</ele>
        <time>2021-04-17T09:32:12Z</time>
      </trkpt>
      <trkpt lat="47.57907" lon="1.21712">
        <ele>108</ele>
        <time>2021-04-17T09:32:16Z</time>
      </trkpt>
      <trkpt lat="47.57899" lon="1.21698">
        <ele>107</ele>
        <time>2021-04-17T09:32:20Z</time>
      </trkpt>
      <trkpt lat="47.57897" lon="1.2168">
        <ele>108</ele>
        <time>2021-04-17T09:32:24Z</time>
      </trkpt>
      <trkpt lat="47.57904" lon="1.21668">
        <ele>109</ele>
        <time>2021-04-17T09:32:28Z</time>
      </trkpt>
      <trkpt lat="47.57912" lon="1.21656">
        <ele>110</ele>
        <time>2021-04-17T09:32:34Z</time>
      </trkpt>
      <trkpt lat="47.57922" lon="1.21647">
        <ele>110</ele>
        <time>2021-04-17T09:32:40Z</time>
      </trkpt>
      <trkpt lat="47.57931" lon="1.2164">
        <ele>110</ele>
        <time>2021-04-17T09:32:45Z</time>
      </trkpt>
      <trkpt lat="47.57939" lon="1.21632">
        <ele>110</ele>
        <time>2021-04-17T09:32:50Z</time>
      </trkpt>
      <trkpt lat="47.57948" lon="1.21624">
        <ele>112</ele>
        <time>2021-04-17T09:32:56Z</time>
      </trkpt>
      <trkpt lat="47.57957" lon="1.21617">
        <ele>113</ele>
        <time>2021-04-17T09:33:01Z</time>
      </trkpt>
      <trkpt lat="47.57966" lon="1.21609">
        <ele>113</ele>
        <time>2021-04-17T09:33:07Z</time>
      </trkpt>
      <trkpt lat="47.57978" lon="1.21602">
        <ele>114</ele>
        <time>2021-04-17T09:33:15Z</time>
      </trkpt>
      <trkpt lat="47.57988" lon="1.21596">
        <ele>113</ele>
        <time>2021-04-17T09:33:19Z</time>
      </trkpt>
      <trkpt lat="47.58" lon="1.2159">
        <ele>114</ele>
        <time>2021-04-17T09:33:24Z</time>
      </trkpt>
      <trkpt lat="47.58012" lon="1.21583">
        <ele>116</ele>
        <time>2021-04-17T09:33:29Z</time>
      </trkpt>
      <trkpt lat="47.58021" lon="1.21577">
        <ele>117</ele>
        <time>2021-04-17T09:33:32Z</time>
      </trkpt>
      <trkpt lat="47.58033" lon="1.21571">
        <ele>118</ele>
        <time>2021-04-17T09:33:36Z</time>
      </trkpt>
      <trkpt lat="47.58042" lon="1.21565">
        <ele>120</ele>
        <time>2021-04-17T09:33:39Z</time>
      </trkpt>
      <trkpt lat="47.58051" lon="1.21559">
        <ele>121</ele>
        <time>2021-04-17T09:33:43Z</time>
      </trkpt>
      <trkpt lat="47.58061" lon="1.21555">
        <ele>121</ele>
        <time>2021-04-17T09:33:47Z</time>
      </trkpt>
      <trkpt lat="47.58072" lon="1.21552">
        <ele>122</ele>
        <time>2021-04-17T09:33:51Z</time>
      </trkpt>
      <trkpt lat="47.58083" lon="1.2155">
        <ele>123</ele>
        <time>2021-04-17T09:33:56Z</time>
      </trkpt>
      <trkpt lat="47.58094" lon="1.21549">
        <ele>124</ele>
        <time>2021-04-17T09:34:01Z</time>
      </trkpt>
      <trkpt lat="47.58107" lon="1.2155">
        <ele>125</ele>
        <time>2021-04-17T09:34:05Z</time>
      </trkpt>
      <trkpt lat="47.5812" lon="1.21549">
        <ele>125</ele>
        <time>2021-04-17T09:34:09Z</time>
      </trkpt>
      <trkpt lat="47.58132" lon="1.21551">
        <ele>124</ele>
        <time>2021-04-17T09:34:12Z</time>
      </trkpt>
      <trkpt lat="47.58143" lon="1.21547">
        <ele>125</ele>
        <time>2021-04-17T09:34:15Z</time>
      </trkpt>
      <trkpt lat="47.58153" lon="1.21537">
        <ele>125</ele>
        <time>2021-04-17T09:34:18Z</time>
      </trkpt>
      <trkpt lat="47.58161" lon="1.21525">
        <ele>125</ele>
        <time>2021-04-17T09:34:21Z</time>
      </trkpt>
      <trkpt lat="47.58167" lon="1.21512">
        <ele>125</ele>
        <time>2021-04-17T09:34:24Z</time>
      </trkpt>
      <trkpt lat="47.58173" lon="1.21495">
        <ele>125</ele>
        <time>2021-04-17T09:34:28Z</time>
      </trkpt>
      <trkpt lat="47.58179" lon="1.21483">
        <ele>125</ele>
        <time>2021-04-17T09:34:31Z</time>
      </trkpt>
      <trkpt lat="47.58185" lon="1.2147">
        <ele>125</ele>
        <time>2021-04-17T09:34:34Z</time>
      </trkpt>
      <trkpt lat="47.58192" lon="1.21456">
        <ele>126</ele>
        <time>2021-04-17T09:34:38Z</time>
      </trkpt>
      <trkpt lat="47.58202" lon="1.21445">
        <ele>125</ele>
        <time>2021-04-17T09:34:42Z</time>
      </trkpt>
      <trkpt lat="47.58212" lon="1.21436">
        <ele>126</ele>
        <time>2021-04-17T09:34:46Z</time>
      </trkpt>
      <trkpt lat="47.58221" lon="1.21426">
        <ele>125</ele>
        <time>2021-04-17T09:34:49Z</time>
      </trkpt>
      <trkpt lat="47.58229" lon="1.21417">
        <ele>126</ele>
        <time>2021-04-17T09:34:52Z</time>
      </trkpt>
      <trkpt lat="47.58239" lon="1.21407">
        <ele>126</ele>
        <time>2021-04-17T09:34:56Z</time>
      </trkpt>
      <trkpt lat="47.58249" lon="1.21394">
        <ele>126</ele>
        <time>2021-04-17T09:35:00Z</time>
      </trkpt>
      <trkpt lat="47.58257" lon="1.21384">
        <ele>126</ele>
        <time>2021-04-17T09:35:03Z</time>
      </trkpt>
      <trkpt lat="47.58264" lon="1.21374">
        <ele>126</ele>
        <time>2021-04-17T09:35:06Z</time>
      </trkpt>
      <trkpt lat="47.58275" lon="1.21364">
        <ele>126</ele>
        <time>2021-04-17T09:35:10Z</time>
      </trkpt>
      <trkpt lat="47.58285" lon="1.21353">
        <ele>126</ele>
        <time>2021-04-17T09:35:14Z</time>
      </trkpt>
      <trkpt lat="47.58293" lon="1.21346">
        <ele>125</ele>
        <time>2021-04-17T09:35:17Z</time>
      </trkpt>
      <trkpt lat="47.58303" lon="1.21338">
        <ele>125</ele>
        <time>2021-04-17T09:35:21Z</time>
      </trkpt>
      <trkpt lat="47.58313" lon="1.21326">
        <ele>124</ele>
        <time>2021-04-17T09:35:25Z</time>
      </trkpt>
      <trkpt lat="47.58323" lon="1.21316">
        <ele>123</ele>
        <time>2021-04-17T09:35:28Z</time>
      </trkpt>
      <trkpt lat="47.5833" lon="1.21306">
        <ele>122</ele>
        <time>2021-04-17T09:35:31Z</time>
      </trkpt>
      <trkpt lat="47.58338" lon="1.21294">
        <ele>122</ele>
        <time>2021-04-17T09:35:35Z</time>
      </trkpt>
      <trkpt lat="47.58346" lon="1.21284">
        <ele>122</ele>
        <time>2021-04-17T09:35:38Z</time>
      </trkpt>
      <trkpt lat="47.58355" lon="1.21269">
        <ele>121</ele>
        <time>2021-04-17T09:35:42Z</time>
      </trkpt>
      <trkpt lat="47.58362" lon="1.21255">
        <ele>120</ele>
        <time>2021-04-17T09:35:45Z</time>
      </trkpt>
      <trkpt lat="47.58369" lon="1.21242">
        <ele>119</ele>
        <time>2021-04-17T09:35:48Z</time>
      </trkpt>
      <trkpt lat="47.58376" lon="1.21231">
        <ele>118</ele>
        <time>2021-04-17T09:35:51Z</time>
      </trkpt>
      <trkpt lat="47.58382" lon="1.2122">
        <ele>118</ele>
        <time>2021-04-17T09:35:54Z</time>
      </trkpt>
      <trkpt lat="47.58389" lon="1.21208">
        <ele>117</ele>
        <time>2021-04-17T09:35:57Z</time>
      </trkpt>
      <trkpt lat="47.58394" lon="1.21195">
        <ele>116</ele>
        <time>2021-04-17T09:36:00Z</time>
      </trkpt>
      <trkpt lat="47.58399" lon="1.21181">
        <ele>114</ele>
        <time>2021-04-17T09:36:03Z</time>
      </trkpt>
      <trkpt lat="47.58403" lon="1.21167">
        <ele>113</ele>
        <time>2021-04-17T09:36:06Z</time>
      </trkpt>
      <trkpt lat="47.58409" lon="1.21154">
        <ele>112</ele>
        <time>2021-04-17T09:36:09Z</time>
      </trkpt>
      <trkpt lat="47.58417" lon="1.21139">
        <ele>110</ele>
        <time>2021-04-17T09:36:13Z</time>
      </trkpt>
      <trkpt lat="47.58427" lon="1.21125">
        <ele>108</ele>
        <time>2021-04-17T09:36:17Z</time>
      </trkpt>
      <trkpt lat="47.58434" lon="1.21114">
        <ele>107</ele>
        <time>2021-04-17T09:36:20Z</time>
      </trkpt>
      <trkpt lat="47.58442" lon="1.21102">
        <ele>106</ele>
        <time>2021-04-17T09:36:23Z</time>
      </trkpt>
      <trkpt lat="47.5845" lon="1.21093">
        <ele>105</ele>
        <time>2021-04-17T09:36:26Z</time>
      </trkpt>
      <trkpt lat="47.58459" lon="1.21085">
        <ele>105</ele>
        <time>2021-04-17T09:36:29Z</time>
      </trkpt>
      <trkpt lat="47.58468" lon="1.21078">
        <ele>104</ele>
        <time>2021-04-17T09:36:32Z</time>
      </trkpt>
      <trkpt lat="47.5848" lon="1.21072">
        <ele>103</ele>
        <time>2021-04-17T09:36:36Z</time>
      </trkpt>
      <trkpt lat="47.58491" lon="1.21064">
        <ele>103</ele>
        <time>2021-04-17T09:36:40Z</time>
      </trkpt>
      <trkpt lat="47.58502" lon="1.21056">
        <ele>102</ele>
        <time>2021-04-17T09:36:44Z</time>
      </trkpt>
      <trkpt lat="47.58514" lon="1.2105">
        <ele>101</ele>
        <time>2021-04-17T09:36:48Z</time>
      </trkpt>
      <trkpt lat="47.58524" lon="1.21053">
        <ele>100</ele>
        <time>2021-04-17T09:36:51Z</time>
      </trkpt>
      <trkpt lat="47.58526" lon="1.2107">
        <ele>100</ele>
        <time>2021-04-17T09:36:56Z</time>
      </trkpt>
      <trkpt lat="47.58524" lon="1.21087">
        <ele>101</ele>
        <time>2021-04-17T09:37:00Z</time>
      </trkpt>
      <trkpt lat="47.58519" lon="1.21103">
        <ele>101</ele>
        <time>2021-04-17T09:37:04Z</time>
      </trkpt>
      <trkpt lat="47.58515" lon="1.21119">
        <ele>102</ele>
        <time>2021-04-17T09:37:08Z</time>
      </trkpt>
      <trkpt lat="47.58511" lon="1.21136">
        <ele>102</ele>
        <time>2021-04-17T09:37:13Z</time>
      </trkpt>
      <trkpt lat="47.58507" lon="1.21152">
        <ele>103</ele>
        <time>2021-04-17T09:37:17Z</time>
      </trkpt>
      <trkpt lat="47.58504" lon="1.21166">
        <ele>103</ele>
        <time>2021-04-17T09:37:21Z</time>
      </trkpt>
      <trkpt lat="47.58499" lon="1.2118">
        <ele>103</ele>
        <time>2021-04-17T09:37:25Z</time>
      </trkpt>
      <trkpt lat="47.58496" lon="1.21194">
        <ele>102</ele>
        <time>2021-04-17T09:37:28Z</time>
      </trkpt>
      <trkpt lat="47.58492" lon="1.21209">
        <ele>101</ele>
        <time>2021-04-17T09:37:31Z</time>
      </trkpt>
      <trkpt lat="47.58487" lon="1.21223">
        <ele>101</ele>
        <time>2021-04-17T09:37:34Z</time>
      </trkpt>
      <trkpt lat="47.58482" lon="1.21239">
        <ele>102</ele>
        <time>2021-04-17T09:37:38Z</time>
      </trkpt>
      <trkpt lat="47.58479" lon="1.21254">
        <ele>102</ele>
        <time>2021-04-17T09:37:42Z</time>
      </trkpt>
      <trkpt lat="47.58479" lon="1.21271">
        <ele>101</ele>
        <time>2021-04-17T09:37:47Z</time>
      </trkpt>
      <trkpt lat="47.5848" lon="1.21287">
        <ele>102</ele>
        <time>2021-04-17T09:37:51Z</time>
      </trkpt>
      <trkpt lat="47.58478" lon="1.21304">
        <ele>104</ele>
        <time>2021-04-17T09:37:55Z</time>
      </trkpt>
      <trkpt lat="47.58479" lon="1.21322">
        <ele>105</ele>
        <time>2021-04-17T09:37:59Z</time>
      </trkpt>
      <trkpt lat="47.58481" lon="1.21341">
        <ele>106</ele>
        <time>2021-04-17T09:38:03Z</time>
      </trkpt>
      <trkpt lat="47.58482" lon="1.21359">
        <ele>108</ele>
        <time>2021-04-17T09:38:07Z</time>
      </trkpt>
      <trkpt lat="47.58481" lon="1.21375">
        <ele>109</ele>
        <time>2021-04-17T09:38:12Z</time>
      </trkpt>
      <trkpt lat="47.58469" lon="1.21382">
        <ele>110</ele>
        <time>2021-04-17T09:38:17Z</time>
      </trkpt>
      <trkpt lat="47.58458" lon="1.21385">
        <ele>110</ele>
        <time>2021-04-17T09:38:21Z</time>
      </trkpt>
      <trkpt lat="47.58448" lon="1.21387">
        <ele>111</ele>
        <time>2021-04-17T09:38:25Z</time>
      </trkpt>
      <trkpt lat="47.58437" lon="1.21389">
        <ele>112</ele>
        <time>2021-04-17T09:38:29Z</time>
      </trkpt>
      <trkpt lat="47.58426" lon="1.21392">
        <ele>113</ele>
        <time>2021-04-17T09:38:33Z</time>
      </trkpt>
      <trkpt lat="47.58416" lon="1.21394">
        <ele>114</ele>
        <time>2021-04-17T09:38:36Z</time>
      </trkpt>
      <trkpt lat="47.58405" lon="1.21397">
        <ele>116</ele>
        <time>2021-04-17T09:38:40Z</time>
      </trkpt>
      <trkpt lat="47.58396" lon="1.21404">
        <ele>117</ele>
        <time>2021-04-17T09:38:44Z</time>
      </trkpt>
      <trkpt lat="47.58391" lon="1.21418">
        <ele>117</ele>
        <time>2021-04-17T09:38:48Z</time>
      </trkpt>
      <trkpt lat="47.58389" lon="1.21432">
        <ele>118</ele>
        <time>2021-04-17T09:38:52Z</time>
      </trkpt>
      <trkpt lat="47.58386" lon="1.21447">
        <ele>119</ele>
        <time>2021-04-17T09:38:56Z</time>
      </trkpt>
      <trkpt lat="47.58384" lon="1.21462">
        <ele>120</ele>
        <time>2021-04-17T09:39:00Z</time>
      </trkpt>
      <trkpt lat="47.58382" lon="1.21477">
        <ele>121</ele>
        <time>2021-04-17T09:39:04Z</time>
      </trkpt>
      <trkpt lat="47.5838" lon="1.21493">
        <ele>122</ele>
        <time>2021-04-17T09:39:08Z</time>
      </trkpt>
      <trkpt lat="47.58379" lon="1.21509">
        <ele>123</ele>
        <time>2021-04-17T09:39:12Z</time>
      </trkpt>
      <trkpt lat="47.58378" lon="1.21526">
        <ele>124</ele>
        <time>2021-04-17T09:39:16Z</time>
      </trkpt>
      <trkpt lat="47.58378" lon="1.21543">
        <ele>125</ele>
        <time>2021-04-17T09:39:20Z</time>
      </trkpt>
      <trkpt lat="47.58376" lon="1.2156">
        <ele>125</ele>
        <time>2021-04-17T09:39:24Z</time>
      </trkpt>
      <trkpt lat="47.58375" lon="1.21576">
        <ele>125</ele>
        <time>2021-04-17T09:39:28Z</time>
      </trkpt>
      <trkpt lat="47.58375" lon="1.21593">
        <ele>126</ele>
        <time>2021-04-17T09:39:32Z</time>
      </trkpt>
      <trkpt lat="47.58375" lon="1.21611">
        <ele>126</ele>
        <time>2021-04-17T09:39:36Z</time>
      </trkpt>
      <trkpt lat="47.58378" lon="1.21629">
        <ele>126</ele>
        <time>2021-04-17T09:39:40Z</time>
      </trkpt>
      <trkpt lat="47.5838" lon="1.21647">
        <ele>126</ele>
        <time>2021-04-17T09:39:44Z</time>
      </trkpt>
      <trkpt lat="47.58383" lon="1.21665">
        <ele>126</ele>
        <time>2021-04-17T09:39:48Z</time>
      </trkpt>
      <trkpt lat="47.58387" lon="1.21683">
        <ele>125</ele>
        <time>2021-04-17T09:39:52Z</time>
      </trkpt>
      <trkpt lat="47.58391" lon="1.217">
        <ele>124</ele>
        <time>2021-04-17T09:39:56Z</time>
      </trkpt>
      <trkpt lat="47.58394" lon="1.21718">
        <ele>124</ele>
        <time>2021-04-17T09:40:00Z</time>
      </trkpt>
      <trkpt lat="47.58396" lon="1.21736">
        <ele>124</ele>
        <time>2021-04-17T09:40:04Z</time>
      </trkpt>
      <trkpt lat="47.58397" lon="1.21754">
        <ele>125</ele>
        <time>2021-04-17T09:40:08Z</time>
      </trkpt>
      <trkpt lat="47.58398" lon="1.21772">
        <ele>125</ele>
        <time>2021-04-17T09:40:12Z</time>
      </trkpt>
      <trkpt lat="47.58397" lon="1.21789">
        <ele>125</ele>
        <time>2021-04-17T09:40:16Z</time>
      </trkpt>
      <trkpt lat="47.58384" lon="1.21796">
        <ele>126</ele>
        <time>2021-04-17T09:40:20Z</time>
      </trkpt>
      <trkpt lat="47.58373" lon="1.21794">
        <ele>126</ele>
        <time>2021-04-17T09:40:24Z</time>
      </trkpt>
      <trkpt lat="47.58362" lon="1.21793">
        <ele>127</ele>
        <time>2021-04-17T09:40:28Z</time>
      </trkpt>
      <trkpt lat="47.5835" lon="1.21794">
        <ele>128</ele>
        <time>2021-04-17T09:40:32Z</time>
      </trkpt>
      <trkpt lat="47.58338" lon="1.21794">
        <ele>129</ele>
        <time>2021-04-17T09:40:36Z</time>
      </trkpt>
      <trkpt lat="47.58326" lon="1.21787">
        <ele>129</ele>
        <time>2021-04-17T09:40:40Z</time>
      </trkpt>
      <trkpt lat="47.58316" lon="1.21776">
        <ele>130</ele>
        <time>2021-04-17T09:40:44Z</time>
      </trkpt>
      <trkpt lat="47.58305" lon="1.21764">
        <ele>130</ele>
        <time>2021-04-17T09:40:48Z</time>
      </trkpt>
      <trkpt lat="47.58293" lon="1.21757">
        <ele>130</ele>
        <time>2021-04-17T09:40:52Z</time>
      </trkpt>
      <trkpt lat="47.5828" lon="1.21753">
        <ele>131</ele>
        <time>2021-04-17T09:40:56Z</time>
      </trkpt>
      <trkpt lat="47.58267" lon="1.2175">
        <ele>132</ele>
        <time>2021-04-17T09:41:00Z</time>
      </trkpt>
      <trkpt lat="47.58258" lon="1.21746">
        <ele>132</ele>
        <time>2021-04-17T09:41:03Z</time>
      </trkpt>
      <trkpt lat="47.58245" lon="1.21739">
        <ele>132</ele>
        <time>2021-04-17T09:41:07Z</time>
      </trkpt>
      <trkpt lat="47.58236" lon="1.21733">
        <ele>132</ele>
        <time>2021-04-17T09:41:10Z</time>
      </trkpt>
      <trkpt lat="47.58225" lon="1.21724">
        <ele>132</ele>
        <time>2021-04-17T09:41:14Z</time>
      </trkpt>
      <trkpt lat="47.58216" lon="1.21717">
        <ele>131</ele>
        <time>2021-04-17T09:41:17Z</time>
      </trkpt>
      <trkpt lat="47.58207" lon="1.2171">
        <ele>132</ele>
        <time>2021-04-17T09:41:20Z</time>
      </trkpt>
      <trkpt lat="47.58195" lon="1.21703">
        <ele>132</ele>
        <time>2021-04-17T09:41:24Z</time>
      </trkpt>
      <trkpt lat="47.58184" lon="1.21694">
        <ele>132</ele>
        <time>2021-04-17T09:41:28Z</time>
      </trkpt>
      <trkpt lat="47.58172" lon="1.21686">
        <ele>132</ele>
        <time>2021-04-17T09:41:32Z</time>
      </trkpt>
      <trkpt lat="47.58161" lon="1.21678">
        <ele>132</ele>
        <time>2021-04-17T09:41:36Z</time>
      </trkpt>
      <trkpt lat="47.58151" lon="1.21675">
        <ele>131</ele>
        <time>2021-04-17T09:41:39Z</time>
      </trkpt>
      <trkpt lat="47.58139" lon="1.21677">
        <ele>131</ele>
        <time>2021-04-17T09:41:43Z</time>
      </trkpt>
      <trkpt lat="47.58131" lon="1.21688">
        <ele>131</ele>
        <time>2021-04-17T09:41:47Z</time>
      </trkpt>
      <trkpt lat="47.58123" lon="1.21703">
        <ele>131</ele>
        <time>2021-04-17T09:41:51Z</time>
      </trkpt>
      <trkpt lat="47.58112" lon="1.21704">
        <ele>131</ele>
        <time>2021-04-17T09:41:54Z</time>
      </trkpt>
      <trkpt lat="47.581" lon="1.21698">
        <ele>130</ele>
        <time>2021-04-17T09:41:57Z</time>
      </trkpt>
      <trkpt lat="47.58089" lon="1.21692">
        <ele>130</ele>
        <time>2021-04-17T09:42:00Z</time>
      </trkpt>
      <trkpt lat="47.58079" lon="1.21689">
        <ele>130</ele>
        <time>2021-04-17T09:42:03Z</time>
      </trkpt>
      <trkpt lat="47.58068" lon="1.21694">
        <ele>130</ele>
        <time>2021-04-17T09:42:07Z</time>
      </trkpt>
      <trkpt lat="47.58063" lon="1.21706">
        <ele>128</ele>
        <time>2021-04-17T09:42:10Z</time>
      </trkpt>
      <trkpt lat="47.58057" lon="1.21719">
        <ele>128</ele>
        <time>2021-04-17T09:42:13Z</time>
      </trkpt>
      <trkpt lat="47.58049" lon="1.21733">
        <ele>128</ele>
        <time>2021-04-17T09:42:16Z</time>
      </trkpt>
      <trkpt lat="47.58044" lon="1.21745">
        <ele>128</ele>
        <time>2021-04-17T09:42:19Z</time>
      </trkpt>
      <trkpt lat="47.58037" lon="1.21758">
        <ele>127</ele>
        <time>2021-04-17T09:42:22Z</time>
      </trkpt>
      <trkpt lat="47.58031" lon="1.2177">
        <ele>127</ele>
        <time>2021-04-17T09:42:25Z</time>
      </trkpt>
      <trkpt lat="47.58025" lon="1.21782">
        <ele>126</ele>
        <time>2021-04-17T09:42:28Z</time>
      </trkpt>
      <trkpt lat="47.58019" lon="1.21794">
        <ele>125</ele>
        <time>2021-04-17T09:42:31Z</time>
      </trkpt>
      <trkpt lat="47.58012" lon="1.21806">
        <ele>124</ele>
        <time>2021-04-17T09:42:34Z</time>
      </trkpt>
      <trkpt lat="47.58005" lon="1.21818">
        <ele>124</ele>
        <time>2021-04-17T09:42:37Z</time>
      </trkpt>
      <trkpt lat="47.58" lon="1.21831">
        <ele>124</ele>
        <time>2021-04-17T09:42:41Z</time>
      </trkpt>
      <trkpt lat="47.58007" lon="1.21845">
        <ele>122</ele>
        <time>2021-04-17T09:42:47Z</time>
      </trkpt>
      <trkpt lat="47.58016" lon="1.21854">
        <ele>122</ele>
        <time>2021-04-17T09:42:51Z</time>
      </trkpt>
      <trkpt lat="47.58026" lon="1.21861">
        <ele>123</ele>
        <time>2021-04-17T09:42:55Z</time>
      </trkpt>
      <trkpt lat="47.58036" lon="1.2187">
        <ele>124</ele>
        <time>2021-04-17T09:42:59Z</time>
      </trkpt>
      <trkpt lat="47.58046" lon="1.21879">
        <ele>125</ele>
        <time>2021-04-17T09:43:03Z</time>
      </trkpt>
      <trkpt lat="47.58055" lon="1.2189">
        <ele>126</ele>
        <time>2021-04-17T09:43:07Z</time>
      </trkpt>
      <trkpt lat="47.58064" lon="1.21902">
        <ele>127</ele>
        <time>2021-04-17T09:43:11Z</time>
      </trkpt>
      <trkpt lat="47.58073" lon="1.21913">
        <ele>127</ele>
        <time>2021-04-17T09:43:15Z</time>
      </trkpt>
      <trkpt lat="47.58081" lon="1.21922">
        <ele>129</ele>
        <time>2021-04-17T09:43:18Z</time>
      </trkpt>
      <trkpt lat="47.58088" lon="1.21934">
        <ele>130</ele>
        <time>2021-04-17T09:43:22Z</time>
      </trkpt>
      <trkpt lat="47.58096" lon="1.21947">
        <ele>132</ele>
        <time>2021-04-17T09:43:27Z</time>
      </trkpt>
      <trkpt lat="47.58106" lon="1.21956">
        <ele>133</ele>
        <time>2021-04-17T09:43:32Z</time>
      </trkpt>
      <trkpt lat="47.58109" lon="1.21971">
        <ele>134</ele>
        <time>2021-04-17T09:43:38Z</time>
      </trkpt>
      <trkpt lat="47.58106" lon="1.21985">
        <ele>134</ele>
        <time>2021-04-17T09:43:42Z</time>
      </trkpt>
      <trkpt lat="47.58099" lon="1.22001">
        <ele>134</ele>
        <time>2021-04-17T09:43:46Z</time>
      </trkpt>
      <trkpt lat="47.58093" lon="1.22017">
        <ele>134</ele>
        <time>2021-04-17T09:43:50Z</time>
      </trkpt>
      <trkpt lat="47.58088" lon="1.22032">
        <ele>135</ele>
        <time>2021-04-17T09:43:54Z</time>
      </trkpt>
      <trkpt lat="47.58082" lon="1.22049">
        <ele>135</ele>
        <time>2021-04-17T09:43:58Z</time>
      </trkpt>
      <trkpt lat="47.58078" lon="1.22063">
        <ele>135</ele>
        <time>2021-04-17T09:44:01Z</time>
      </trkpt>
      <trkpt lat="47.58073" lon="1.22077">
        <ele>135</ele>
        <time>2021-04-17T09:44:04Z</time>
      </trkpt>
      <trkpt lat="47.58068" lon="1.22092">
        <ele>136</ele>
        <time>2021-04-17T09:44:08Z</time>
      </trkpt>
      <trkpt lat="47.58063" lon="1.22107">
        <ele>136</ele>
        <time>2021-04-17T09:44:12Z</time>
      </trkpt>
      <trkpt lat="47.58058" lon="1.22121">
        <ele>135</ele>
        <time>2021-04-17T09:44:16Z</time>
      </trkpt>
      <trkpt lat="47.58052" lon="1.22136">
        <ele>135</ele>
        <time>2021-04-17T09:44:20Z</time>
      </trkpt>
      <trkpt lat="47.58047" lon="1.22151">
        <ele>135</ele>
        <time>2021-04-17T09:44:24Z</time>
      </trkpt>
      <trkpt lat="47.58041" lon="1.22167">
        <ele>135</ele>
        <time>2021-04-17T09:44:28Z</time>
      </trkpt>
      <trkpt lat="47.58037" lon="1.22182">
        <ele>137</ele>
        <time>2021-04-17T09:44:33Z</time>
      </trkpt>
      <trkpt lat="47.58028" lon="1.22192">
        <ele>138</ele>
        <time>2021-04-17T09:44:37Z</time>
      </trkpt>
      <trkpt lat="47.58014" lon="1.22196">
        <ele>138</ele>
        <time>2021-04-17T09:44:41Z</time>
      </trkpt>
      <trkpt lat="47.58001" lon="1.22193">
        <ele>138</ele>
        <time>2021-04-17T09:44:44Z</time>
      </trkpt>
      <trkpt lat="47.57991" lon="1.22188">
        <ele>138</ele>
        <time>2021-04-17T09:44:47Z</time>
      </trkpt>
      <trkpt lat="47.5798" lon="1.2218">
        <ele>138</ele>
        <time>2021-04-17T09:44:52Z</time>
      </trkpt>
      <trkpt lat="47.57971" lon="1.22173">
        <ele>138</ele>
        <time>2021-04-17T09:44:57Z</time>
      </trkpt>
      <trkpt lat="47.57961" lon="1.22176">
        <ele>137</ele>
        <time>2021-04-17T09:45:06Z</time>
      </trkpt>
      <trkpt lat="47.57955" lon="1.22189">
        <ele>137</ele>
        <time>2021-04-17T09:45:13Z</time>
      </trkpt>
      <trkpt lat="47.57952" lon="1.22203">
        <ele>137</ele>
        <time>2021-04-17T09:45:20Z</time>
      </trkpt>
      <trkpt lat="47.57948" lon="1.22218">
        <ele>137</ele>
        <time>2021-04-17T09:45:26Z</time>
      </trkpt>
      <trkpt lat="47.57943" lon="1.22234">
        <ele>137</ele>
        <time>2021-04-17T09:45:33Z</time>
      </trkpt>
      <trkpt lat="47.57939" lon="1.2225">
        <ele>139</ele>
        <time>2021-04-17T09:45:39Z</time>
      </trkpt>
      <trkpt lat="47.57935" lon="1.22265">
        <ele>139</ele>
        <time>2021-04-17T09:45:44Z</time>
      </trkpt>
      <trkpt lat="47.57933" lon="1.22282">
        <ele>140</ele>
        <time>2021-04-17T09:45:49Z</time>
      </trkpt>
      <trkpt lat="47.5793" lon="1.223">
        <ele>139</ele>
        <time>2021-04-17T09:45:55Z</time>
      </trkpt>
      <trkpt lat="47.57926" lon="1.22315">
        <ele>137</ele>
        <time>2021-04-17T09:45:59Z</time>
      </trkpt>
      <trkpt lat="47.57924" lon="1.22331">
        <ele>137</ele>
        <time>2021-04-17T09:46:03Z</time>
      </trkpt>
      <trkpt lat="47.57919" lon="1.22347">
        <ele>135</ele>
        <time>2021-04-17T09:46:07Z</time>
      </trkpt>
      <trkpt lat="47.5791" lon="1.2236">
        <ele>134</ele>
        <time>2021-04-17T09:46:11Z</time>
      </trkpt>
      <trkpt lat="47.57902" lon="1.22371">
        <ele>133</ele>
        <time>2021-04-17T09:46:16Z</time>
      </trkpt>
      <trkpt lat="47.57894" lon="1.22382">
        <ele>132</ele>
        <time>2021-04-17T09:46:22Z</time>
      </trkpt>
      <trkpt lat="47.57884" lon="1.22391">
        <ele>130</ele>
        <time>2021-04-17T09:46:29Z</time>
      </trkpt>
      <trkpt lat="47.57874" lon="1.22395">
        <ele>129</ele>
        <time>2021-04-17T09:46:33Z</time>
      </trkpt>
      <trkpt lat="47.57864" lon="1.22398">
        <ele>128</ele>
        <time>2021-04-17T09:46:38Z</time>
      </trkpt>
      <trkpt lat="47.57853" lon="1.22405">
        <ele>127</ele>
        <time>2021-04-17T09:46:43Z</time>
      </trkpt>
      <trkpt lat="47.57843" lon="1.2241">
        <ele>125</ele>
        <time>2021-04-17T09:46:49Z</time>
      </trkpt>
      <trkpt lat="47.57831" lon="1.22413">
        <ele>123</ele>
        <time>2021-04-17T09:46:54Z</time>
      </trkpt>
      <trkpt lat="47.5782" lon="1.22417">
        <ele>121</ele>
        <time>2021-04-17T09:46:59Z</time>
      </trkpt>
      <trkpt lat="47.5781" lon="1.22419">
        <ele>119</ele>
        <time>2021-04-17T09:47:06Z</time>
      </trkpt>
      <trkpt lat="47.57804" lon="1.22433">
        <ele>117</ele>
        <time>2021-04-17T09:47:12Z</time>
      </trkpt>
      <trkpt lat="47.57814" lon="1.22433">
        <ele>113</ele>
        <time>2021-04-17T09:48:02Z</time>
      </trkpt>
      <trkpt lat="47.57823" lon="1.22427">
        <ele>113</ele>
        <time>2021-04-17T09:48:15Z</time>
      </trkpt>
      <trkpt lat="47.57833" lon="1.22423">
        <ele>116</ele>
        <time>2021-04-17T09:48:24Z</time>
      </trkpt>
      <trkpt lat="47.57843" lon="1.22419">
        <ele>117</ele>
        <time>2021-04-17T09:48:33Z</time>
      </trkpt>
      <trkpt lat="47.57853" lon="1.22415">
        <ele>118</ele>
        <time>2021-04-17T09:48:44Z</time>
      </trkpt>
      <trkpt lat="47.57864" lon="1.22414">
        <ele>117</ele>
        <time>2021-04-17T09:48:52Z</time>
      </trkpt>
      <trkpt lat="47.57874" lon="1.22418">
        <ele>118</ele>
        <time>2021-04-17T09:48:57Z</time>
      </trkpt>
      <trkpt lat="47.57886" lon="1.22425">
        <ele>119</ele>
        <time>2021-04-17T09:49:01Z</time>
      </trkpt>
      <trkpt lat="47.57896" lon="1.22433">
        <ele>121</ele>
        <time>2021-04-17T09:49:05Z</time>
      </trkpt>
      <trkpt lat="47.57897" lon="1.22451">
        <ele>121</ele>
        <time>2021-04-17T09:49:10Z</time>
      </trkpt>
      <trkpt lat="47.57894" lon="1.22467">
        <ele>120</ele>
        <time>2021-04-17T09:49:15Z</time>
      </trkpt>
      <trkpt lat="47.57888" lon="1.22482">
        <ele>119</ele>
        <time>2021-04-17T09:49:20Z</time>
      </trkpt>
      <trkpt lat="47.57884" lon="1.22495">
        <ele>117</ele>
        <time>2021-04-17T09:49:25Z</time>
      </trkpt>
      <trkpt lat="47.57878" lon="1.22509">
        <ele>117</ele>
        <time>2021-04-17T09:49:30Z</time>
      </trkpt>
      <trkpt lat="47.57871" lon="1.22522">
        <ele>116</ele>
        <time>2021-04-17T09:49:35Z</time>
      </trkpt>
      <trkpt lat="47.57866" lon="1.22537">
        <ele>117</ele>
        <time>2021-04-17T09:49:44Z</time>
      </trkpt>
      <trkpt lat="47.57871" lon="1.22551">
        <ele>118</ele>
        <time>2021-04-17T09:49:50Z</time>
      </trkpt>
      <trkpt lat="47.5788" lon="1.22563">
        <ele>120</ele>
        <time>2021-04-17T09:49:55Z</time>
      </trkpt>
      <trkpt lat="47.57889" lon="1.22573">
        <ele>121</ele>
        <time>2021-04-17T09:50:00Z</time>
      </trkpt>
      <trkpt lat="47.57896" lon="1.22584">
        <ele>122</ele>
        <time>2021-04-17T09:50:05Z</time>
      </trkpt>
      <trkpt lat="47.57904" lon="1.22597">
        <ele>123</ele>
        <time>2021-04-17T09:50:10Z</time>
      </trkpt>
      <trkpt lat="47.57913" lon="1.22607">
        <ele>124</ele>
        <time>2021-04-17T09:50:15Z</time>
      </trkpt>
      <trkpt lat="47.57922" lon="1.22617">
        <ele>124</ele>
        <time>2021-04-17T09:50:20Z</time>
      </trkpt>
      <trkpt lat="47.57931" lon="1.2263">
        <ele>125</ele>
        <time>2021-04-17T09:50:25Z</time>
      </trkpt>
      <trkpt lat="47.57939" lon="1.22638">
        <ele>125</ele>
        <time>2021-04-17T09:50:30Z</time>
      </trkpt>
      <trkpt lat="47.5795" lon="1.22634">
        <ele>125</ele>
        <time>2021-04-17T09:50:34Z</time>
      </trkpt>
      <trkpt lat="47.57961" lon="1.2263">
        <ele>126</ele>
        <time>2021-04-17T09:50:37Z</time>
      </trkpt>
      <trkpt lat="47.57971" lon="1.22622">
        <ele>124</ele>
        <time>2021-04-17T09:50:43Z</time>
      </trkpt>
      <trkpt lat="47.57979" lon="1.22611">
        <ele>121</ele>
        <time>2021-04-17T09:50:52Z</time>
      </trkpt>
      <trkpt lat="47.57987" lon="1.226">
        <ele>119</ele>
        <time>2021-04-17T09:51:02Z</time>
      </trkpt>
      <trkpt lat="47.57992" lon="1.22586">
        <ele>119</ele>
        <time>2021-04-17T09:51:13Z</time>
      </trkpt>
      <trkpt lat="47.57998" lon="1.22573">
        <ele>119</ele>
        <time>2021-04-17T09:51:22Z</time>
      </trkpt>
      <trkpt lat="47.58004" lon="1.22562">
        <ele>120</ele>
        <time>2021-04-17T09:51:31Z</time>
      </trkpt>
      <trkpt lat="47.58009" lon="1.22549">
        <ele>122</ele>
        <time>2021-04-17T09:51:40Z</time>
      </trkpt>
      <trkpt lat="47.58019" lon="1.22543">
        <ele>123</ele>
        <time>2021-04-17T09:51:49Z</time>
      </trkpt>
      <trkpt lat="47.58029" lon="1.2255">
        <ele>124</ele>
        <time>2021-04-17T09:51:54Z</time>
      </trkpt>
      <trkpt lat="47.58038" lon="1.22558">
        <ele>124</ele>
        <time>2021-04-17T09:51:58Z</time>
      </trkpt>
      <trkpt lat="47.58048" lon="1.22565">
        <ele>124</ele>
        <time>2021-04-17T09:52:01Z</time>
      </trkpt>
      <trkpt lat="47.58059" lon="1.22573">
        <ele>125</ele>
        <time>2021-04-17T09:52:04Z</time>
      </trkpt>
      <trkpt lat="47.58068" lon="1.2258">
        <ele>125</ele>
        <time>2021-04-17T09:52:07Z</time>
      </trkpt>
      <trkpt lat="47.58078" lon="1.22586">
        <ele>126</ele>
        <time>2021-04-17T09:52:11Z</time>
      </trkpt>
      <trkpt lat="47.58088" lon="1.22594">
        <ele>127</ele>
        <time>2021-04-17T09:52:15Z</time>
      </trkpt>
      <trkpt lat="47.58095" lon="1.22607">
        <ele>127</ele>
        <time>2021-04-17T09:52:19Z</time>
      </trkpt>
      <trkpt lat="47.5809" lon="1.22622">
        <ele>126</ele>
        <time>2021-04-17T09:52:24Z</time>
      </trkpt>
      <trkpt lat="47.58085" lon="1.22634">
        <ele>125</ele>
        <time>2021-04-17T09:52:28Z</time>
      </trkpt>
      <trkpt lat="47.58078" lon="1.22648">
        <ele>124</ele>
        <time>2021-04-17T09:52:32Z</time>
      </trkpt>
      <trkpt lat="47.58071" lon="1.22664">
        <ele>122</ele>
        <time>2021-04-17T09:52:36Z</time>
      </trkpt>
      <trkpt lat="47.58066" lon="1.2268">
        <ele>120</ele>
        <time>2021-04-17T09:52:41Z</time>
      </trkpt>
      <trkpt lat="47.5806" lon="1.22694">
        <ele>119</ele>
        <time>2021-04-17T09:52:45Z</time>
      </trkpt>
      <trkpt lat="47.58056" lon="1.22707">
        <ele>118</ele>
        <time>2021-04-17T09:52:50Z</time>
      </trkpt>
      <trkpt lat="47.58053" lon="1.22722">
        <ele>118</ele>
        <time>2021-04-17T09:52:56Z</time>
      </trkpt>
      <trkpt lat="47.58058" lon="1.22735">
        <ele>118</ele>
        <time>2021-04-17T09:53:02Z</time>
      </trkpt>
      <trkpt lat="47.58069" lon="1.22744">
        <ele>120</ele>
        <time>2021-04-17T09:53:07Z</time>
      </trkpt>
      <trkpt lat="47.58077" lon="1.22754">
        <ele>120</ele>
        <time>2021-04-17T09:53:11Z</time>
      </trkpt>
      <trkpt lat="47.58079" lon="1.2277">
        <ele>120</ele>
        <time>2021-04-17T09:53:20Z</time>
      </trkpt>
      <trkpt lat="47.58075" lon="1.22783">
        <ele>121</ele>
        <time>2021-04-17T09:53:27Z</time>
      </trkpt>
      <trkpt lat="47.58071" lon="1.22797">
        <ele>120</ele>
        <time>2021-04-17T09:53:37Z</time>
      </trkpt>
      <trkpt lat="47.58066" lon="1.2281">
        <ele>121</ele>
        <time>2021-04-17T09:53:46Z</time>
      </trkpt>
      <trkpt lat="47.5806" lon="1.22823">
        <ele>120</ele>
        <time>2021-04-17T09:53:54Z</time>
      </trkpt>
      <trkpt lat="47.58054" lon="1.22836">
        <ele>121</ele>
        <time>2021-04-17T09:54:02Z</time>
      </trkpt>
      <trkpt lat="47.58049" lon="1.2285">
        <ele>121</ele>
        <time>2021-04-17T09:54:11Z</time>
      </trkpt>
      <trkpt lat="47.58045" lon="1.22865">
        <ele>120</ele>
        <time>2021-04-17T09:54:17Z</time>
      </trkpt>
      <trkpt lat="47.58042" lon="1.22881">
        <ele>122</ele>
        <time>2021-04-17T09:54:25Z</time>
      </trkpt>
      <trkpt lat="47.58038" lon="1.22895">
        <ele>123</ele>
        <time>2021-04-17T09:54:31Z</time>
      </trkpt>
      <trkpt lat="47.58032" lon="1.22907">
        <ele>124</ele>
        <time>2021-04-17T09:54:35Z</time>
      </trkpt>
      <trkpt lat="47.58028" lon="1.2292">
        <ele>125</ele>
        <time>2021-04-17T09:54:39Z</time>
      </trkpt>
      <trkpt lat="47.58024" lon="1.22935">
        <ele>127</ele>
        <time>2021-04-17T09:54:44Z</time>
      </trkpt>
      <trkpt lat="47.58018" lon="1.22951">
        <ele>128</ele>
        <time>2021-04-17T09:54:49Z</time>
      </trkpt>
      <trkpt lat="47.58013" lon="1.22964">
        <ele>129</ele>
        <time>2021-04-17T09:54:53Z</time>
      </trkpt>
      <trkpt lat="47.58008" lon="1.22978">
        <ele>129</ele>
        <time>2021-04-17T09:54:57Z</time>
      </trkpt>
      <trkpt lat="47.58003" lon="1.22991">
        <ele>130</ele>
        <time>2021-04-17T09:55:01Z</time>
      </trkpt>
      <trkpt lat="47.57998" lon="1.23006">
        <ele>131</ele>
        <time>2021-04-17T09:55:05Z</time>
      </trkpt>
      <trkpt lat="47.57991" lon="1.23021">
        <ele>132</ele>
        <time>2021-04-17T09:55:09Z</time>
      </trkpt>
      <trkpt lat="47.57982" lon="1.23032">
        <ele>133</ele>
        <time>2021-04-17T09:55:12Z</time>
      </trkpt>
      <trkpt lat="47.57973" lon="1.23043">
        <ele>134</ele>
        <time>2021-04-17T09:55:16Z</time>
      </trkpt>
      <trkpt lat="47.57966" lon="1.23061">
        <ele>135</ele>
        <time>2021-04-17T09:55:20Z</time>
      </trkpt>
      <trkpt lat="47.5796" lon="1.23076">
        <ele>135</ele>
        <time>2021-04-17T09:55:24Z</time>
      </trkpt>
      <trkpt lat="47.57953" lon="1.23092">
        <ele>136</ele>
        <time>2021-04-17T09:55:28Z</time>
      </trkpt>
      <trkpt lat="47.57947" lon="1.23109">
        <ele>137</ele>
        <time>2021-04-17T09:55:32Z</time>
      </trkpt>
      <trkpt lat="47.57942" lon="1.23126">
        <ele>138</ele>
        <time>2021-04-17T09:55:36Z</time>
      </trkpt>
      <trkpt lat="47.57937" lon="1.23139">
        <ele>138</ele>
        <time>2021-04-17T09:55:39Z</time>
      </trkpt>
      <trkpt lat="47.57929" lon="1.23154">
        <ele>137</ele>
        <time>2021-04-17T09:55:42Z</time>
      </trkpt>
      <trkpt lat="47.5792" lon="1.23164">
        <ele>138</ele>
        <time>2021-04-17T09:55:46Z</time>
      </trkpt>
      <trkpt lat="47.57907" lon="1.23163">
        <ele>139</ele>
        <time>2021-04-17T09:55:48Z</time>
      </trkpt>
      <trkpt lat="47.57897" lon="1.23155">
        <ele>139</ele>
        <time>2021-04-17T09:55:51Z</time>
      </trkpt>
      <trkpt lat="47.57891" lon="1.23142">
        <ele>141</ele>
        <time>2021-04-17T09:55:54Z</time>
      </trkpt>
      <trkpt lat="47.57889" lon="1.23127">
        <ele>142</ele>
        <time>2021-04-17T09:55:57Z</time>
      </trkpt>
      <trkpt lat="47.57887" lon="1.23109">
        <ele>144</ele>
        <time>2021-04-17T09:56:01Z</time>
      </trkpt>
      <trkpt lat="47.57883" lon="1.23094">
        <ele>145</ele>
        <time>2021-04-17T09:56:04Z</time>
      </trkpt>
      <trkpt lat="47.5788" lon="1.2308">
        <ele>146</ele>
        <time>2021-04-17T09:56:07Z</time>
      </trkpt>
      <trkpt lat="47.57877" lon="1.23065">
        <ele>147</ele>
        <time>2021-04-17T09:56:10Z</time>
      </trkpt>
      <trkpt lat="47.57874" lon="1.2305">
        <ele>149</ele>
        <time>2021-04-17T09:56:13Z</time>
      </trkpt>
      <trkpt lat="47.5787" lon="1.23035">
        <ele>150</ele>
        <time>2021-04-17T09:56:16Z</time>
      </trkpt>
      <trkpt lat="47.57868" lon="1.2302">
        <ele>151</ele>
        <time>2021-04-17T09:56:19Z</time>
      </trkpt>
      <trkpt lat="47.57865" lon="1.23002">
        <ele>152</ele>
        <time>2021-04-17T09:56:23Z</time>
      </trkpt>
      <trkpt lat="47.57864" lon="1.22988">
        <ele>152</ele>
        <time>2021-04-17T09:56:26Z</time>
      </trkpt>
      <trkpt lat="47.57861" lon="1.2297">
        <ele>153</ele>
        <time>2021-04-17T09:56:30Z</time>
      </trkpt>
      <trkpt lat="47.57857" lon="1.22956">
        <ele>153</ele>
        <time>2021-04-17T09:56:33Z</time>
      </trkpt>
      <trkpt lat="47.57854" lon="1.22941">
        <ele>154</ele>
        <time>2021-04-17T09:56:36Z</time>
      </trkpt>
      <trkpt lat="47.5785" lon="1.22927">
        <ele>154</ele>
        <time>2021-04-17T09:56:39Z</time>
      </trkpt>
      <trkpt lat="47.57846" lon="1.22911">
        <ele>154</ele>
        <time>2021-04-17T09:56:43Z</time>
      </trkpt>
      <trkpt lat="47.57843" lon="1.22894">
        <ele>154</ele>
        <time>2021-04-17T09:56:47Z</time>
      </trkpt>
      <trkpt lat="47.57839" lon="1.22877">
        <ele>155</ele>
        <time>2021-04-17T09:56:51Z</time>
      </trkpt>
      <trkpt lat="47.57834" lon="1.22864">
        <ele>155</ele>
        <time>2021-04-17T09:56:54Z</time>
      </trkpt>
      <trkpt lat="47.57831" lon="1.22848">
        <ele>156</ele>
        <time>2021-04-17T09:56:58Z</time>
      </trkpt>
      <trkpt lat="47.57826" lon="1.22831">
        <ele>156</ele>
        <time>2021-04-17T09:57:02Z</time>
      </trkpt>
      <trkpt lat="47.57821" lon="1.22814">
        <ele>156</ele>
        <time>2021-04-17T09:57:06Z</time>
      </trkpt>
      <trkpt lat="47.57817" lon="1.228">
        <ele>156</ele>
        <time>2021-04-17T09:57:09Z</time>
      </trkpt>
      <trkpt lat="47.57811" lon="1.22783">
        <ele>156</ele>
        <time>2021-04-17T09:57:13Z</time>
      </trkpt>
      <trkpt lat="47.57805" lon="1.22767">
        <ele>155</ele>
        <time>2021-04-17T09:57:17Z</time>
      </trkpt>
      <trkpt lat="47.57798" lon="1.22753">
        <ele>154</ele>
        <time>2021-04-17T09:57:21Z</time>
      </trkpt>
      <trkpt lat="47.57791" lon="1.22738">
        <ele>153</ele>
        <time>2021-04-17T09:57:25Z</time>
      </trkpt>
      <trkpt lat="47.57785" lon="1.22722">
        <ele>153</ele>
        <time>2021-04-17T09:57:29Z</time>
      </trkpt>
      <trkpt lat="47.5778" lon="1.22704">
        <ele>152</ele>
        <time>2021-04-17T09:57:33Z</time>
      </trkpt>
      <trkpt lat="47.57772" lon="1.22689">
        <ele>151</ele>
        <time>2021-04-17T09:57:37Z</time>
      </trkpt>
      <trkpt lat="47.57767" lon="1.22675">
        <ele>150</ele>
        <time>2021-04-17T09:57:40Z</time>
      </trkpt>
      <trkpt lat="47.57761" lon="1.22663">
        <ele>149</ele>
        <time>2021-04-17T09:57:43Z</time>
      </trkpt>
      <trkpt lat="47.57755" lon="1.22649">
        <ele>148</ele>
        <time>2021-04-17T09:57:46Z</time>
      </trkpt>
      <trkpt lat="47.57748" lon="1.22635">
        <ele>146</ele>
        <time>2021-04-17T09:57:50Z</time>
      </trkpt>
      <trkpt lat="47.57739" lon="1.22623">
        <ele>145</ele>
        <time>2021-04-17T09:57:53Z</time>
      </trkpt>
      <trkpt lat="47.57731" lon="1.2261">
        <ele>143</ele>
        <time>2021-04-17T09:57:56Z</time>
      </trkpt>
      <trkpt lat="47.57725" lon="1.22596">
        <ele>141</ele>
        <time>2021-04-17T09:57:59Z</time>
      </trkpt>
      <trkpt lat="47.57719" lon="1.2258">
        <ele>141</ele>
        <time>2021-04-17T09:58:02Z</time>
      </trkpt>
      <trkpt lat="47.57712" lon="1.22567">
        <ele>139</ele>
        <time>2021-04-17T09:58:05Z</time>
      </trkpt>
      <trkpt lat="47.57708" lon="1.22557">
        <ele>137</ele>
        <time>2021-04-17T09:58:07Z</time>
      </trkpt>
      <trkpt lat="47.57703" lon="1.22548">
        <ele>135</ele>
        <time>2021-04-17T09:58:09Z</time>
      </trkpt>
      <trkpt lat="47.57697" lon="1.22535">
        <ele>133</ele>
        <time>2021-04-17T09:58:12Z</time>
      </trkpt>
      <trkpt lat="47.57693" lon="1.22521">
        <ele>130</ele>
        <time>2021-04-17T09:58:15Z</time>
      </trkpt>
      <trkpt lat="47.57688" lon="1.22513">
        <ele>130</ele>
        <time>2021-04-17T09:58:17Z</time>
      </trkpt>
      <trkpt lat="47.57682" lon="1.225">
        <ele>129</ele>
        <time>2021-04-17T09:58:20Z</time>
      </trkpt>
      <trkpt lat="47.57677" lon="1.22487">
        <ele>128</ele>
        <time>2021-04-17T09:58:23Z</time>
      </trkpt>
      <trkpt lat="47.57672" lon="1.22476">
        <ele>128</ele>
        <time>2021-04-17T09:58:26Z</time>
      </trkpt>
      <trkpt lat="47.57664" lon="1.22462">
        <ele>127</ele>
        <time>2021-04-17T09:58:30Z</time>
      </trkpt>
      <trkpt lat="47.57655" lon="1.22449">
        <ele>126</ele>
        <time>2021-04-17T09:58:34Z</time>
      </trkpt>
      <trkpt lat="47.57648" lon="1.22432">
        <ele>126</ele>
        <time>2021-04-17T09:58:38Z</time>
      </trkpt>
      <trkpt lat="47.57642" lon="1.22417">
        <ele>126</ele>
        <time>2021-04-17T09:58:42Z</time>
      </trkpt>
      <trkpt lat="47.57636" lon="1.22401">
        <ele>126</ele>
        <time>2021-04-17T09:58:46Z</time>
      </trkpt>
      <trkpt lat="47.5763" lon="1.22387">
        <ele>125</ele>
        <time>2021-04-17T09:58:50Z</time>
      </trkpt>
      <trkpt lat="47.57624" lon="1.22368">
        <ele>125</ele>
        <time>2021-04-17T09:58:54Z</time>
      </trkpt>
      <trkpt lat="47.5762" lon="1.22354">
        <ele>125</ele>
        <time>2021-04-17T09:58:57Z</time>
      </trkpt>
      <trkpt lat="47.57615" lon="1.2234">
        <ele>125</ele>
        <time>2021-04-17T09:59:00Z</time>
      </trkpt>
      <trkpt lat="47.57609" lon="1.22322">
        <ele>125</ele>
        <time>2021-04-17T09:59:04Z</time>
      </trkpt>
      <trkpt lat="47.57604" lon="1.22305">
        <ele>124</ele>
        <time>2021-04-17T09:59:08Z</time>
      </trkpt>
      <trkpt lat="47.57603" lon="1.2229">
        <ele>125</ele>
        <time>2021-04-17T09:59:11Z</time>
      </trkpt>
      <trkpt lat="47.57601" lon="1.22272">
        <ele>124</ele>
        <time>2021-04-17T09:59:15Z</time>
      </trkpt>
      <trkpt lat="47.57601" lon="1.22256">
        <ele>124</ele>
        <time>2021-04-17T09:59:18Z</time>
      </trkpt>
      <trkpt lat="47.57601" lon="1.2224">
        <ele>124</ele>
        <time>2021-04-17T09:59:21Z</time>
      </trkpt>
      <trkpt lat="47.57604" lon="1.22223">
        <ele>123</ele>
        <time>2021-04-17T09:59:24Z</time>
      </trkpt>
      <trkpt lat="47.57605" lon="1.22204">
        <ele>122</ele>
        <time>2021-04-17T09:59:27Z</time>
      </trkpt>
      <trkpt lat="47.57607" lon="1.22187">
        <ele>121</ele>
        <time>2021-04-17T09:59:30Z</time>
      </trkpt>
      <trkpt lat="47.57609" lon="1.22169">
        <ele>120</ele>
        <time>2021-04-17T09:59:33Z</time>
      </trkpt>
      <trkpt lat="47.57611" lon="1.22153">
        <ele>120</ele>
        <time>2021-04-17T09:59:36Z</time>
      </trkpt>
      <trkpt lat="47.57614" lon="1.22136">
        <ele>120</ele>
        <time>2021-04-17T09:59:40Z</time>
      </trkpt>
      <trkpt lat="47.57617" lon="1.22122">
        <ele>119</ele>
        <time>2021-04-17T09:59:43Z</time>
      </trkpt>
      <trkpt lat="47.57621" lon="1.22104">
        <ele>119</ele>
        <time>2021-04-17T09:59:47Z</time>
      </trkpt>
      <trkpt lat="47.57624" lon="1.22088">
        <ele>117</ele>
        <time>2021-04-17T09:59:51Z</time>
      </trkpt>
      <trkpt lat="47.57624" lon="1.22069">
        <ele>116</ele>
        <time>2021-04-17T09:59:55Z</time>
      </trkpt>
      <trkpt lat="47.57622" lon="1.22054">
        <ele>116</ele>
        <time>2021-04-17T09:59:58Z</time>
      </trkpt>
      <trkpt lat="47.5762" lon="1.22039">
        <ele>116</ele>
        <time>2021-04-17T10:00:01Z</time>
      </trkpt>
      <trkpt lat="47.57618" lon="1.22024">
        <ele>116</ele>
        <time>2021-04-17T10:00:04Z</time>
      </trkpt>
      <trkpt lat="47.57615" lon="1.22007">
        <ele>115</ele>
        <time>2021-04-17T10:00:08Z</time>
      </trkpt>
      <trkpt lat="47.57606" lon="1.22">
        <ele>114</ele>
        <time>2021-04-17T10:00:13Z</time>
      </trkpt>
      <trkpt lat="47.57594" lon="1.22005">
        <ele>113</ele>
        <time>2021-04-17T10:00:19Z</time>
      </trkpt>
      <trkpt lat="47.57585" lon="1.22012">
        <ele>111</ele>
        <time>2021-04-17T10:00:24Z</time>
      </trkpt>
      <trkpt lat="47.57574" lon="1.22019">
        <ele>110</ele>
        <time>2021-04-17T10:00:29Z</time>
      </trkpt>
      <trkpt lat="47.57567" lon="1.22023">
        <ele>109</ele>
        <time>2021-04-17T10:00:32Z</time>
      </trkpt>
      <trkpt lat="47.57559" lon="1.22033">
        <ele>109</ele>
        <time>2021-04-17T10:00:37Z</time>
      </trkpt>
      <trkpt lat="47.57551" lon="1.22044">
        <ele>108</ele>
        <time>2021-04-17T10:00:42Z</time>
      </trkpt>
      <trkpt lat="47.57543" lon="1.22057">
        <ele>109</ele>
        <time>2021-04-17T10:00:47Z</time>
      </trkpt>
      <trkpt lat="47.57536" lon="1.22067">
        <ele>110</ele>
        <time>2021-04-17T10:00:53Z</time>
      </trkpt>
      <trkpt lat="47.57527" lon="1.2208">
        <ele>110</ele>
        <time>2021-04-17T10:00:58Z</time>
      </trkpt>
      <trkpt lat="47.57518" lon="1.22091">
        <ele>109</ele>
        <time>2021-04-17T10:01:02Z</time>
      </trkpt>
      <trkpt lat="47.57509" lon="1.221">
        <ele>108</ele>
        <time>2021-04-17T10:01:05Z</time>
      </trkpt>
      <trkpt lat="47.575" lon="1.22107">
        <ele>108</ele>
        <time>2021-04-17T10:01:09Z</time>
      </trkpt>
      <trkpt lat="47.57491" lon="1.22115">
        <ele>110</ele>
        <time>2021-04-17T10:01:14Z</time>
      </trkpt>
      <trkpt lat="47.57479" lon="1.22119">
        <ele>111</ele>
        <time>2021-04-17T10:01:19Z</time>
      </trkpt>
      <trkpt lat="47.57469" lon="1.22123">
        <ele>112</ele>
        <time>2021-04-17T10:01:22Z</time>
      </trkpt>
      <trkpt lat="47.57459" lon="1.22126">
        <ele>114</ele>
        <time>2021-04-17T10:01:25Z</time>
      </trkpt>
      <trkpt lat="47.57447" lon="1.22131">
        <ele>115</ele>
        <time>2021-04-17T10:01:29Z</time>
      </trkpt>
      <trkpt lat="47.57437" lon="1.22133">
        <ele>115</ele>
        <time>2021-04-17T10:01:32Z</time>
      </trkpt>
      <trkpt lat="47.57426" lon="1.22135">
        <ele>117</ele>
        <time>2021-04-17T10:01:35Z</time>
      </trkpt>
      <trkpt lat="47.57413" lon="1.22137">
        <ele>118</ele>
        <time>2021-04-17T10:01:39Z</time>
      </trkpt>
      <trkpt lat="47.57402" lon="1.22141">
        <ele>118</ele>
        <time>2021-04-17T10:01:44Z</time>
      </trkpt>
      <trkpt lat="47.57392" lon="1.22146">
        <ele>119</ele>
        <time>2021-04-17T10:01:47Z</time>
      </trkpt>
      <trkpt lat="47.57385" lon="1.22159">
        <ele>119</ele>
        <time>2021-04-17T10:01:52Z</time>
      </trkpt>
      <trkpt lat="47.57382" lon="1.22176">
        <ele>120</ele>
        <time>2021-04-17T10:01:56Z</time>
      </trkpt>
      <trkpt lat="47.57379" lon="1.22194">
        <ele>120</ele>
        <time>2021-04-17T10:02:00Z</time>
      </trkpt>
      <trkpt lat="47.57377" lon="1.22211">
        <ele>120</ele>
        <time>2021-04-17T10:02:04Z</time>
      </trkpt>
      <trkpt lat="47.57374" lon="1.22227">
        <ele>120</ele>
        <time>2021-04-17T10:02:08Z</time>
      </trkpt>
      <trkpt lat="47.57369" lon="1.22242">
        <ele>121</ele>
        <time>2021-04-17T10:02:13Z</time>
      </trkpt>
      <trkpt lat="47.57359" lon="1.22245">
        <ele>121</ele>
        <time>2021-04-17T10:02:18Z</time>
      </trkpt>
      <trkpt lat="47.57348" lon="1.22244">
        <ele>120</ele>
        <time>2021-04-17T10:02:22Z</time>
      </trkpt>
      <trkpt lat="47.57336" lon="1.22241">
        <ele>120</ele>
        <time>2021-04-17T10:02:26Z</time>
      </trkpt>
      <trkpt lat="47.57323" lon="1.22237">
        <ele>120</ele>
        <time>2021-04-17T10:02:30Z</time>
      </trkpt>
      <trkpt lat="47.57312" lon="1.22235">
        <ele>119</ele>
        <time>2021-04-17T10:02:33Z</time>
      </trkpt>
      <trkpt lat="47.573" lon="1.22234">
        <ele>119</ele>
        <time>2021-04-17T10:02:36Z</time>
      </trkpt>
      <trkpt lat="47.57289" lon="1.22232">
        <ele>119</ele>
        <time>2021-04-17T10:02:39Z</time>
      </trkpt>
      <trkpt lat="47.57279" lon="1.22227">
        <ele>120</ele>
        <time>2021-04-17T10:02:42Z</time>
      </trkpt>
      <trkpt lat="47.57267" lon="1.22222">
        <ele>120</ele>
        <time>2021-04-17T10:02:46Z</time>
      </trkpt>
      <trkpt lat="47.57256" lon="1.22217">
        <ele>121</ele>
        <time>2021-04-17T10:02:49Z</time>
      </trkpt>
      <trkpt lat="47.57244" lon="1.22213">
        <ele>121</ele>
        <time>2021-04-17T10:02:52Z</time>
      </trkpt>
      <trkpt lat="47.57232" lon="1.22208">
        <ele>121</ele>
        <time>2021-04-17T10:02:55Z</time>
      </trkpt>
      <trkpt lat="47.57222" lon="1.22203">
        <ele>122</ele>
        <time>2021-04-17T10:02:58Z</time>
      </trkpt>
      <trkpt lat="47.57211" lon="1.22196">
        <ele>123</ele>
        <time>2021-04-17T10:03:02Z</time>
      </trkpt>
      <trkpt lat="47.57199" lon="1.22193">
        <ele>123</ele>
        <time>2021-04-17T10:03:05Z</time>
      </trkpt>
      <trkpt lat="47.57188" lon="1.22188">
        <ele>124</ele>
        <time>2021-04-17T10:03:09Z</time>
      </trkpt>
      <trkpt lat="47.57179" lon="1.22181">
        <ele>124</ele>
        <time>2021-04-17T10:03:12Z</time>
      </trkpt>
      <trkpt lat="47.57168" lon="1.22177">
        <ele>125</ele>
        <time>2021-04-17T10:03:16Z</time>
      </trkpt>
      <trkpt lat="47.57156" lon="1.22175">
        <ele>126</ele>
        <time>2021-04-17T10:03:19Z</time>
      </trkpt>
      <trkpt lat="47.57144" lon="1.2217">
        <ele>126</ele>
        <time>2021-04-17T10:03:23Z</time>
      </trkpt>
      <trkpt lat="47.57132" lon="1.22165">
        <ele>126</ele>
        <time>2021-04-17T10:03:27Z</time>
      </trkpt>
      <trkpt lat="47.57122" lon="1.22163">
        <ele>126</ele>
        <time>2021-04-17T10:03:30Z</time>
      </trkpt>
      <trkpt lat="47.5711" lon="1.2216">
        <ele>126</ele>
        <time>2021-04-17T10:03:34Z</time>
      </trkpt>
      <trkpt lat="47.571" lon="1.22156">
        <ele>126</ele>
        <time>2021-04-17T10:03:38Z</time>
      </trkpt>
      <trkpt lat="47.57091" lon="1.22152">
        <ele>126</ele>
        <time>2021-04-17T10:03:41Z</time>
      </trkpt>
      <trkpt lat="47.57079" lon="1.22148">
        <ele>126</ele>
        <time>2021-04-17T10:03:44Z</time>
      </trkpt>
      <trkpt lat="47.57069" lon="1.22143">
        <ele>125</ele>
        <time>2021-04-17T10:03:47Z</time>
      </trkpt>
      <trkpt lat="47.57058" lon="1.22138">
        <ele>125</ele>
        <time>2021-04-17T10:03:50Z</time>
      </trkpt>
      <trkpt lat="47.57049" lon="1.22131">
        <ele>125</ele>
        <time>2021-04-17T10:03:53Z</time>
      </trkpt>
      <trkpt lat="47.57039" lon="1.22127">
        <ele>125</ele>
        <time>2021-04-17T10:03:56Z</time>
      </trkpt>
      <trkpt lat="47.57029" lon="1.2212">
        <ele>126</ele>
        <time>2021-04-17T10:03:59Z</time>
      </trkpt>
      <trkpt lat="47.57018" lon="1.22115">
        <ele>125</ele>
        <time>2021-04-17T10:04:02Z</time>
      </trkpt>
      <trkpt lat="47.57007" lon="1.2211">
        <ele>125</ele>
        <time>2021-04-17T10:04:05Z</time>
      </trkpt>
      <trkpt lat="47.56995" lon="1.22108">
        <ele>125</ele>
        <time>2021-04-17T10:04:09Z</time>
      </trkpt>
      <trkpt lat="47.56985" lon="1.22101">
        <ele>126</ele>
        <time>2021-04-17T10:04:12Z</time>
      </trkpt>
      <trkpt lat="47.56974" lon="1.2209">
        <ele>125</ele>
        <time>2021-04-17T10:04:16Z</time>
      </trkpt>
      <trkpt lat="47.56964" lon="1.22079">
        <ele>124</ele>
        <time>2021-04-17T10:04:20Z</time>
      </trkpt>
      <trkpt lat="47.56956" lon="1.2207">
        <ele>124</ele>
        <time>2021-04-17T10:04:24Z</time>
      </trkpt>
      <trkpt lat="47.56947" lon="1.2206">
        <ele>123</ele>
        <time>2021-04-17T10:04:28Z</time>
      </trkpt>
      <trkpt lat="47.56937" lon="1.22051">
        <ele>123</ele>
        <time>2021-04-17T10:04:32Z</time>
      </trkpt>
      <trkpt lat="47.56927" lon="1.22043">
        <ele>124</ele>
        <time>2021-04-17T10:04:36Z</time>
      </trkpt>
      <trkpt lat="47.56915" lon="1.22036">
        <ele>125</ele>
        <time>2021-04-17T10:04:40Z</time>
      </trkpt>
      <trkpt lat="47.56906" lon="1.22027">
        <ele>124</ele>
        <time>2021-04-17T10:04:44Z</time>
      </trkpt>
      <trkpt lat="47.56897" lon="1.22018">
        <ele>125</ele>
        <time>2021-04-17T10:04:48Z</time>
      </trkpt>
      <trkpt lat="47.56887" lon="1.22008">
        <ele>125</ele>
        <time>2021-04-17T10:04:52Z</time>
      </trkpt>
      <trkpt lat="47.56879" lon="1.21998">
        <ele>125</ele>
        <time>2021-04-17T10:04:56Z</time>
      </trkpt>
      <trkpt lat="47.5687" lon="1.21989">
        <ele>125</ele>
        <time>2021-04-17T10:05:00Z</time>
      </trkpt>
      <trkpt lat="47.56859" lon="1.21979">
        <ele>125</ele>
        <time>2021-04-17T10:05:04Z</time>
      </trkpt>
      <trkpt lat="47.5685" lon="1.21972">
        <ele>125</ele>
        <time>2021-04-17T10:05:07Z</time>
      </trkpt>
      <trkpt lat="47.56839" lon="1.2196">
        <ele>125</ele>
        <time>2021-04-17T10:05:11Z</time>
      </trkpt>
      <trkpt lat="47.56832" lon="1.21947">
        <ele>125</ele>
        <time>2021-04-17T10:05:15Z</time>
      </trkpt>
      <trkpt lat="47.56824" lon="1.21934">
        <ele>125</ele>
        <time>2021-04-17T10:05:19Z</time>
      </trkpt>
      <trkpt lat="47.56816" lon="1.2192">
        <ele>125</ele>
        <time>2021-04-17T10:05:23Z</time>
      </trkpt>
      <trkpt lat="47.56809" lon="1.21909">
        <ele>125</ele>
        <time>2021-04-17T10:05:26Z</time>
      </trkpt>
      <trkpt lat="47.56805" lon="1.21895">
        <ele>126</ele>
        <time>2021-04-17T10:05:29Z</time>
      </trkpt>
      <trkpt lat="47.56799" lon="1.21881">
        <ele>126</ele>
        <time>2021-04-17T10:05:32Z</time>
      </trkpt>
      <trkpt lat="47.56793" lon="1.21865">
        <ele>126</ele>
        <time>2021-04-17T10:05:36Z</time>
      </trkpt>
      <trkpt lat="47.5679" lon="1.21849">
        <ele>125</ele>
        <time>2021-04-17T10:05:39Z</time>
      </trkpt>
      <trkpt lat="47.56783" lon="1.21833">
        <ele>125</ele>
        <time>2021-04-17T10:05:43Z</time>
      </trkpt>
      <trkpt lat="47.56776" lon="1.21817">
        <ele>125</ele>
        <time>2021-04-17T10:05:47Z</time>
      </trkpt>
      <trkpt lat="47.56772" lon="1.21799">
        <ele>124</ele>
        <time>2021-04-17T10:05:51Z</time>
      </trkpt>
      <trkpt lat="47.56771" lon="1.21782">
        <ele>123</ele>
        <time>2021-04-17T10:05:54Z</time>
      </trkpt>
      <trkpt lat="47.56769" lon="1.21767">
        <ele>122</ele>
        <time>2021-04-17T10:05:57Z</time>
      </trkpt>
      <trkpt lat="47.56766" lon="1.21753">
        <ele>121</ele>
        <time>2021-04-17T10:06:00Z</time>
      </trkpt>
      <trkpt lat="47.56761" lon="1.21736">
        <ele>120</ele>
        <time>2021-04-17T10:06:04Z</time>
      </trkpt>
      <trkpt lat="47.56754" lon="1.2172">
        <ele>119</ele>
        <time>2021-04-17T10:06:08Z</time>
      </trkpt>
      <trkpt lat="47.5675" lon="1.21702">
        <ele>118</ele>
        <time>2021-04-17T10:06:12Z</time>
      </trkpt>
      <trkpt lat="47.56744" lon="1.21687">
        <ele>117</ele>
        <time>2021-04-17T10:06:16Z</time>
      </trkpt>
      <trkpt lat="47.56738" lon="1.21671">
        <ele>116</ele>
        <time>2021-04-17T10:06:20Z</time>
      </trkpt>
      <trkpt lat="47.56733" lon="1.21656">
        <ele>115</ele>
        <time>2021-04-17T10:06:23Z</time>
      </trkpt>
      <trkpt lat="47.56726" lon="1.21639">
        <ele>114</ele>
        <time>2021-04-17T10:06:27Z</time>
      </trkpt>
      <trkpt lat="47.56721" lon="1.21624">
        <ele>114</ele>
        <time>2021-04-17T10:06:30Z</time>
      </trkpt>
      <trkpt lat="47.56714" lon="1.21609">
        <ele>113</ele>
        <time>2021-04-17T10:06:34Z</time>
      </trkpt>
      <trkpt lat="47.56707" lon="1.216">
        <ele>110</ele>
        <time>2021-04-17T10:06:37Z</time>
      </trkpt>
      <trkpt lat="47.56695" lon="1.21589">
        <ele>107</ele>
        <time>2021-04-17T10:06:41Z</time>
      </trkpt>
      <trkpt lat="47.56685" lon="1.21584">
        <ele>106</ele>
        <time>2021-04-17T10:06:44Z</time>
      </trkpt>
      <trkpt lat="47.56675" lon="1.21588">
        <ele>101</ele>
        <time>2021-04-17T10:06:48Z</time>
      </trkpt>
      <trkpt lat="47.56666" lon="1.21599">
        <ele>98</ele>
        <time>2021-04-17T10:06:53Z</time>
      </trkpt>
      <trkpt lat="47.56655" lon="1.21606">
        <ele>97</ele>
        <time>2021-04-17T10:06:57Z</time>
      </trkpt>
      <trkpt lat="47.56647" lon="1.2161">
        <ele>96</ele>
        <time>2021-04-17T10:07:00Z</time>
      </trkpt>
      <trkpt lat="47.56641" lon="1.21612">
        <ele>96</ele>
        <time>2021-04-17T10:07:02Z</time>
      </trkpt>
      <trkpt lat="47.56634" lon="1.21616">
        <ele>95</ele>
        <time>2021-04-17T10:07:05Z</time>
      </trkpt>
      <trkpt lat="47.56623" lon="1.21623">
        <ele>94</ele>
        <time>2021-04-17T10:07:10Z</time>
      </trkpt>
      <trkpt lat="47.56611" lon="1.21629">
        <ele>93</ele>
        <time>2021-04-17T10:07:15Z</time>
      </trkpt>
      <trkpt lat="47.56601" lon="1.21634">
        <ele>93</ele>
        <time>2021-04-17T10:07:19Z</time>
      </trkpt>
      <trkpt lat="47.56591" lon="1.21639">
        <ele>92</ele>
        <time>2021-04-17T10:07:23Z</time>
      </trkpt>
      <trkpt lat="47.56581" lon="1.21644">
        <ele>92</ele>
        <time>2021-04-17T10:07:28Z</time>
      </trkpt>
      <trkpt lat="47.56571" lon="1.21649">
        <ele>92</ele>
        <time>2021-04-17T10:07:32Z</time>
      </trkpt>
      <trkpt lat="47.56561" lon="1.21655">
        <ele>92</ele>
        <time>2021-04-17T10:07:36Z</time>
      </trkpt>
      <trkpt lat="47.56551" lon="1.21663">
        <ele>92</ele>
        <time>2021-04-17T10:07:40Z</time>
      </trkpt>
      <trkpt lat="47.56539" lon="1.21668">
        <ele>91</ele>
        <time>2021-04-17T10:07:43Z</time>
      </trkpt>
      <trkpt lat="47.56529" lon="1.21672">
        <ele>91</ele>
        <time>2021-04-17T10:07:46Z</time>
      </trkpt>
      <trkpt lat="47.56519" lon="1.21676">
        <ele>91</ele>
        <time>2021-04-17T10:07:49Z</time>
      </trkpt>
      <trkpt lat="47.5651" lon="1.21688">
        <ele>92</ele>
        <time>2021-04-17T10:07:53Z</time>
      </trkpt>
      <trkpt lat="47.56511" lon="1.21707">
        <ele>92</ele>
        <time>2021-04-17T10:07:57Z</time>
      </trkpt>
      <trkpt lat="47.56514" lon="1.21724">
        <ele>93</ele>
        <time>2021-04-17T10:08:01Z</time>
      </trkpt>
      <trkpt lat="47.56517" lon="1.21742">
        <ele>93</ele>
        <time>2021-04-17T10:08:05Z</time>
      </trkpt>
      <trkpt lat="47.5652" lon="1.21758">
        <ele>93</ele>
        <time>2021-04-17T10:08:09Z</time>
      </trkpt>
      <trkpt lat="47.56523" lon="1.21775">
        <ele>94</ele>
        <time>2021-04-17T10:08:13Z</time>
      </trkpt>
      <trkpt lat="47.56525" lon="1.21792">
        <ele>95</ele>
        <time>2021-04-17T10:08:17Z</time>
      </trkpt>
      <trkpt lat="47.56527" lon="1.21808">
        <ele>96</ele>
        <time>2021-04-17T10:08:21Z</time>
      </trkpt>
      <trkpt lat="47.5653" lon="1.21824">
        <ele>96</ele>
        <time>2021-04-17T10:08:25Z</time>
      </trkpt>
      <trkpt lat="47.56534" lon="1.21839">
        <ele>98</ele>
        <time>2021-04-17T10:08:29Z</time>
      </trkpt>
      <trkpt lat="47.56537" lon="1.21855">
        <ele>99</ele>
        <time>2021-04-17T10:08:34Z</time>
      </trkpt>
      <trkpt lat="47.56542" lon="1.2187">
        <ele>101</ele>
        <time>2021-04-17T10:08:39Z</time>
      </trkpt>
      <trkpt lat="47.56547" lon="1.21884">
        <ele>103</ele>
        <time>2021-04-17T10:08:43Z</time>
      </trkpt>
      <trkpt lat="47.56543" lon="1.219">
        <ele>103</ele>
        <time>2021-04-17T10:08:48Z</time>
      </trkpt>
      <trkpt lat="47.56533" lon="1.21911">
        <ele>103</ele>
        <time>2021-04-17T10:08:53Z</time>
      </trkpt>
      <trkpt lat="47.56528" lon="1.21924">
        <ele>104</ele>
        <time>2021-04-17T10:08:58Z</time>
      </trkpt>
      <trkpt lat="47.56519" lon="1.21937">
        <ele>105</ele>
        <time>2021-04-17T10:09:02Z</time>
      </trkpt>
      <trkpt lat="47.56508" lon="1.21945">
        <ele>107</ele>
        <time>2021-04-17T10:09:06Z</time>
      </trkpt>
      <trkpt lat="47.56496" lon="1.21951">
        <ele>108</ele>
        <time>2021-04-17T10:09:10Z</time>
      </trkpt>
      <trkpt lat="47.56484" lon="1.21956">
        <ele>109</ele>
        <time>2021-04-17T10:09:14Z</time>
      </trkpt>
      <trkpt lat="47.56474" lon="1.2196">
        <ele>110</ele>
        <time>2021-04-17T10:09:17Z</time>
      </trkpt>
      <trkpt lat="47.56462" lon="1.21964">
        <ele>111</ele>
        <time>2021-04-17T10:09:21Z</time>
      </trkpt>
      <trkpt lat="47.5645" lon="1.21967">
        <ele>112</ele>
        <time>2021-04-17T10:09:24Z</time>
      </trkpt>
      <trkpt lat="47.56438" lon="1.2197">
        <ele>112</ele>
        <time>2021-04-17T10:09:27Z</time>
      </trkpt>
      <trkpt lat="47.56426" lon="1.2197">
        <ele>113</ele>
        <time>2021-04-17T10:09:30Z</time>
      </trkpt>
      <trkpt lat="47.56413" lon="1.2197">
        <ele>114</ele>
        <time>2021-04-17T10:09:33Z</time>
      </trkpt>
      <trkpt lat="47.56402" lon="1.21972">
        <ele>114</ele>
        <time>2021-04-17T10:09:37Z</time>
      </trkpt>
      <trkpt lat="47.5639" lon="1.21976">
        <ele>115</ele>
        <time>2021-04-17T10:09:41Z</time>
      </trkpt>
      <trkpt lat="47.56378" lon="1.2198">
        <ele>116</ele>
        <time>2021-04-17T10:09:45Z</time>
      </trkpt>
      <trkpt lat="47.56368" lon="1.21984">
        <ele>116</ele>
        <time>2021-04-17T10:09:49Z</time>
      </trkpt>
      <trkpt lat="47.56357" lon="1.21987">
        <ele>116</ele>
        <time>2021-04-17T10:09:53Z</time>
      </trkpt>
      <trkpt lat="47.56345" lon="1.21991">
        <ele>116</ele>
        <time>2021-04-17T10:09:57Z</time>
      </trkpt>
      <trkpt lat="47.56332" lon="1.21996">
        <ele>116</ele>
        <time>2021-04-17T10:10:00Z</time>
      </trkpt>
      <trkpt lat="47.56323" lon="1.21988">
        <ele>116</ele>
        <time>2021-04-17T10:10:03Z</time>
      </trkpt>
      <trkpt lat="47.56316" lon="1.21976">
        <ele>116</ele>
        <time>2021-04-17T10:10:06Z</time>
      </trkpt>
      <trkpt lat="47.56309" lon="1.21964">
        <ele>116</ele>
        <time>2021-04-17T10:10:09Z</time>
      </trkpt>
      <trkpt lat="47.56304" lon="1.21951">
        <ele>116</ele>
        <time>2021-04-17T10:10:12Z</time>
      </trkpt>
      <trkpt lat="47.56296" lon="1.21934">
        <ele>116</ele>
        <time>2021-04-17T10:10:16Z</time>
      </trkpt>
      <trkpt lat="47.5629" lon="1.21921">
        <ele>116</ele>
        <time>2021-04-17T10:10:19Z</time>
      </trkpt>
      <trkpt lat="47.56282" lon="1.2191">
        <ele>116</ele>
        <time>2021-04-17T10:10:22Z</time>
      </trkpt>
      <trkpt lat="47.56275" lon="1.21899">
        <ele>116</ele>
        <time>2021-04-17T10:10:25Z</time>
      </trkpt>
      <trkpt lat="47.56266" lon="1.21889">
        <ele>114</ele>
        <time>2021-04-17T10:10:29Z</time>
      </trkpt>
      <trkpt lat="47.56257" lon="1.21879">
        <ele>112</ele>
        <time>2021-04-17T10:10:33Z</time>
      </trkpt>
      <trkpt lat="47.5625" lon="1.21868">
        <ele>112</ele>
        <time>2021-04-17T10:10:36Z</time>
      </trkpt>
      <trkpt lat="47.56242" lon="1.21856">
        <ele>111</ele>
        <time>2021-04-17T10:10:39Z</time>
      </trkpt>
      <trkpt lat="47.56234" lon="1.21843">
        <ele>111</ele>
        <time>2021-04-17T10:10:43Z</time>
      </trkpt>
      <trkpt lat="47.56227" lon="1.21828">
        <ele>110</ele>
        <time>2021-04-17T10:10:47Z</time>
      </trkpt>
      <trkpt lat="47.56223" lon="1.21811">
        <ele>109</ele>
        <time>2021-04-17T10:10:51Z</time>
      </trkpt>
      <trkpt lat="47.56221" lon="1.21795">
        <ele>108</ele>
        <time>2021-04-17T10:10:54Z</time>
      </trkpt>
      <trkpt lat="47.56219" lon="1.2178">
        <ele>108</ele>
        <time>2021-04-17T10:10:57Z</time>
      </trkpt>
      <trkpt lat="47.56217" lon="1.21762">
        <ele>107</ele>
        <time>2021-04-17T10:11:00Z</time>
      </trkpt>
      <trkpt lat="47.56217" lon="1.21745">
        <ele>106</ele>
        <time>2021-04-17T10:11:03Z</time>
      </trkpt>
      <trkpt lat="47.56215" lon="1.2173">
        <ele>105</ele>
        <time>2021-04-17T10:11:06Z</time>
      </trkpt>
      <trkpt lat="47.56212" lon="1.21711">
        <ele>104</ele>
        <time>2021-04-17T10:11:10Z</time>
      </trkpt>
      <trkpt lat="47.5621" lon="1.21692">
        <ele>103</ele>
        <time>2021-04-17T10:11:14Z</time>
      </trkpt>
      <trkpt lat="47.56211" lon="1.21676">
        <ele>101</ele>
        <time>2021-04-17T10:11:17Z</time>
      </trkpt>
      <trkpt lat="47.5621" lon="1.2166">
        <ele>99</ele>
        <time>2021-04-17T10:11:20Z</time>
      </trkpt>
      <trkpt lat="47.5621" lon="1.21644">
        <ele>98</ele>
        <time>2021-04-17T10:11:23Z</time>
      </trkpt>
      <trkpt lat="47.56209" lon="1.21629">
        <ele>97</ele>
        <time>2021-04-17T10:11:26Z</time>
      </trkpt>
      <trkpt lat="47.56206" lon="1.21614">
        <ele>97</ele>
        <time>2021-04-17T10:11:29Z</time>
      </trkpt>
      <trkpt lat="47.56204" lon="1.21598">
        <ele>96</ele>
        <time>2021-04-17T10:11:32Z</time>
      </trkpt>
      <trkpt lat="47.562" lon="1.21584">
        <ele>96</ele>
        <time>2021-04-17T10:11:35Z</time>
      </trkpt>
      <trkpt lat="47.56196" lon="1.2157">
        <ele>95</ele>
        <time>2021-04-17T10:11:38Z</time>
      </trkpt>
      <trkpt lat="47.56198" lon="1.21554">
        <ele>95</ele>
        <time>2021-04-17T10:11:41Z</time>
      </trkpt>
      <trkpt lat="47.56199" lon="1.21539">
        <ele>95</ele>
        <time>2021-04-17T10:11:44Z</time>
      </trkpt>
      <trkpt lat="47.56203" lon="1.21524">
        <ele>94</ele>
        <time>2021-04-17T10:11:47Z</time>
      </trkpt>
      <trkpt lat="47.56207" lon="1.21507">
        <ele>91</ele>
        <time>2021-04-17T10:11:51Z</time>
      </trkpt>
      <trkpt lat="47.56213" lon="1.21494">
        <ele>91</ele>
        <time>2021-04-17T10:11:54Z</time>
      </trkpt>
      <trkpt lat="47.56219" lon="1.21482">
        <ele>90</ele>
        <time>2021-04-17T10:11:58Z</time>
      </trkpt>
      <trkpt lat="47.56227" lon="1.21471">
        <ele>89</ele>
        <time>2021-04-17T10:12:02Z</time>
      </trkpt>
      <trkpt lat="47.56236" lon="1.21457">
        <ele>89</ele>
        <time>2021-04-17T10:12:06Z</time>
      </trkpt>
      <trkpt lat="47.56241" lon="1.21443">
        <ele>89</ele>
        <time>2021-04-17T10:12:09Z</time>
      </trkpt>
      <trkpt lat="47.56245" lon="1.21428">
        <ele>89</ele>
        <time>2021-04-17T10:12:12Z</time>
      </trkpt>
      <trkpt lat="47.56246" lon="1.2141">
        <ele>88</ele>
        <time>2021-04-17T10:12:15Z</time>
      </trkpt>
      <trkpt lat="47.56246" lon="1.21393">
        <ele>87</ele>
        <time>2021-04-17T10:12:18Z</time>
      </trkpt>
      <trkpt lat="47.56245" lon="1.21375">
        <ele>87</ele>
        <time>2021-04-17T10:12:21Z</time>
      </trkpt>
      <trkpt lat="47.56243" lon="1.21359">
        <ele>86</ele>
        <time>2021-04-17T10:12:24Z</time>
      </trkpt>
      <trkpt lat="47.56241" lon="1.21345">
        <ele>86</ele>
        <time>2021-04-17T10:12:27Z</time>
      </trkpt>
      <trkpt lat="47.56237" lon="1.2133">
        <ele>86</ele>
        <time>2021-04-17T10:12:30Z</time>
      </trkpt>
      <trkpt lat="47.56232" lon="1.21316">
        <ele>86</ele>
        <time>2021-04-17T10:12:33Z</time>
      </trkpt>
      <trkpt lat="47.56223" lon="1.21307">
        <ele>85</ele>
        <time>2021-04-17T10:12:36Z</time>
      </trkpt>
      <trkpt lat="47.5621" lon="1.21305">
        <ele>83</ele>
        <time>2021-04-17T10:12:38Z</time>
      </trkpt>
      <trkpt lat="47.562" lon="1.21303">
        <ele>82</ele>
        <time>2021-04-17T10:12:40Z</time>
      </trkpt>
      <trkpt lat="47.5619" lon="1.21296">
        <ele>81</ele>
        <time>2021-04-17T10:12:43Z</time>
      </trkpt>
      <trkpt lat="47.5618" lon="1.21288">
        <ele>80</ele>
        <time>2021-04-17T10:12:46Z</time>
      </trkpt>
      <trkpt lat="47.56171" lon="1.21278">
        <ele>80</ele>
        <time>2021-04-17T10:12:50Z</time>
      </trkpt>
      <trkpt lat="47.56161" lon="1.2129">
        <ele>78</ele>
        <time>2021-04-17T10:12:57Z</time>
      </trkpt>
      <trkpt lat="47.56155" lon="1.21301">
        <ele>78</ele>
        <time>2021-04-17T10:13:00Z</time>
      </trkpt>
      <trkpt lat="47.56148" lon="1.21314">
        <ele>77</ele>
        <time>2021-04-17T10:13:03Z</time>
      </trkpt>
      <trkpt lat="47.56144" lon="1.21329">
        <ele>76</ele>
        <time>2021-04-17T10:13:06Z</time>
      </trkpt>
      <trkpt lat="47.56144" lon="1.21346">
        <ele>75</ele>
        <time>2021-04-17T10:13:10Z</time>
      </trkpt>
      <trkpt lat="47.56153" lon="1.21354">
        <ele>75</ele>
        <time>2021-04-17T10:13:17Z</time>
      </trkpt>
      <trkpt lat="47.56162" lon="1.21362">
        <ele>75</ele>
        <time>2021-04-17T10:13:23Z</time>
      </trkpt>
      <trkpt lat="47.56163" lon="1.21378">
        <ele>76</ele>
        <time>2021-04-17T10:13:29Z</time>
      </trkpt>
      <trkpt lat="47.56162" lon="1.21393">
        <ele>76</ele>
        <time>2021-04-17T10:13:34Z</time>
      </trkpt>
      <trkpt lat="47.56161" lon="1.21395">
        <ele>76</ele>
        <time>2021-04-17T10:13:36Z</time>
      </trkpt>
    </trkseg>
  </trk>
</gpx>